<?xml version="1.0" encoding="UTF-8" standalone="no" ?>
<gpx xmlns="http://www.topografix.com/GPX/1/1" xmlns:xsi="http://www.w3.org/2001/XMLSchema-instance" xsi:schemaLocation="http://www.topografix.com/GPX/1/1 http://www.topografix.com/GPX/1/1/gpx.xsd" version="1.1" creator="VisuGPX - https://www.visugpx.com">
  <metadata>
    <name>Fanjeaux 05 02 2014</name>
    <desc><![CDATA[
]]></desc>
  </metadata>
  <trk>
    <name><![CDATA[Fanjeaux 05 02 2014]]></name>
    <trkseg>
      <trkpt lat="43.18526" lon="2.03354">
        <ele>275.7</ele>
        <time>2014-02-05T08:58:51.298Z</time>
      </trkpt>
      <trkpt lat="43.18525" lon="2.03354">
        <ele>296</ele>
        <time>2014-02-05T08:58:53.000Z</time>
      </trkpt>
      <trkpt lat="43.1853" lon="2.03343">
        <ele>337</ele>
        <time>2014-02-05T08:59:5.000Z</time>
      </trkpt>
      <trkpt lat="43.18544" lon="2.03328">
        <ele>337</ele>
        <time>2014-02-05T08:59:13.000Z</time>
      </trkpt>
      <trkpt lat="43.18545" lon="2.03329">
        <ele>337.6</ele>
        <time>2014-02-05T08:59:59.000Z</time>
      </trkpt>
      <trkpt lat="43.18544" lon="2.03344">
        <ele>326.2</ele>
        <time>2014-02-05T09:03:35.000Z</time>
      </trkpt>
      <trkpt lat="43.1855" lon="2.03334">
        <ele>337.2</ele>
        <time>2014-02-05T09:03:50.000Z</time>
      </trkpt>
      <trkpt lat="43.18559" lon="2.03332">
        <ele>335.5</ele>
        <time>2014-02-05T09:04:36.000Z</time>
      </trkpt>
      <trkpt lat="43.18553" lon="2.03324">
        <ele>336.6</ele>
        <time>2014-02-05T09:05:32.000Z</time>
      </trkpt>
      <trkpt lat="43.18554" lon="2.03325">
        <ele>336.9</ele>
        <time>2014-02-05T09:06:12.000Z</time>
      </trkpt>
      <trkpt lat="43.18557" lon="2.03313">
        <ele>339.2</ele>
        <time>2014-02-05T09:07:8.000Z</time>
      </trkpt>
      <trkpt lat="43.18559" lon="2.033">
        <ele>338.6</ele>
        <time>2014-02-05T09:07:18.000Z</time>
      </trkpt>
      <trkpt lat="43.18562" lon="2.03287">
        <ele>338.4</ele>
        <time>2014-02-05T09:07:28.000Z</time>
      </trkpt>
      <trkpt lat="43.18562" lon="2.03274">
        <ele>335.2</ele>
        <time>2014-02-05T09:07:41.000Z</time>
      </trkpt>
      <trkpt lat="43.18562" lon="2.03261">
        <ele>336.8</ele>
        <time>2014-02-05T09:07:54.000Z</time>
      </trkpt>
      <trkpt lat="43.1856" lon="2.03247">
        <ele>338.8</ele>
        <time>2014-02-05T09:08:3.000Z</time>
      </trkpt>
      <trkpt lat="43.18559" lon="2.03234">
        <ele>338.9</ele>
        <time>2014-02-05T09:08:12.000Z</time>
      </trkpt>
      <trkpt lat="43.18562" lon="2.0322">
        <ele>339</ele>
        <time>2014-02-05T09:08:21.000Z</time>
      </trkpt>
      <trkpt lat="43.18565" lon="2.03209">
        <ele>338.7</ele>
        <time>2014-02-05T09:08:29.000Z</time>
      </trkpt>
      <trkpt lat="43.18569" lon="2.03198">
        <ele>338.7</ele>
        <time>2014-02-05T09:08:37.000Z</time>
      </trkpt>
      <trkpt lat="43.18575" lon="2.03187">
        <ele>338.1</ele>
        <time>2014-02-05T09:08:45.000Z</time>
      </trkpt>
      <trkpt lat="43.18581" lon="2.03177">
        <ele>337.1</ele>
        <time>2014-02-05T09:08:54.000Z</time>
      </trkpt>
      <trkpt lat="43.18585" lon="2.03165">
        <ele>337.1</ele>
        <time>2014-02-05T09:09:2.000Z</time>
      </trkpt>
      <trkpt lat="43.1859" lon="2.03155">
        <ele>336.6</ele>
        <time>2014-02-05T09:09:9.000Z</time>
      </trkpt>
      <trkpt lat="43.18595" lon="2.03144">
        <ele>335.8</ele>
        <time>2014-02-05T09:09:17.000Z</time>
      </trkpt>
      <trkpt lat="43.18599" lon="2.03131">
        <ele>335.6</ele>
        <time>2014-02-05T09:09:25.000Z</time>
      </trkpt>
      <trkpt lat="43.18604" lon="2.0312">
        <ele>335.3</ele>
        <time>2014-02-05T09:09:33.000Z</time>
      </trkpt>
      <trkpt lat="43.18605" lon="2.03106">
        <ele>334.8</ele>
        <time>2014-02-05T09:09:41.000Z</time>
      </trkpt>
      <trkpt lat="43.18602" lon="2.03093">
        <ele>334.6</ele>
        <time>2014-02-05T09:09:48.000Z</time>
      </trkpt>
      <trkpt lat="43.18603" lon="2.03081">
        <ele>334.4</ele>
        <time>2014-02-05T09:09:55.000Z</time>
      </trkpt>
      <trkpt lat="43.18606" lon="2.03068">
        <ele>333.8</ele>
        <time>2014-02-05T09:10:4.000Z</time>
      </trkpt>
      <trkpt lat="43.18611" lon="2.03057">
        <ele>333.4</ele>
        <time>2014-02-05T09:10:11.000Z</time>
      </trkpt>
      <trkpt lat="43.18617" lon="2.03046">
        <ele>333.4</ele>
        <time>2014-02-05T09:10:19.000Z</time>
      </trkpt>
      <trkpt lat="43.18621" lon="2.03035">
        <ele>333.2</ele>
        <time>2014-02-05T09:10:25.000Z</time>
      </trkpt>
      <trkpt lat="43.18625" lon="2.03024">
        <ele>333.1</ele>
        <time>2014-02-05T09:10:32.000Z</time>
      </trkpt>
      <trkpt lat="43.18634" lon="2.03002">
        <ele>332.6</ele>
        <time>2014-02-05T09:10:47.000Z</time>
      </trkpt>
      <trkpt lat="43.18641" lon="2.02993">
        <ele>332.5</ele>
        <time>2014-02-05T09:10:55.000Z</time>
      </trkpt>
      <trkpt lat="43.18649" lon="2.02984">
        <ele>332.5</ele>
        <time>2014-02-05T09:11:3.000Z</time>
      </trkpt>
      <trkpt lat="43.18658" lon="2.02976">
        <ele>332.1</ele>
        <time>2014-02-05T09:11:11.000Z</time>
      </trkpt>
      <trkpt lat="43.18666" lon="2.02969">
        <ele>331.5</ele>
        <time>2014-02-05T09:11:18.000Z</time>
      </trkpt>
      <trkpt lat="43.18675" lon="2.02962">
        <ele>331</ele>
        <time>2014-02-05T09:11:25.000Z</time>
      </trkpt>
      <trkpt lat="43.18683" lon="2.02954">
        <ele>330.7</ele>
        <time>2014-02-05T09:11:33.000Z</time>
      </trkpt>
      <trkpt lat="43.18697" lon="2.02936">
        <ele>330</ele>
        <time>2014-02-05T09:11:49.000Z</time>
      </trkpt>
      <trkpt lat="43.18704" lon="2.02926">
        <ele>329.9</ele>
        <time>2014-02-05T09:11:56.000Z</time>
      </trkpt>
      <trkpt lat="43.1871" lon="2.02917">
        <ele>329.4</ele>
        <time>2014-02-05T09:12:3.000Z</time>
      </trkpt>
      <trkpt lat="43.18717" lon="2.02908">
        <ele>329.1</ele>
        <time>2014-02-05T09:12:10.000Z</time>
      </trkpt>
      <trkpt lat="43.18724" lon="2.02899">
        <ele>328.8</ele>
        <time>2014-02-05T09:12:18.000Z</time>
      </trkpt>
      <trkpt lat="43.18732" lon="2.02891">
        <ele>328.8</ele>
        <time>2014-02-05T09:12:26.000Z</time>
      </trkpt>
      <trkpt lat="43.18739" lon="2.02883">
        <ele>328.7</ele>
        <time>2014-02-05T09:12:34.000Z</time>
      </trkpt>
      <trkpt lat="43.18754" lon="2.02864">
        <ele>328.3</ele>
        <time>2014-02-05T09:12:52.000Z</time>
      </trkpt>
      <trkpt lat="43.18762" lon="2.02855">
        <ele>328.1</ele>
        <time>2014-02-05T09:13:1.000Z</time>
      </trkpt>
      <trkpt lat="43.18769" lon="2.02846">
        <ele>328</ele>
        <time>2014-02-05T09:13:10.000Z</time>
      </trkpt>
      <trkpt lat="43.18777" lon="2.02837">
        <ele>327.9</ele>
        <time>2014-02-05T09:13:18.000Z</time>
      </trkpt>
      <trkpt lat="43.18785" lon="2.02829">
        <ele>327.8</ele>
        <time>2014-02-05T09:13:26.000Z</time>
      </trkpt>
      <trkpt lat="43.18791" lon="2.0282">
        <ele>327.6</ele>
        <time>2014-02-05T09:13:34.000Z</time>
      </trkpt>
      <trkpt lat="43.188" lon="2.02814">
        <ele>327.4</ele>
        <time>2014-02-05T09:13:42.000Z</time>
      </trkpt>
      <trkpt lat="43.18816" lon="2.028">
        <ele>327.1</ele>
        <time>2014-02-05T09:13:57.000Z</time>
      </trkpt>
      <trkpt lat="43.18822" lon="2.02792">
        <ele>327.2</ele>
        <time>2014-02-05T09:14:5.000Z</time>
      </trkpt>
      <trkpt lat="43.1883" lon="2.02782">
        <ele>327</ele>
        <time>2014-02-05T09:14:13.000Z</time>
      </trkpt>
      <trkpt lat="43.18837" lon="2.02773">
        <ele>327.1</ele>
        <time>2014-02-05T09:14:21.000Z</time>
      </trkpt>
      <trkpt lat="43.18843" lon="2.02763">
        <ele>327.3</ele>
        <time>2014-02-05T09:14:28.000Z</time>
      </trkpt>
      <trkpt lat="43.18849" lon="2.02753">
        <ele>327.2</ele>
        <time>2014-02-05T09:14:36.000Z</time>
      </trkpt>
      <trkpt lat="43.18856" lon="2.02744">
        <ele>327.1</ele>
        <time>2014-02-05T09:14:44.000Z</time>
      </trkpt>
      <trkpt lat="43.18872" lon="2.02726">
        <ele>327</ele>
        <time>2014-02-05T09:15:0.000Z</time>
      </trkpt>
      <trkpt lat="43.18878" lon="2.02717">
        <ele>327.2</ele>
        <time>2014-02-05T09:15:8.000Z</time>
      </trkpt>
      <trkpt lat="43.18883" lon="2.02706">
        <ele>327.5</ele>
        <time>2014-02-05T09:15:16.000Z</time>
      </trkpt>
      <trkpt lat="43.18892" lon="2.027">
        <ele>328</ele>
        <time>2014-02-05T09:15:28.000Z</time>
      </trkpt>
      <trkpt lat="43.18902" lon="2.02695">
        <ele>329.2</ele>
        <time>2014-02-05T09:15:36.000Z</time>
      </trkpt>
      <trkpt lat="43.18911" lon="2.0269">
        <ele>329.8</ele>
        <time>2014-02-05T09:15:44.000Z</time>
      </trkpt>
      <trkpt lat="43.18919" lon="2.02683">
        <ele>331.2</ele>
        <time>2014-02-05T09:15:53.000Z</time>
      </trkpt>
      <trkpt lat="43.18928" lon="2.02661">
        <ele>331.5</ele>
        <time>2014-02-05T09:16:14.000Z</time>
      </trkpt>
      <trkpt lat="43.18929" lon="2.02648">
        <ele>331.7</ele>
        <time>2014-02-05T09:16:22.000Z</time>
      </trkpt>
      <trkpt lat="43.18932" lon="2.02635">
        <ele>331.1</ele>
        <time>2014-02-05T09:16:30.000Z</time>
      </trkpt>
      <trkpt lat="43.18933" lon="2.02621">
        <ele>330.5</ele>
        <time>2014-02-05T09:16:38.000Z</time>
      </trkpt>
      <trkpt lat="43.18935" lon="2.02608">
        <ele>329.4</ele>
        <time>2014-02-05T09:16:46.000Z</time>
      </trkpt>
      <trkpt lat="43.18937" lon="2.02595">
        <ele>328.6</ele>
        <time>2014-02-05T09:16:53.000Z</time>
      </trkpt>
      <trkpt lat="43.1894" lon="2.02583">
        <ele>327.8</ele>
        <time>2014-02-05T09:17:0.000Z</time>
      </trkpt>
      <trkpt lat="43.18945" lon="2.02558">
        <ele>326.7</ele>
        <time>2014-02-05T09:17:15.000Z</time>
      </trkpt>
      <trkpt lat="43.18948" lon="2.02545">
        <ele>326.2</ele>
        <time>2014-02-05T09:17:23.000Z</time>
      </trkpt>
      <trkpt lat="43.1895" lon="2.02533">
        <ele>325.9</ele>
        <time>2014-02-05T09:17:31.000Z</time>
      </trkpt>
      <trkpt lat="43.18951" lon="2.02519">
        <ele>325.4</ele>
        <time>2014-02-05T09:17:39.000Z</time>
      </trkpt>
      <trkpt lat="43.18951" lon="2.02505">
        <ele>324.9</ele>
        <time>2014-02-05T09:17:47.000Z</time>
      </trkpt>
      <trkpt lat="43.1895" lon="2.02492">
        <ele>324.3</ele>
        <time>2014-02-05T09:17:55.000Z</time>
      </trkpt>
      <trkpt lat="43.1895" lon="2.02478">
        <ele>323.8</ele>
        <time>2014-02-05T09:18:3.000Z</time>
      </trkpt>
      <trkpt lat="43.18946" lon="2.02453">
        <ele>322.7</ele>
        <time>2014-02-05T09:18:20.000Z</time>
      </trkpt>
      <trkpt lat="43.18942" lon="2.0244">
        <ele>322.7</ele>
        <time>2014-02-05T09:18:32.000Z</time>
      </trkpt>
      <trkpt lat="43.1894" lon="2.02427">
        <ele>322.1</ele>
        <time>2014-02-05T09:18:42.000Z</time>
      </trkpt>
      <trkpt lat="43.18935" lon="2.02417">
        <ele>322.2</ele>
        <time>2014-02-05T09:18:50.000Z</time>
      </trkpt>
      <trkpt lat="43.18928" lon="2.02407">
        <ele>322.1</ele>
        <time>2014-02-05T09:19:1.000Z</time>
      </trkpt>
      <trkpt lat="43.18921" lon="2.02398">
        <ele>322.5</ele>
        <time>2014-02-05T09:19:10.000Z</time>
      </trkpt>
      <trkpt lat="43.18916" lon="2.02372">
        <ele>323.9</ele>
        <time>2014-02-05T09:19:26.000Z</time>
      </trkpt>
      <trkpt lat="43.18915" lon="2.0236">
        <ele>324.4</ele>
        <time>2014-02-05T09:19:34.000Z</time>
      </trkpt>
      <trkpt lat="43.18916" lon="2.02347">
        <ele>324.8</ele>
        <time>2014-02-05T09:19:42.000Z</time>
      </trkpt>
      <trkpt lat="43.18918" lon="2.02334">
        <ele>325.4</ele>
        <time>2014-02-05T09:19:50.000Z</time>
      </trkpt>
      <trkpt lat="43.18921" lon="2.02321">
        <ele>325.4</ele>
        <time>2014-02-05T09:19:57.000Z</time>
      </trkpt>
      <trkpt lat="43.18923" lon="2.02308">
        <ele>325</ele>
        <time>2014-02-05T09:20:4.000Z</time>
      </trkpt>
      <trkpt lat="43.18926" lon="2.02296">
        <ele>324.5</ele>
        <time>2014-02-05T09:20:11.000Z</time>
      </trkpt>
      <trkpt lat="43.1893" lon="2.02271">
        <ele>323</ele>
        <time>2014-02-05T09:20:28.000Z</time>
      </trkpt>
      <trkpt lat="43.18931" lon="2.02257">
        <ele>322.2</ele>
        <time>2014-02-05T09:20:38.000Z</time>
      </trkpt>
      <trkpt lat="43.18929" lon="2.02245">
        <ele>321.2</ele>
        <time>2014-02-05T09:20:47.000Z</time>
      </trkpt>
      <trkpt lat="43.18929" lon="2.02232">
        <ele>320.4</ele>
        <time>2014-02-05T09:20:54.000Z</time>
      </trkpt>
      <trkpt lat="43.18929" lon="2.0222">
        <ele>319.4</ele>
        <time>2014-02-05T09:21:1.000Z</time>
      </trkpt>
      <trkpt lat="43.18927" lon="2.02205">
        <ele>318.9</ele>
        <time>2014-02-05T09:21:9.000Z</time>
      </trkpt>
      <trkpt lat="43.18927" lon="2.02192">
        <ele>318.1</ele>
        <time>2014-02-05T09:21:16.000Z</time>
      </trkpt>
      <trkpt lat="43.18925" lon="2.02167">
        <ele>316.7</ele>
        <time>2014-02-05T09:21:30.000Z</time>
      </trkpt>
      <trkpt lat="43.18927" lon="2.02153">
        <ele>316.6</ele>
        <time>2014-02-05T09:21:38.000Z</time>
      </trkpt>
      <trkpt lat="43.18927" lon="2.0214">
        <ele>316</ele>
        <time>2014-02-05T09:21:45.000Z</time>
      </trkpt>
      <trkpt lat="43.18928" lon="2.02126">
        <ele>315.3</ele>
        <time>2014-02-05T09:21:53.000Z</time>
      </trkpt>
      <trkpt lat="43.18929" lon="2.02114">
        <ele>314.6</ele>
        <time>2014-02-05T09:22:0.000Z</time>
      </trkpt>
      <trkpt lat="43.18931" lon="2.02101">
        <ele>313.7</ele>
        <time>2014-02-05T09:22:8.000Z</time>
      </trkpt>
      <trkpt lat="43.18935" lon="2.02089">
        <ele>313.5</ele>
        <time>2014-02-05T09:22:16.000Z</time>
      </trkpt>
      <trkpt lat="43.18938" lon="2.02076">
        <ele>313.2</ele>
        <time>2014-02-05T09:22:23.000Z</time>
      </trkpt>
      <trkpt lat="43.18945" lon="2.02052">
        <ele>312.9</ele>
        <time>2014-02-05T09:22:39.000Z</time>
      </trkpt>
      <trkpt lat="43.18948" lon="2.02039">
        <ele>313</ele>
        <time>2014-02-05T09:22:47.000Z</time>
      </trkpt>
      <trkpt lat="43.18952" lon="2.02027">
        <ele>313.7</ele>
        <time>2014-02-05T09:22:55.000Z</time>
      </trkpt>
      <trkpt lat="43.18956" lon="2.02014">
        <ele>314</ele>
        <time>2014-02-05T09:23:3.000Z</time>
      </trkpt>
      <trkpt lat="43.18961" lon="2.02003">
        <ele>314.9</ele>
        <time>2014-02-05T09:23:11.000Z</time>
      </trkpt>
      <trkpt lat="43.18967" lon="2.01992">
        <ele>315.7</ele>
        <time>2014-02-05T09:23:19.000Z</time>
      </trkpt>
      <trkpt lat="43.18973" lon="2.01982">
        <ele>316.4</ele>
        <time>2014-02-05T09:23:27.000Z</time>
      </trkpt>
      <trkpt lat="43.18987" lon="2.01965">
        <ele>316.7</ele>
        <time>2014-02-05T09:23:46.000Z</time>
      </trkpt>
      <trkpt lat="43.1899" lon="2.01953">
        <ele>316.7</ele>
        <time>2014-02-05T09:23:54.000Z</time>
      </trkpt>
      <trkpt lat="43.18994" lon="2.01941">
        <ele>316.9</ele>
        <time>2014-02-05T09:24:2.000Z</time>
      </trkpt>
      <trkpt lat="43.18998" lon="2.01929">
        <ele>316.8</ele>
        <time>2014-02-05T09:24:10.000Z</time>
      </trkpt>
      <trkpt lat="43.19003" lon="2.01917">
        <ele>317.2</ele>
        <time>2014-02-05T09:24:18.000Z</time>
      </trkpt>
      <trkpt lat="43.19007" lon="2.01905">
        <ele>317.8</ele>
        <time>2014-02-05T09:24:26.000Z</time>
      </trkpt>
      <trkpt lat="43.19011" lon="2.01894">
        <ele>318</ele>
        <time>2014-02-05T09:24:34.000Z</time>
      </trkpt>
      <trkpt lat="43.19021" lon="2.01869">
        <ele>318.2</ele>
        <time>2014-02-05T09:24:50.000Z</time>
      </trkpt>
      <trkpt lat="43.19026" lon="2.01857">
        <ele>317.7</ele>
        <time>2014-02-05T09:24:58.000Z</time>
      </trkpt>
      <trkpt lat="43.19033" lon="2.01848">
        <ele>317.5</ele>
        <time>2014-02-05T09:25:5.000Z</time>
      </trkpt>
      <trkpt lat="43.19038" lon="2.01838">
        <ele>317.3</ele>
        <time>2014-02-05T09:25:12.000Z</time>
      </trkpt>
      <trkpt lat="43.19045" lon="2.01828">
        <ele>316.7</ele>
        <time>2014-02-05T09:25:19.000Z</time>
      </trkpt>
      <trkpt lat="43.19051" lon="2.01819">
        <ele>316</ele>
        <time>2014-02-05T09:25:27.000Z</time>
      </trkpt>
      <trkpt lat="43.19058" lon="2.0181">
        <ele>315.7</ele>
        <time>2014-02-05T09:25:34.000Z</time>
      </trkpt>
      <trkpt lat="43.19065" lon="2.018">
        <ele>315.4</ele>
        <time>2014-02-05T09:25:42.000Z</time>
      </trkpt>
      <trkpt lat="43.19079" lon="2.01782">
        <ele>314.4</ele>
        <time>2014-02-05T09:25:58.000Z</time>
      </trkpt>
      <trkpt lat="43.19085" lon="2.01771">
        <ele>314.2</ele>
        <time>2014-02-05T09:26:6.000Z</time>
      </trkpt>
      <trkpt lat="43.19091" lon="2.01762">
        <ele>313.8</ele>
        <time>2014-02-05T09:26:13.000Z</time>
      </trkpt>
      <trkpt lat="43.19098" lon="2.01752">
        <ele>313.2</ele>
        <time>2014-02-05T09:26:20.000Z</time>
      </trkpt>
      <trkpt lat="43.19103" lon="2.0174">
        <ele>312.2</ele>
        <time>2014-02-05T09:26:27.000Z</time>
      </trkpt>
      <trkpt lat="43.19109" lon="2.0173">
        <ele>311.7</ele>
        <time>2014-02-05T09:26:34.000Z</time>
      </trkpt>
      <trkpt lat="43.19114" lon="2.01719">
        <ele>311.3</ele>
        <time>2014-02-05T09:26:42.000Z</time>
      </trkpt>
      <trkpt lat="43.1912" lon="2.01708">
        <ele>310.3</ele>
        <time>2014-02-05T09:26:51.000Z</time>
      </trkpt>
      <trkpt lat="43.1913" lon="2.01685">
        <ele>309.4</ele>
        <time>2014-02-05T09:27:7.000Z</time>
      </trkpt>
      <trkpt lat="43.19134" lon="2.01673">
        <ele>309.1</ele>
        <time>2014-02-05T09:27:15.000Z</time>
      </trkpt>
      <trkpt lat="43.19138" lon="2.01662">
        <ele>308.7</ele>
        <time>2014-02-05T09:27:22.000Z</time>
      </trkpt>
      <trkpt lat="43.19142" lon="2.01651">
        <ele>308.3</ele>
        <time>2014-02-05T09:27:30.000Z</time>
      </trkpt>
      <trkpt lat="43.19147" lon="2.01639">
        <ele>307.6</ele>
        <time>2014-02-05T09:27:39.000Z</time>
      </trkpt>
      <trkpt lat="43.19151" lon="2.01626">
        <ele>307</ele>
        <time>2014-02-05T09:27:49.000Z</time>
      </trkpt>
      <trkpt lat="43.19156" lon="2.01616">
        <ele>306</ele>
        <time>2014-02-05T09:27:57.000Z</time>
      </trkpt>
      <trkpt lat="43.19169" lon="2.01597">
        <ele>303.2</ele>
        <time>2014-02-05T09:28:13.000Z</time>
      </trkpt>
      <trkpt lat="43.19176" lon="2.01587">
        <ele>302.1</ele>
        <time>2014-02-05T09:28:21.000Z</time>
      </trkpt>
      <trkpt lat="43.19181" lon="2.01576">
        <ele>301.3</ele>
        <time>2014-02-05T09:28:29.000Z</time>
      </trkpt>
      <trkpt lat="43.19185" lon="2.01563">
        <ele>300.6</ele>
        <time>2014-02-05T09:28:37.000Z</time>
      </trkpt>
      <trkpt lat="43.19189" lon="2.01552">
        <ele>300.3</ele>
        <time>2014-02-05T09:28:44.000Z</time>
      </trkpt>
      <trkpt lat="43.19193" lon="2.01541">
        <ele>300</ele>
        <time>2014-02-05T09:28:51.000Z</time>
      </trkpt>
      <trkpt lat="43.19199" lon="2.0153">
        <ele>299.5</ele>
        <time>2014-02-05T09:28:58.000Z</time>
      </trkpt>
      <trkpt lat="43.19212" lon="2.01511">
        <ele>298.4</ele>
        <time>2014-02-05T09:29:13.000Z</time>
      </trkpt>
      <trkpt lat="43.19221" lon="2.01504">
        <ele>298.2</ele>
        <time>2014-02-05T09:29:21.000Z</time>
      </trkpt>
      <trkpt lat="43.19231" lon="2.015">
        <ele>297.3</ele>
        <time>2014-02-05T09:29:29.000Z</time>
      </trkpt>
      <trkpt lat="43.1924" lon="2.01498">
        <ele>297.2</ele>
        <time>2014-02-05T09:29:37.000Z</time>
      </trkpt>
      <trkpt lat="43.1925" lon="2.01495">
        <ele>296.1</ele>
        <time>2014-02-05T09:29:45.000Z</time>
      </trkpt>
      <trkpt lat="43.19259" lon="2.01492">
        <ele>295.7</ele>
        <time>2014-02-05T09:29:53.000Z</time>
      </trkpt>
      <trkpt lat="43.19268" lon="2.01486">
        <ele>295.5</ele>
        <time>2014-02-05T09:30:1.000Z</time>
      </trkpt>
      <trkpt lat="43.19282" lon="2.01469">
        <ele>294.4</ele>
        <time>2014-02-05T09:30:17.000Z</time>
      </trkpt>
      <trkpt lat="43.19289" lon="2.0146">
        <ele>294.1</ele>
        <time>2014-02-05T09:30:25.000Z</time>
      </trkpt>
      <trkpt lat="43.19296" lon="2.01451">
        <ele>293.7</ele>
        <time>2014-02-05T09:30:32.000Z</time>
      </trkpt>
      <trkpt lat="43.19304" lon="2.01445">
        <ele>293.4</ele>
        <time>2014-02-05T09:30:40.000Z</time>
      </trkpt>
      <trkpt lat="43.19312" lon="2.01437">
        <ele>293.3</ele>
        <time>2014-02-05T09:30:48.000Z</time>
      </trkpt>
      <trkpt lat="43.1932" lon="2.01429">
        <ele>292.8</ele>
        <time>2014-02-05T09:30:56.000Z</time>
      </trkpt>
      <trkpt lat="43.19327" lon="2.01419">
        <ele>292</ele>
        <time>2014-02-05T09:31:5.000Z</time>
      </trkpt>
      <trkpt lat="43.19342" lon="2.01402">
        <ele>290.9</ele>
        <time>2014-02-05T09:31:21.000Z</time>
      </trkpt>
      <trkpt lat="43.1935" lon="2.01394">
        <ele>290</ele>
        <time>2014-02-05T09:31:29.000Z</time>
      </trkpt>
      <trkpt lat="43.19358" lon="2.01387">
        <ele>289.5</ele>
        <time>2014-02-05T09:31:36.000Z</time>
      </trkpt>
      <trkpt lat="43.19366" lon="2.0138">
        <ele>288.8</ele>
        <time>2014-02-05T09:31:43.000Z</time>
      </trkpt>
      <trkpt lat="43.19375" lon="2.01376">
        <ele>287.7</ele>
        <time>2014-02-05T09:31:51.000Z</time>
      </trkpt>
      <trkpt lat="43.19384" lon="2.01371">
        <ele>287</ele>
        <time>2014-02-05T09:31:59.000Z</time>
      </trkpt>
      <trkpt lat="43.19394" lon="2.01368">
        <ele>286.5</ele>
        <time>2014-02-05T09:32:7.000Z</time>
      </trkpt>
      <trkpt lat="43.19413" lon="2.01361">
        <ele>286.4</ele>
        <time>2014-02-05T09:32:23.000Z</time>
      </trkpt>
      <trkpt lat="43.19422" lon="2.01357">
        <ele>285.9</ele>
        <time>2014-02-05T09:32:30.000Z</time>
      </trkpt>
      <trkpt lat="43.1943" lon="2.01354">
        <ele>285.5</ele>
        <time>2014-02-05T09:32:37.000Z</time>
      </trkpt>
      <trkpt lat="43.1944" lon="2.01351">
        <ele>284.7</ele>
        <time>2014-02-05T09:32:45.000Z</time>
      </trkpt>
      <trkpt lat="43.1945" lon="2.01347">
        <ele>283.7</ele>
        <time>2014-02-05T09:32:53.000Z</time>
      </trkpt>
      <trkpt lat="43.19458" lon="2.01341">
        <ele>283.1</ele>
        <time>2014-02-05T09:33:10.000Z</time>
      </trkpt>
      <trkpt lat="43.19482" lon="2.01323">
        <ele>279.6</ele>
        <time>2014-02-05T09:34:50.000Z</time>
      </trkpt>
      <trkpt lat="43.1949" lon="2.01318">
        <ele>279.1</ele>
        <time>2014-02-05T09:35:0.000Z</time>
      </trkpt>
      <trkpt lat="43.19497" lon="2.0131">
        <ele>277.9</ele>
        <time>2014-02-05T09:35:10.000Z</time>
      </trkpt>
      <trkpt lat="43.195" lon="2.01297">
        <ele>275.6</ele>
        <time>2014-02-05T09:35:21.000Z</time>
      </trkpt>
      <trkpt lat="43.19504" lon="2.01272">
        <ele>269.7</ele>
        <time>2014-02-05T09:35:41.000Z</time>
      </trkpt>
      <trkpt lat="43.19505" lon="2.01259">
        <ele>267.1</ele>
        <time>2014-02-05T09:35:50.000Z</time>
      </trkpt>
      <trkpt lat="43.19507" lon="2.01246">
        <ele>264.1</ele>
        <time>2014-02-05T09:35:59.000Z</time>
      </trkpt>
      <trkpt lat="43.19509" lon="2.01234">
        <ele>261.1</ele>
        <time>2014-02-05T09:36:7.000Z</time>
      </trkpt>
      <trkpt lat="43.19512" lon="2.01221">
        <ele>258.4</ele>
        <time>2014-02-05T09:36:15.000Z</time>
      </trkpt>
      <trkpt lat="43.19518" lon="2.01211">
        <ele>256.1</ele>
        <time>2014-02-05T09:36:23.000Z</time>
      </trkpt>
      <trkpt lat="43.19527" lon="2.01188">
        <ele>252.5</ele>
        <time>2014-02-05T09:36:39.000Z</time>
      </trkpt>
      <trkpt lat="43.19526" lon="2.01175">
        <ele>249.5</ele>
        <time>2014-02-05T09:36:48.000Z</time>
      </trkpt>
      <trkpt lat="43.19528" lon="2.01162">
        <ele>248</ele>
        <time>2014-02-05T09:36:56.000Z</time>
      </trkpt>
      <trkpt lat="43.19533" lon="2.0115">
        <ele>246.2</ele>
        <time>2014-02-05T09:37:5.000Z</time>
      </trkpt>
      <trkpt lat="43.19538" lon="2.0114">
        <ele>244.8</ele>
        <time>2014-02-05T09:37:13.000Z</time>
      </trkpt>
      <trkpt lat="43.1954" lon="2.01127">
        <ele>242.1</ele>
        <time>2014-02-05T09:37:28.000Z</time>
      </trkpt>
      <trkpt lat="43.19543" lon="2.01105">
        <ele>236.8</ele>
        <time>2014-02-05T09:37:53.000Z</time>
      </trkpt>
      <trkpt lat="43.19551" lon="2.01096">
        <ele>235.8</ele>
        <time>2014-02-05T09:38:0.000Z</time>
      </trkpt>
      <trkpt lat="43.19559" lon="2.0109">
        <ele>234.8</ele>
        <time>2014-02-05T09:38:8.000Z</time>
      </trkpt>
      <trkpt lat="43.19567" lon="2.01082">
        <ele>234.7</ele>
        <time>2014-02-05T09:38:16.000Z</time>
      </trkpt>
      <trkpt lat="43.19574" lon="2.01073">
        <ele>234.5</ele>
        <time>2014-02-05T09:38:24.000Z</time>
      </trkpt>
      <trkpt lat="43.1958" lon="2.01064">
        <ele>234</ele>
        <time>2014-02-05T09:38:32.000Z</time>
      </trkpt>
      <trkpt lat="43.19592" lon="2.01044">
        <ele>233.7</ele>
        <time>2014-02-05T09:38:49.000Z</time>
      </trkpt>
      <trkpt lat="43.196" lon="2.01034">
        <ele>233.3</ele>
        <time>2014-02-05T09:38:58.000Z</time>
      </trkpt>
      <trkpt lat="43.19607" lon="2.01026">
        <ele>232.9</ele>
        <time>2014-02-05T09:39:6.000Z</time>
      </trkpt>
      <trkpt lat="43.19615" lon="2.0102">
        <ele>231.8</ele>
        <time>2014-02-05T09:39:14.000Z</time>
      </trkpt>
      <trkpt lat="43.19625" lon="2.01016">
        <ele>231.6</ele>
        <time>2014-02-05T09:39:22.000Z</time>
      </trkpt>
      <trkpt lat="43.19635" lon="2.01015">
        <ele>230.9</ele>
        <time>2014-02-05T09:39:29.000Z</time>
      </trkpt>
      <trkpt lat="43.19644" lon="2.01012">
        <ele>229.6</ele>
        <time>2014-02-05T09:39:37.000Z</time>
      </trkpt>
      <trkpt lat="43.19662" lon="2.01009">
        <ele>226.5</ele>
        <time>2014-02-05T09:39:53.000Z</time>
      </trkpt>
      <trkpt lat="43.19671" lon="2.01009">
        <ele>225.5</ele>
        <time>2014-02-05T09:40:5.000Z</time>
      </trkpt>
      <trkpt lat="43.1968" lon="2.01016">
        <ele>225</ele>
        <time>2014-02-05T09:40:52.000Z</time>
      </trkpt>
      <trkpt lat="43.19667" lon="2.01005">
        <ele>221.2</ele>
        <time>2014-02-05T09:41:52.000Z</time>
      </trkpt>
      <trkpt lat="43.19672" lon="2.01018">
        <ele>221.4</ele>
        <time>2014-02-05T09:42:1.000Z</time>
      </trkpt>
      <trkpt lat="43.19683" lon="2.01042">
        <ele>222.1</ele>
        <time>2014-02-05T09:42:13.000Z</time>
      </trkpt>
      <trkpt lat="43.19687" lon="2.01055">
        <ele>221.6</ele>
        <time>2014-02-05T09:42:18.000Z</time>
      </trkpt>
      <trkpt lat="43.1969" lon="2.01067">
        <ele>222</ele>
        <time>2014-02-05T09:42:22.000Z</time>
      </trkpt>
      <trkpt lat="43.19694" lon="2.0108">
        <ele>222.5</ele>
        <time>2014-02-05T09:42:27.000Z</time>
      </trkpt>
      <trkpt lat="43.197" lon="2.01071">
        <ele>223.1</ele>
        <time>2014-02-05T09:42:33.000Z</time>
      </trkpt>
      <trkpt lat="43.19695" lon="2.01058">
        <ele>223.1</ele>
        <time>2014-02-05T09:42:35.000Z</time>
      </trkpt>
      <trkpt lat="43.19689" lon="2.01047">
        <ele>223.5</ele>
        <time>2014-02-05T09:42:38.000Z</time>
      </trkpt>
      <trkpt lat="43.19697" lon="2.01057">
        <ele>222.8</ele>
        <time>2014-02-05T09:42:46.000Z</time>
      </trkpt>
      <trkpt lat="43.197" lon="2.01044">
        <ele>223</ele>
        <time>2014-02-05T09:42:50.000Z</time>
      </trkpt>
      <trkpt lat="43.19689" lon="2.01009">
        <ele>223</ele>
        <time>2014-02-05T09:42:55.000Z</time>
      </trkpt>
      <trkpt lat="43.19691" lon="2.00996">
        <ele>223.8</ele>
        <time>2014-02-05T09:43:0.000Z</time>
      </trkpt>
      <trkpt lat="43.19694" lon="2.00981">
        <ele>223.3</ele>
        <time>2014-02-05T09:43:5.000Z</time>
      </trkpt>
      <trkpt lat="43.19695" lon="2.00955">
        <ele>223.2</ele>
        <time>2014-02-05T09:43:16.000Z</time>
      </trkpt>
      <trkpt lat="43.19734" lon="2.00998">
        <ele>218.6</ele>
        <time>2014-02-05T09:49:0.000Z</time>
      </trkpt>
      <trkpt lat="43.19738" lon="2.01018">
        <ele>209.7</ele>
        <time>2014-02-05T09:49:4.000Z</time>
      </trkpt>
      <trkpt lat="43.19754" lon="2.01055">
        <ele>210</ele>
        <time>2014-02-05T09:49:11.000Z</time>
      </trkpt>
      <trkpt lat="43.19761" lon="2.01071">
        <ele>222.8</ele>
        <time>2014-02-05T09:49:22.000Z</time>
      </trkpt>
      <trkpt lat="43.19768" lon="2.0108">
        <ele>221.1</ele>
        <time>2014-02-05T09:49:26.000Z</time>
      </trkpt>
      <trkpt lat="43.19788" lon="2.01105">
        <ele>219.9</ele>
        <time>2014-02-05T09:49:48.000Z</time>
      </trkpt>
      <trkpt lat="43.19781" lon="2.01112">
        <ele>220.1</ele>
        <time>2014-02-05T09:49:55.000Z</time>
      </trkpt>
      <trkpt lat="43.19773" lon="2.01105">
        <ele>220.4</ele>
        <time>2014-02-05T09:50:8.000Z</time>
      </trkpt>
      <trkpt lat="43.19767" lon="2.01093">
        <ele>220.6</ele>
        <time>2014-02-05T09:50:17.000Z</time>
      </trkpt>
      <trkpt lat="43.19763" lon="2.01082">
        <ele>220.3</ele>
        <time>2014-02-05T09:50:24.000Z</time>
      </trkpt>
      <trkpt lat="43.19758" lon="2.01071">
        <ele>220.5</ele>
        <time>2014-02-05T09:50:33.000Z</time>
      </trkpt>
      <trkpt lat="43.19749" lon="2.01048">
        <ele>220.6</ele>
        <time>2014-02-05T09:50:51.000Z</time>
      </trkpt>
      <trkpt lat="43.19743" lon="2.01039">
        <ele>220.7</ele>
        <time>2014-02-05T09:50:59.000Z</time>
      </trkpt>
      <trkpt lat="43.19736" lon="2.01031">
        <ele>220.8</ele>
        <time>2014-02-05T09:51:6.000Z</time>
      </trkpt>
      <trkpt lat="43.19728" lon="2.01025">
        <ele>221.2</ele>
        <time>2014-02-05T09:51:15.000Z</time>
      </trkpt>
      <trkpt lat="43.19718" lon="2.01022">
        <ele>222</ele>
        <time>2014-02-05T09:51:26.000Z</time>
      </trkpt>
      <trkpt lat="43.19711" lon="2.01014">
        <ele>222.2</ele>
        <time>2014-02-05T09:51:37.000Z</time>
      </trkpt>
      <trkpt lat="43.19706" lon="2.00988">
        <ele>224.1</ele>
        <time>2014-02-05T09:52:3.000Z</time>
      </trkpt>
      <trkpt lat="43.19707" lon="2.00975">
        <ele>225</ele>
        <time>2014-02-05T09:52:14.000Z</time>
      </trkpt>
      <trkpt lat="43.19708" lon="2.00963">
        <ele>226.7</ele>
        <time>2014-02-05T09:52:26.000Z</time>
      </trkpt>
      <trkpt lat="43.19707" lon="2.0095">
        <ele>228.6</ele>
        <time>2014-02-05T09:52:43.000Z</time>
      </trkpt>
      <trkpt lat="43.19708" lon="2.00925">
        <ele>232.3</ele>
        <time>2014-02-05T09:53:18.000Z</time>
      </trkpt>
      <trkpt lat="43.19711" lon="2.00909">
        <ele>234.9</ele>
        <time>2014-02-05T09:53:44.000Z</time>
      </trkpt>
      <trkpt lat="43.19708" lon="2.00883">
        <ele>239.6</ele>
        <time>2014-02-05T09:54:10.000Z</time>
      </trkpt>
      <trkpt lat="43.1971" lon="2.00871">
        <ele>241.2</ele>
        <time>2014-02-05T09:54:20.000Z</time>
      </trkpt>
      <trkpt lat="43.19713" lon="2.00858">
        <ele>243.5</ele>
        <time>2014-02-05T09:54:32.000Z</time>
      </trkpt>
      <trkpt lat="43.19716" lon="2.00846">
        <ele>245</ele>
        <time>2014-02-05T09:54:40.000Z</time>
      </trkpt>
      <trkpt lat="43.19707" lon="2.0085">
        <ele>246.4</ele>
        <time>2014-02-05T09:59:6.000Z</time>
      </trkpt>
      <trkpt lat="43.19699" lon="2.00872">
        <ele>248.6</ele>
        <time>2014-02-05T09:59:30.000Z</time>
      </trkpt>
      <trkpt lat="43.19691" lon="2.00881">
        <ele>249.7</ele>
        <time>2014-02-05T09:59:41.000Z</time>
      </trkpt>
      <trkpt lat="43.19682" lon="2.00882">
        <ele>250.7</ele>
        <time>2014-02-05T09:59:50.000Z</time>
      </trkpt>
      <trkpt lat="43.19673" lon="2.00877">
        <ele>251.3</ele>
        <time>2014-02-05T09:59:58.000Z</time>
      </trkpt>
      <trkpt lat="43.1967" lon="2.00865">
        <ele>251.5</ele>
        <time>2014-02-05T10:00:6.000Z</time>
      </trkpt>
      <trkpt lat="43.1967" lon="2.00853">
        <ele>251.7</ele>
        <time>2014-02-05T10:00:16.000Z</time>
      </trkpt>
      <trkpt lat="43.19671" lon="2.00827">
        <ele>254</ele>
        <time>2014-02-05T10:00:33.000Z</time>
      </trkpt>
      <trkpt lat="43.19674" lon="2.00815">
        <ele>256.1</ele>
        <time>2014-02-05T10:00:47.000Z</time>
      </trkpt>
      <trkpt lat="43.19673" lon="2.00801">
        <ele>257.2</ele>
        <time>2014-02-05T10:00:57.000Z</time>
      </trkpt>
      <trkpt lat="43.19671" lon="2.00788">
        <ele>258.3</ele>
        <time>2014-02-05T10:01:7.000Z</time>
      </trkpt>
      <trkpt lat="43.19669" lon="2.00775">
        <ele>259</ele>
        <time>2014-02-05T10:01:17.000Z</time>
      </trkpt>
      <trkpt lat="43.19667" lon="2.00749">
        <ele>261</ele>
        <time>2014-02-05T10:01:36.000Z</time>
      </trkpt>
      <trkpt lat="43.19666" lon="2.00737">
        <ele>262.2</ele>
        <time>2014-02-05T10:01:46.000Z</time>
      </trkpt>
      <trkpt lat="43.19663" lon="2.00724">
        <ele>263.6</ele>
        <time>2014-02-05T10:01:57.000Z</time>
      </trkpt>
      <trkpt lat="43.1966" lon="2.00712">
        <ele>265.1</ele>
        <time>2014-02-05T10:02:8.000Z</time>
      </trkpt>
      <trkpt lat="43.19659" lon="2.007">
        <ele>266.4</ele>
        <time>2014-02-05T10:02:19.000Z</time>
      </trkpt>
      <trkpt lat="43.19663" lon="2.00674">
        <ele>267.8</ele>
        <time>2014-02-05T10:02:39.000Z</time>
      </trkpt>
      <trkpt lat="43.19665" lon="2.00661">
        <ele>268.3</ele>
        <time>2014-02-05T10:02:48.000Z</time>
      </trkpt>
      <trkpt lat="43.19668" lon="2.00649">
        <ele>268.5</ele>
        <time>2014-02-05T10:02:57.000Z</time>
      </trkpt>
      <trkpt lat="43.19672" lon="2.00637">
        <ele>267.9</ele>
        <time>2014-02-05T10:03:5.000Z</time>
      </trkpt>
      <trkpt lat="43.19676" lon="2.00624">
        <ele>266.6</ele>
        <time>2014-02-05T10:03:14.000Z</time>
      </trkpt>
      <trkpt lat="43.19677" lon="2.00611">
        <ele>266.1</ele>
        <time>2014-02-05T10:03:23.000Z</time>
      </trkpt>
      <trkpt lat="43.19673" lon="2.00585">
        <ele>264.4</ele>
        <time>2014-02-05T10:03:41.000Z</time>
      </trkpt>
      <trkpt lat="43.19673" lon="2.00571">
        <ele>263.9</ele>
        <time>2014-02-05T10:03:50.000Z</time>
      </trkpt>
      <trkpt lat="43.19675" lon="2.00558">
        <ele>263.7</ele>
        <time>2014-02-05T10:03:59.000Z</time>
      </trkpt>
      <trkpt lat="43.1968" lon="2.00547">
        <ele>263.3</ele>
        <time>2014-02-05T10:04:7.000Z</time>
      </trkpt>
      <trkpt lat="43.19688" lon="2.00539">
        <ele>263.5</ele>
        <time>2014-02-05T10:04:16.000Z</time>
      </trkpt>
      <trkpt lat="43.19695" lon="2.0053">
        <ele>264.3</ele>
        <time>2014-02-05T10:04:25.000Z</time>
      </trkpt>
      <trkpt lat="43.1971" lon="2.00515">
        <ele>265.3</ele>
        <time>2014-02-05T10:04:45.000Z</time>
      </trkpt>
      <trkpt lat="43.19719" lon="2.00511">
        <ele>265.6</ele>
        <time>2014-02-05T10:05:2.000Z</time>
      </trkpt>
      <trkpt lat="43.19728" lon="2.00514">
        <ele>264.1</ele>
        <time>2014-02-05T10:07:12.000Z</time>
      </trkpt>
      <trkpt lat="43.19746" lon="2.00517">
        <ele>262.2</ele>
        <time>2014-02-05T10:07:31.000Z</time>
      </trkpt>
      <trkpt lat="43.19755" lon="2.00521">
        <ele>261.4</ele>
        <time>2014-02-05T10:07:40.000Z</time>
      </trkpt>
      <trkpt lat="43.19764" lon="2.00527">
        <ele>260.5</ele>
        <time>2014-02-05T10:07:49.000Z</time>
      </trkpt>
      <trkpt lat="43.19773" lon="2.00531">
        <ele>260.3</ele>
        <time>2014-02-05T10:07:57.000Z</time>
      </trkpt>
      <trkpt lat="43.19782" lon="2.00536">
        <ele>260</ele>
        <time>2014-02-05T10:08:5.000Z</time>
      </trkpt>
      <trkpt lat="43.1979" lon="2.00541">
        <ele>259.7</ele>
        <time>2014-02-05T10:08:13.000Z</time>
      </trkpt>
      <trkpt lat="43.19806" lon="2.00556">
        <ele>260.1</ele>
        <time>2014-02-05T10:08:30.000Z</time>
      </trkpt>
      <trkpt lat="43.19812" lon="2.00567">
        <ele>260.4</ele>
        <time>2014-02-05T10:08:39.000Z</time>
      </trkpt>
      <trkpt lat="43.19817" lon="2.00579">
        <ele>261</ele>
        <time>2014-02-05T10:08:47.000Z</time>
      </trkpt>
      <trkpt lat="43.1982" lon="2.00591">
        <ele>262</ele>
        <time>2014-02-05T10:08:55.000Z</time>
      </trkpt>
      <trkpt lat="43.19823" lon="2.00604">
        <ele>262.4</ele>
        <time>2014-02-05T10:09:3.000Z</time>
      </trkpt>
      <trkpt lat="43.19827" lon="2.00616">
        <ele>263.1</ele>
        <time>2014-02-05T10:09:12.000Z</time>
      </trkpt>
      <trkpt lat="43.19832" lon="2.00628">
        <ele>263.9</ele>
        <time>2014-02-05T10:09:20.000Z</time>
      </trkpt>
      <trkpt lat="43.19841" lon="2.00651">
        <ele>264.8</ele>
        <time>2014-02-05T10:09:37.000Z</time>
      </trkpt>
      <trkpt lat="43.19846" lon="2.00662">
        <ele>265.2</ele>
        <time>2014-02-05T10:09:45.000Z</time>
      </trkpt>
      <trkpt lat="43.1985" lon="2.00674">
        <ele>265.4</ele>
        <time>2014-02-05T10:09:53.000Z</time>
      </trkpt>
      <trkpt lat="43.19854" lon="2.00685">
        <ele>265.4</ele>
        <time>2014-02-05T10:10:1.000Z</time>
      </trkpt>
      <trkpt lat="43.19858" lon="2.00697">
        <ele>265.8</ele>
        <time>2014-02-05T10:10:9.000Z</time>
      </trkpt>
      <trkpt lat="43.19862" lon="2.00709">
        <ele>266.2</ele>
        <time>2014-02-05T10:10:18.000Z</time>
      </trkpt>
      <trkpt lat="43.19865" lon="2.00722">
        <ele>267.1</ele>
        <time>2014-02-05T10:10:27.000Z</time>
      </trkpt>
      <trkpt lat="43.19873" lon="2.00745">
        <ele>267.6</ele>
        <time>2014-02-05T10:10:43.000Z</time>
      </trkpt>
      <trkpt lat="43.19876" lon="2.00758">
        <ele>268</ele>
        <time>2014-02-05T10:10:52.000Z</time>
      </trkpt>
      <trkpt lat="43.19881" lon="2.0077">
        <ele>268.4</ele>
        <time>2014-02-05T10:11:0.000Z</time>
      </trkpt>
      <trkpt lat="43.19884" lon="2.00782">
        <ele>269.1</ele>
        <time>2014-02-05T10:11:7.000Z</time>
      </trkpt>
      <trkpt lat="43.19888" lon="2.00795">
        <ele>269.1</ele>
        <time>2014-02-05T10:11:15.000Z</time>
      </trkpt>
      <trkpt lat="43.19892" lon="2.00807">
        <ele>269.7</ele>
        <time>2014-02-05T10:11:23.000Z</time>
      </trkpt>
      <trkpt lat="43.19895" lon="2.0082">
        <ele>269.5</ele>
        <time>2014-02-05T10:11:31.000Z</time>
      </trkpt>
      <trkpt lat="43.19901" lon="2.00845">
        <ele>270.4</ele>
        <time>2014-02-05T10:11:47.000Z</time>
      </trkpt>
      <trkpt lat="43.19904" lon="2.00857">
        <ele>271</ele>
        <time>2014-02-05T10:11:54.000Z</time>
      </trkpt>
      <trkpt lat="43.19907" lon="2.00869">
        <ele>270.8</ele>
        <time>2014-02-05T10:12:2.000Z</time>
      </trkpt>
      <trkpt lat="43.19911" lon="2.00881">
        <ele>270.8</ele>
        <time>2014-02-05T10:12:10.000Z</time>
      </trkpt>
      <trkpt lat="43.19914" lon="2.00894">
        <ele>271.4</ele>
        <time>2014-02-05T10:12:18.000Z</time>
      </trkpt>
      <trkpt lat="43.19917" lon="2.00906">
        <ele>272.2</ele>
        <time>2014-02-05T10:12:26.000Z</time>
      </trkpt>
      <trkpt lat="43.19921" lon="2.00917">
        <ele>272.5</ele>
        <time>2014-02-05T10:12:33.000Z</time>
      </trkpt>
      <trkpt lat="43.1993" lon="2.00941">
        <ele>272.2</ele>
        <time>2014-02-05T10:12:49.000Z</time>
      </trkpt>
      <trkpt lat="43.19934" lon="2.00953">
        <ele>272.4</ele>
        <time>2014-02-05T10:12:57.000Z</time>
      </trkpt>
      <trkpt lat="43.19939" lon="2.00964">
        <ele>272.9</ele>
        <time>2014-02-05T10:13:5.000Z</time>
      </trkpt>
      <trkpt lat="43.19944" lon="2.00975">
        <ele>273</ele>
        <time>2014-02-05T10:13:13.000Z</time>
      </trkpt>
      <trkpt lat="43.19949" lon="2.00985">
        <ele>273.4</ele>
        <time>2014-02-05T10:13:21.000Z</time>
      </trkpt>
      <trkpt lat="43.19955" lon="2.00997">
        <ele>273.6</ele>
        <time>2014-02-05T10:13:29.000Z</time>
      </trkpt>
      <trkpt lat="43.1996" lon="2.01008">
        <ele>272.8</ele>
        <time>2014-02-05T10:13:37.000Z</time>
      </trkpt>
      <trkpt lat="43.19969" lon="2.01032">
        <ele>270.9</ele>
        <time>2014-02-05T10:13:53.000Z</time>
      </trkpt>
      <trkpt lat="43.19973" lon="2.01043">
        <ele>271.4</ele>
        <time>2014-02-05T10:14:1.000Z</time>
      </trkpt>
      <trkpt lat="43.19977" lon="2.01055">
        <ele>271.2</ele>
        <time>2014-02-05T10:14:9.000Z</time>
      </trkpt>
      <trkpt lat="43.19979" lon="2.01068">
        <ele>270.9</ele>
        <time>2014-02-05T10:14:17.000Z</time>
      </trkpt>
      <trkpt lat="43.1998" lon="2.01081">
        <ele>270.7</ele>
        <time>2014-02-05T10:14:25.000Z</time>
      </trkpt>
      <trkpt lat="43.1998" lon="2.01095">
        <ele>270</ele>
        <time>2014-02-05T10:14:33.000Z</time>
      </trkpt>
      <trkpt lat="43.19979" lon="2.01109">
        <ele>269.7</ele>
        <time>2014-02-05T10:14:41.000Z</time>
      </trkpt>
      <trkpt lat="43.19975" lon="2.01136">
        <ele>270.3</ele>
        <time>2014-02-05T10:14:57.000Z</time>
      </trkpt>
      <trkpt lat="43.19974" lon="2.01149">
        <ele>269.5</ele>
        <time>2014-02-05T10:15:5.000Z</time>
      </trkpt>
      <trkpt lat="43.19972" lon="2.01163">
        <ele>268.5</ele>
        <time>2014-02-05T10:15:13.000Z</time>
      </trkpt>
      <trkpt lat="43.19972" lon="2.01176">
        <ele>268.1</ele>
        <time>2014-02-05T10:15:21.000Z</time>
      </trkpt>
      <trkpt lat="43.19973" lon="2.01189">
        <ele>267.8</ele>
        <time>2014-02-05T10:15:29.000Z</time>
      </trkpt>
      <trkpt lat="43.19973" lon="2.01202">
        <ele>267.4</ele>
        <time>2014-02-05T10:15:37.000Z</time>
      </trkpt>
      <trkpt lat="43.19972" lon="2.01215">
        <ele>267.4</ele>
        <time>2014-02-05T10:15:45.000Z</time>
      </trkpt>
      <trkpt lat="43.19975" lon="2.01241">
        <ele>266.8</ele>
        <time>2014-02-05T10:16:1.000Z</time>
      </trkpt>
      <trkpt lat="43.19976" lon="2.01254">
        <ele>266.9</ele>
        <time>2014-02-05T10:16:10.000Z</time>
      </trkpt>
      <trkpt lat="43.19977" lon="2.01267">
        <ele>267</ele>
        <time>2014-02-05T10:16:18.000Z</time>
      </trkpt>
      <trkpt lat="43.19977" lon="2.01279">
        <ele>266.8</ele>
        <time>2014-02-05T10:16:26.000Z</time>
      </trkpt>
      <trkpt lat="43.19977" lon="2.01293">
        <ele>267.2</ele>
        <time>2014-02-05T10:16:34.000Z</time>
      </trkpt>
      <trkpt lat="43.19978" lon="2.01305">
        <ele>267.1</ele>
        <time>2014-02-05T10:16:42.000Z</time>
      </trkpt>
      <trkpt lat="43.19978" lon="2.01318">
        <ele>267.4</ele>
        <time>2014-02-05T10:16:50.000Z</time>
      </trkpt>
      <trkpt lat="43.19976" lon="2.01345">
        <ele>267.8</ele>
        <time>2014-02-05T10:17:6.000Z</time>
      </trkpt>
      <trkpt lat="43.19974" lon="2.01358">
        <ele>267.2</ele>
        <time>2014-02-05T10:17:15.000Z</time>
      </trkpt>
      <trkpt lat="43.19973" lon="2.01372">
        <ele>268.6</ele>
        <time>2014-02-05T10:17:24.000Z</time>
      </trkpt>
      <trkpt lat="43.19972" lon="2.01384">
        <ele>268.8</ele>
        <time>2014-02-05T10:17:32.000Z</time>
      </trkpt>
      <trkpt lat="43.19971" lon="2.01397">
        <ele>268.4</ele>
        <time>2014-02-05T10:17:40.000Z</time>
      </trkpt>
      <trkpt lat="43.19969" lon="2.01409">
        <ele>267.9</ele>
        <time>2014-02-05T10:17:48.000Z</time>
      </trkpt>
      <trkpt lat="43.19968" lon="2.01422">
        <ele>267.4</ele>
        <time>2014-02-05T10:17:56.000Z</time>
      </trkpt>
      <trkpt lat="43.19965" lon="2.01447">
        <ele>266.5</ele>
        <time>2014-02-05T10:18:12.000Z</time>
      </trkpt>
      <trkpt lat="43.19964" lon="2.0146">
        <ele>266.3</ele>
        <time>2014-02-05T10:18:20.000Z</time>
      </trkpt>
      <trkpt lat="43.1996" lon="2.01472">
        <ele>266.4</ele>
        <time>2014-02-05T10:18:28.000Z</time>
      </trkpt>
      <trkpt lat="43.19957" lon="2.01485">
        <ele>266.3</ele>
        <time>2014-02-05T10:18:36.000Z</time>
      </trkpt>
      <trkpt lat="43.19955" lon="2.01497">
        <ele>266.8</ele>
        <time>2014-02-05T10:18:44.000Z</time>
      </trkpt>
      <trkpt lat="43.19953" lon="2.01509">
        <ele>267.3</ele>
        <time>2014-02-05T10:18:52.000Z</time>
      </trkpt>
      <trkpt lat="43.19951" lon="2.01522">
        <ele>266.9</ele>
        <time>2014-02-05T10:19:0.000Z</time>
      </trkpt>
      <trkpt lat="43.19946" lon="2.01547">
        <ele>266.3</ele>
        <time>2014-02-05T10:19:16.000Z</time>
      </trkpt>
      <trkpt lat="43.19943" lon="2.01559">
        <ele>266</ele>
        <time>2014-02-05T10:19:24.000Z</time>
      </trkpt>
      <trkpt lat="43.19941" lon="2.01572">
        <ele>266.9</ele>
        <time>2014-02-05T10:19:33.000Z</time>
      </trkpt>
      <trkpt lat="43.19937" lon="2.01584">
        <ele>267.1</ele>
        <time>2014-02-05T10:19:41.000Z</time>
      </trkpt>
      <trkpt lat="43.19932" lon="2.01596">
        <ele>267.4</ele>
        <time>2014-02-05T10:19:50.000Z</time>
      </trkpt>
      <trkpt lat="43.19926" lon="2.01606">
        <ele>267.8</ele>
        <time>2014-02-05T10:19:59.000Z</time>
      </trkpt>
      <trkpt lat="43.19918" lon="2.01615">
        <ele>269.8</ele>
        <time>2014-02-05T10:20:8.000Z</time>
      </trkpt>
      <trkpt lat="43.19908" lon="2.01637">
        <ele>273.9</ele>
        <time>2014-02-05T10:20:26.000Z</time>
      </trkpt>
      <trkpt lat="43.19905" lon="2.0165">
        <ele>273.4</ele>
        <time>2014-02-05T10:20:36.000Z</time>
      </trkpt>
      <trkpt lat="43.19901" lon="2.01662">
        <ele>271.4</ele>
        <time>2014-02-05T10:20:49.000Z</time>
      </trkpt>
      <trkpt lat="43.19896" lon="2.01674">
        <ele>269.2</ele>
        <time>2014-02-05T10:21:0.000Z</time>
      </trkpt>
      <trkpt lat="43.19894" lon="2.01686">
        <ele>266.8</ele>
        <time>2014-02-05T10:21:10.000Z</time>
      </trkpt>
      <trkpt lat="43.19894" lon="2.0171">
        <ele>260.4</ele>
        <time>2014-02-05T10:21:32.000Z</time>
      </trkpt>
      <trkpt lat="43.19901" lon="2.0172">
        <ele>258.3</ele>
        <time>2014-02-05T10:21:42.000Z</time>
      </trkpt>
      <trkpt lat="43.19907" lon="2.0173">
        <ele>257.5</ele>
        <time>2014-02-05T10:21:52.000Z</time>
      </trkpt>
      <trkpt lat="43.1991" lon="2.01742">
        <ele>255.2</ele>
        <time>2014-02-05T10:22:2.000Z</time>
      </trkpt>
      <trkpt lat="43.19912" lon="2.01754">
        <ele>250.8</ele>
        <time>2014-02-05T10:22:13.000Z</time>
      </trkpt>
      <trkpt lat="43.19917" lon="2.0178">
        <ele>244.1</ele>
        <time>2014-02-05T10:22:36.000Z</time>
      </trkpt>
      <trkpt lat="43.1992" lon="2.01792">
        <ele>241.7</ele>
        <time>2014-02-05T10:22:46.000Z</time>
      </trkpt>
      <trkpt lat="43.19923" lon="2.01804">
        <ele>239.7</ele>
        <time>2014-02-05T10:22:58.000Z</time>
      </trkpt>
      <trkpt lat="43.19924" lon="2.01816">
        <ele>235.4</ele>
        <time>2014-02-05T10:23:13.000Z</time>
      </trkpt>
      <trkpt lat="43.19928" lon="2.01828">
        <ele>231.7</ele>
        <time>2014-02-05T10:23:24.000Z</time>
      </trkpt>
      <trkpt lat="43.19936" lon="2.01852">
        <ele>227.7</ele>
        <time>2014-02-05T10:23:49.000Z</time>
      </trkpt>
      <trkpt lat="43.19939" lon="2.01864">
        <ele>225.7</ele>
        <time>2014-02-05T10:23:58.000Z</time>
      </trkpt>
      <trkpt lat="43.19945" lon="2.01875">
        <ele>224.7</ele>
        <time>2014-02-05T10:24:7.000Z</time>
      </trkpt>
      <trkpt lat="43.19954" lon="2.01877">
        <ele>223</ele>
        <time>2014-02-05T10:24:27.000Z</time>
      </trkpt>
      <trkpt lat="43.19973" lon="2.0188">
        <ele>219.2</ele>
        <time>2014-02-05T10:25:1.000Z</time>
      </trkpt>
      <trkpt lat="43.19982" lon="2.01882">
        <ele>217.4</ele>
        <time>2014-02-05T10:25:11.000Z</time>
      </trkpt>
      <trkpt lat="43.19991" lon="2.01883">
        <ele>214.4</ele>
        <time>2014-02-05T10:25:21.000Z</time>
      </trkpt>
      <trkpt lat="43.20001" lon="2.01885">
        <ele>213.1</ele>
        <time>2014-02-05T10:25:31.000Z</time>
      </trkpt>
      <trkpt lat="43.20019" lon="2.01886">
        <ele>209.1</ele>
        <time>2014-02-05T10:25:50.000Z</time>
      </trkpt>
      <trkpt lat="43.20029" lon="2.01887">
        <ele>208.4</ele>
        <time>2014-02-05T10:25:59.000Z</time>
      </trkpt>
      <trkpt lat="43.20038" lon="2.01889">
        <ele>207.2</ele>
        <time>2014-02-05T10:26:7.000Z</time>
      </trkpt>
      <trkpt lat="43.20047" lon="2.0189">
        <ele>205.1</ele>
        <time>2014-02-05T10:26:15.000Z</time>
      </trkpt>
      <trkpt lat="43.20057" lon="2.01892">
        <ele>205.7</ele>
        <time>2014-02-05T10:26:25.000Z</time>
      </trkpt>
      <trkpt lat="43.20066" lon="2.01894">
        <ele>204.2</ele>
        <time>2014-02-05T10:26:33.000Z</time>
      </trkpt>
      <trkpt lat="43.20085" lon="2.01896">
        <ele>201.4</ele>
        <time>2014-02-05T10:26:51.000Z</time>
      </trkpt>
      <trkpt lat="43.20095" lon="2.01897">
        <ele>200.3</ele>
        <time>2014-02-05T10:26:59.000Z</time>
      </trkpt>
      <trkpt lat="43.20104" lon="2.01899">
        <ele>199.3</ele>
        <time>2014-02-05T10:27:8.000Z</time>
      </trkpt>
      <trkpt lat="43.20112" lon="2.0189">
        <ele>197.6</ele>
        <time>2014-02-05T10:27:21.000Z</time>
      </trkpt>
      <trkpt lat="43.20114" lon="2.01878">
        <ele>196.5</ele>
        <time>2014-02-05T10:27:32.000Z</time>
      </trkpt>
      <trkpt lat="43.20117" lon="2.01865">
        <ele>198.2</ele>
        <time>2014-02-05T10:27:57.000Z</time>
      </trkpt>
      <trkpt lat="43.20123" lon="2.0184">
        <ele>197.2</ele>
        <time>2014-02-05T10:28:13.000Z</time>
      </trkpt>
      <trkpt lat="43.20127" lon="2.01828">
        <ele>196.7</ele>
        <time>2014-02-05T10:28:21.000Z</time>
      </trkpt>
      <trkpt lat="43.2013" lon="2.01816">
        <ele>197.1</ele>
        <time>2014-02-05T10:28:29.000Z</time>
      </trkpt>
      <trkpt lat="43.20134" lon="2.01804">
        <ele>198.1</ele>
        <time>2014-02-05T10:28:38.000Z</time>
      </trkpt>
      <trkpt lat="43.20135" lon="2.01791">
        <ele>197.7</ele>
        <time>2014-02-05T10:28:46.000Z</time>
      </trkpt>
      <trkpt lat="43.20136" lon="2.01778">
        <ele>196.7</ele>
        <time>2014-02-05T10:28:55.000Z</time>
      </trkpt>
      <trkpt lat="43.20137" lon="2.01766">
        <ele>194.4</ele>
        <time>2014-02-05T10:29:4.000Z</time>
      </trkpt>
      <trkpt lat="43.20143" lon="2.0174">
        <ele>191.1</ele>
        <time>2014-02-05T10:29:21.000Z</time>
      </trkpt>
      <trkpt lat="43.20151" lon="2.01732">
        <ele>188.2</ele>
        <time>2014-02-05T10:29:29.000Z</time>
      </trkpt>
      <trkpt lat="43.2016" lon="2.01728">
        <ele>188.9</ele>
        <time>2014-02-05T10:29:37.000Z</time>
      </trkpt>
      <trkpt lat="43.20169" lon="2.01732">
        <ele>189.6</ele>
        <time>2014-02-05T10:29:44.000Z</time>
      </trkpt>
      <trkpt lat="43.20176" lon="2.01741">
        <ele>191.1</ele>
        <time>2014-02-05T10:29:54.000Z</time>
      </trkpt>
      <trkpt lat="43.2017" lon="2.01751">
        <ele>193.7</ele>
        <time>2014-02-05T10:30:17.000Z</time>
      </trkpt>
      <trkpt lat="43.20182" lon="2.01782">
        <ele>189.5</ele>
        <time>2014-02-05T10:37:8.000Z</time>
      </trkpt>
      <trkpt lat="43.20182" lon="2.01795">
        <ele>189.7</ele>
        <time>2014-02-05T10:37:15.000Z</time>
      </trkpt>
      <trkpt lat="43.20182" lon="2.01808">
        <ele>189.6</ele>
        <time>2014-02-05T10:37:23.000Z</time>
      </trkpt>
      <trkpt lat="43.20181" lon="2.01822">
        <ele>190.4</ele>
        <time>2014-02-05T10:37:32.000Z</time>
      </trkpt>
      <trkpt lat="43.2018" lon="2.01835">
        <ele>190.4</ele>
        <time>2014-02-05T10:37:40.000Z</time>
      </trkpt>
      <trkpt lat="43.20179" lon="2.01848">
        <ele>190.6</ele>
        <time>2014-02-05T10:37:48.000Z</time>
      </trkpt>
      <trkpt lat="43.20178" lon="2.01862">
        <ele>191</ele>
        <time>2014-02-05T10:37:57.000Z</time>
      </trkpt>
      <trkpt lat="43.20177" lon="2.01888">
        <ele>192</ele>
        <time>2014-02-05T10:38:13.000Z</time>
      </trkpt>
      <trkpt lat="43.20178" lon="2.01901">
        <ele>192.9</ele>
        <time>2014-02-05T10:38:20.000Z</time>
      </trkpt>
      <trkpt lat="43.20178" lon="2.01913">
        <ele>193.5</ele>
        <time>2014-02-05T10:38:28.000Z</time>
      </trkpt>
      <trkpt lat="43.2018" lon="2.01926">
        <ele>193.1</ele>
        <time>2014-02-05T10:38:37.000Z</time>
      </trkpt>
      <trkpt lat="43.20182" lon="2.01938">
        <ele>194.9</ele>
        <time>2014-02-05T10:38:45.000Z</time>
      </trkpt>
      <trkpt lat="43.20184" lon="2.01952">
        <ele>195</ele>
        <time>2014-02-05T10:38:53.000Z</time>
      </trkpt>
      <trkpt lat="43.20186" lon="2.01966">
        <ele>195.1</ele>
        <time>2014-02-05T10:39:1.000Z</time>
      </trkpt>
      <trkpt lat="43.20185" lon="2.01992">
        <ele>193.9</ele>
        <time>2014-02-05T10:39:17.000Z</time>
      </trkpt>
      <trkpt lat="43.20185" lon="2.02006">
        <ele>195.7</ele>
        <time>2014-02-05T10:39:25.000Z</time>
      </trkpt>
      <trkpt lat="43.20183" lon="2.02019">
        <ele>195.4</ele>
        <time>2014-02-05T10:39:33.000Z</time>
      </trkpt>
      <trkpt lat="43.20182" lon="2.02031">
        <ele>195.6</ele>
        <time>2014-02-05T10:39:40.000Z</time>
      </trkpt>
      <trkpt lat="43.2018" lon="2.02045">
        <ele>196.2</ele>
        <time>2014-02-05T10:39:48.000Z</time>
      </trkpt>
      <trkpt lat="43.20179" lon="2.02058">
        <ele>196.3</ele>
        <time>2014-02-05T10:39:56.000Z</time>
      </trkpt>
      <trkpt lat="43.20178" lon="2.02072">
        <ele>195.5</ele>
        <time>2014-02-05T10:40:4.000Z</time>
      </trkpt>
      <trkpt lat="43.20177" lon="2.02098">
        <ele>194.7</ele>
        <time>2014-02-05T10:40:19.000Z</time>
      </trkpt>
      <trkpt lat="43.20178" lon="2.02111">
        <ele>195.2</ele>
        <time>2014-02-05T10:40:26.000Z</time>
      </trkpt>
      <trkpt lat="43.2018" lon="2.02124">
        <ele>195.6</ele>
        <time>2014-02-05T10:40:34.000Z</time>
      </trkpt>
      <trkpt lat="43.20181" lon="2.02137">
        <ele>195.7</ele>
        <time>2014-02-05T10:40:42.000Z</time>
      </trkpt>
      <trkpt lat="43.20183" lon="2.0215">
        <ele>195.8</ele>
        <time>2014-02-05T10:40:50.000Z</time>
      </trkpt>
      <trkpt lat="43.20185" lon="2.02163">
        <ele>195.7</ele>
        <time>2014-02-05T10:40:58.000Z</time>
      </trkpt>
      <trkpt lat="43.20186" lon="2.02176">
        <ele>196.2</ele>
        <time>2014-02-05T10:41:6.000Z</time>
      </trkpt>
      <trkpt lat="43.20187" lon="2.02201">
        <ele>197.5</ele>
        <time>2014-02-05T10:41:22.000Z</time>
      </trkpt>
      <trkpt lat="43.20187" lon="2.02214">
        <ele>198</ele>
        <time>2014-02-05T10:41:30.000Z</time>
      </trkpt>
      <trkpt lat="43.20187" lon="2.02227">
        <ele>198</ele>
        <time>2014-02-05T10:41:38.000Z</time>
      </trkpt>
      <trkpt lat="43.20186" lon="2.0224">
        <ele>197.9</ele>
        <time>2014-02-05T10:41:46.000Z</time>
      </trkpt>
      <trkpt lat="43.20186" lon="2.02253">
        <ele>197.4</ele>
        <time>2014-02-05T10:41:54.000Z</time>
      </trkpt>
      <trkpt lat="43.20186" lon="2.02266">
        <ele>196.6</ele>
        <time>2014-02-05T10:42:2.000Z</time>
      </trkpt>
      <trkpt lat="43.20185" lon="2.0228">
        <ele>197.2</ele>
        <time>2014-02-05T10:42:10.000Z</time>
      </trkpt>
      <trkpt lat="43.20185" lon="2.02305">
        <ele>196.6</ele>
        <time>2014-02-05T10:42:25.000Z</time>
      </trkpt>
      <trkpt lat="43.20185" lon="2.0232">
        <ele>196.8</ele>
        <time>2014-02-05T10:42:33.000Z</time>
      </trkpt>
      <trkpt lat="43.20184" lon="2.02333">
        <ele>195.9</ele>
        <time>2014-02-05T10:42:41.000Z</time>
      </trkpt>
      <trkpt lat="43.20184" lon="2.02347">
        <ele>195.3</ele>
        <time>2014-02-05T10:42:49.000Z</time>
      </trkpt>
      <trkpt lat="43.20183" lon="2.02361">
        <ele>194.9</ele>
        <time>2014-02-05T10:42:57.000Z</time>
      </trkpt>
      <trkpt lat="43.20183" lon="2.02375">
        <ele>194.5</ele>
        <time>2014-02-05T10:43:5.000Z</time>
      </trkpt>
      <trkpt lat="43.20182" lon="2.02388">
        <ele>194.1</ele>
        <time>2014-02-05T10:43:13.000Z</time>
      </trkpt>
      <trkpt lat="43.20182" lon="2.02415">
        <ele>192.7</ele>
        <time>2014-02-05T10:43:29.000Z</time>
      </trkpt>
      <trkpt lat="43.20182" lon="2.02427">
        <ele>192</ele>
        <time>2014-02-05T10:43:37.000Z</time>
      </trkpt>
      <trkpt lat="43.20182" lon="2.0244">
        <ele>191.4</ele>
        <time>2014-02-05T10:43:45.000Z</time>
      </trkpt>
      <trkpt lat="43.20183" lon="2.02454">
        <ele>191</ele>
        <time>2014-02-05T10:43:53.000Z</time>
      </trkpt>
      <trkpt lat="43.20185" lon="2.02467">
        <ele>190.7</ele>
        <time>2014-02-05T10:44:1.000Z</time>
      </trkpt>
      <trkpt lat="43.20186" lon="2.0248">
        <ele>190.1</ele>
        <time>2014-02-05T10:44:9.000Z</time>
      </trkpt>
      <trkpt lat="43.20189" lon="2.02492">
        <ele>190.5</ele>
        <time>2014-02-05T10:44:17.000Z</time>
      </trkpt>
      <trkpt lat="43.20194" lon="2.02517">
        <ele>189.9</ele>
        <time>2014-02-05T10:44:32.000Z</time>
      </trkpt>
      <trkpt lat="43.20198" lon="2.02528">
        <ele>189.5</ele>
        <time>2014-02-05T10:44:39.000Z</time>
      </trkpt>
      <trkpt lat="43.20201" lon="2.0254">
        <ele>189.1</ele>
        <time>2014-02-05T10:44:46.000Z</time>
      </trkpt>
      <trkpt lat="43.20203" lon="2.02553">
        <ele>188.4</ele>
        <time>2014-02-05T10:44:54.000Z</time>
      </trkpt>
      <trkpt lat="43.20204" lon="2.02566">
        <ele>188.2</ele>
        <time>2014-02-05T10:45:2.000Z</time>
      </trkpt>
      <trkpt lat="43.20204" lon="2.02579">
        <ele>188.1</ele>
        <time>2014-02-05T10:45:10.000Z</time>
      </trkpt>
      <trkpt lat="43.20205" lon="2.02592">
        <ele>188</ele>
        <time>2014-02-05T10:45:18.000Z</time>
      </trkpt>
      <trkpt lat="43.20211" lon="2.02617">
        <ele>187.1</ele>
        <time>2014-02-05T10:45:33.000Z</time>
      </trkpt>
      <trkpt lat="43.20214" lon="2.0263">
        <ele>186.2</ele>
        <time>2014-02-05T10:45:43.000Z</time>
      </trkpt>
      <trkpt lat="43.20222" lon="2.02622">
        <ele>187</ele>
        <time>2014-02-05T10:45:59.000Z</time>
      </trkpt>
      <trkpt lat="43.20224" lon="2.0261">
        <ele>188.2</ele>
        <time>2014-02-05T10:46:11.000Z</time>
      </trkpt>
      <trkpt lat="43.20231" lon="2.026">
        <ele>189.8</ele>
        <time>2014-02-05T10:46:24.000Z</time>
      </trkpt>
      <trkpt lat="43.20243" lon="2.0258">
        <ele>191.6</ele>
        <time>2014-02-05T10:46:47.000Z</time>
      </trkpt>
      <trkpt lat="43.20248" lon="2.02569">
        <ele>193.4</ele>
        <time>2014-02-05T10:46:58.000Z</time>
      </trkpt>
      <trkpt lat="43.20253" lon="2.02559">
        <ele>195.2</ele>
        <time>2014-02-05T10:47:9.000Z</time>
      </trkpt>
      <trkpt lat="43.20259" lon="2.02548">
        <ele>196.8</ele>
        <time>2014-02-05T10:47:22.000Z</time>
      </trkpt>
      <trkpt lat="43.20265" lon="2.02538">
        <ele>197.8</ele>
        <time>2014-02-05T10:47:35.000Z</time>
      </trkpt>
      <trkpt lat="43.20273" lon="2.02516">
        <ele>201.3</ele>
        <time>2014-02-05T10:48:4.000Z</time>
      </trkpt>
      <trkpt lat="43.20275" lon="2.02503">
        <ele>203.1</ele>
        <time>2014-02-05T10:48:25.000Z</time>
      </trkpt>
      <trkpt lat="43.20277" lon="2.02491">
        <ele>205.1</ele>
        <time>2014-02-05T10:48:38.000Z</time>
      </trkpt>
      <trkpt lat="43.20282" lon="2.02465">
        <ele>210.3</ele>
        <time>2014-02-05T10:49:17.000Z</time>
      </trkpt>
      <trkpt lat="43.20289" lon="2.02458">
        <ele>211.5</ele>
        <time>2014-02-05T10:49:32.000Z</time>
      </trkpt>
      <trkpt lat="43.20297" lon="2.02449">
        <ele>212.5</ele>
        <time>2014-02-05T10:49:42.000Z</time>
      </trkpt>
      <trkpt lat="43.2031" lon="2.02433">
        <ele>213.2</ele>
        <time>2014-02-05T10:50:0.000Z</time>
      </trkpt>
      <trkpt lat="43.20318" lon="2.02425">
        <ele>213.4</ele>
        <time>2014-02-05T10:50:9.000Z</time>
      </trkpt>
      <trkpt lat="43.20326" lon="2.02418">
        <ele>213.1</ele>
        <time>2014-02-05T10:50:18.000Z</time>
      </trkpt>
      <trkpt lat="43.20334" lon="2.02411">
        <ele>212.6</ele>
        <time>2014-02-05T10:50:27.000Z</time>
      </trkpt>
      <trkpt lat="43.20342" lon="2.02403">
        <ele>211.8</ele>
        <time>2014-02-05T10:50:37.000Z</time>
      </trkpt>
      <trkpt lat="43.2035" lon="2.02396">
        <ele>211.3</ele>
        <time>2014-02-05T10:50:46.000Z</time>
      </trkpt>
      <trkpt lat="43.20366" lon="2.02381">
        <ele>210</ele>
        <time>2014-02-05T10:51:3.000Z</time>
      </trkpt>
      <trkpt lat="43.20375" lon="2.02375">
        <ele>209.1</ele>
        <time>2014-02-05T10:51:11.000Z</time>
      </trkpt>
      <trkpt lat="43.20382" lon="2.02368">
        <ele>208.6</ele>
        <time>2014-02-05T10:51:19.000Z</time>
      </trkpt>
      <trkpt lat="43.2039" lon="2.02359">
        <ele>208.4</ele>
        <time>2014-02-05T10:51:27.000Z</time>
      </trkpt>
      <trkpt lat="43.20397" lon="2.02351">
        <ele>207.9</ele>
        <time>2014-02-05T10:51:34.000Z</time>
      </trkpt>
      <trkpt lat="43.20404" lon="2.0234">
        <ele>207.9</ele>
        <time>2014-02-05T10:51:43.000Z</time>
      </trkpt>
      <trkpt lat="43.20411" lon="2.02331">
        <ele>207.4</ele>
        <time>2014-02-05T10:51:52.000Z</time>
      </trkpt>
      <trkpt lat="43.20421" lon="2.0231">
        <ele>207.8</ele>
        <time>2014-02-05T10:52:9.000Z</time>
      </trkpt>
      <trkpt lat="43.20422" lon="2.02298">
        <ele>208.7</ele>
        <time>2014-02-05T10:52:17.000Z</time>
      </trkpt>
      <trkpt lat="43.20417" lon="2.02288">
        <ele>210.6</ele>
        <time>2014-02-05T10:52:29.000Z</time>
      </trkpt>
      <trkpt lat="43.2041" lon="2.02279">
        <ele>211</ele>
        <time>2014-02-05T10:52:40.000Z</time>
      </trkpt>
      <trkpt lat="43.20411" lon="2.02266">
        <ele>212.1</ele>
        <time>2014-02-05T10:52:51.000Z</time>
      </trkpt>
      <trkpt lat="43.20414" lon="2.02254">
        <ele>212.7</ele>
        <time>2014-02-05T10:53:2.000Z</time>
      </trkpt>
      <trkpt lat="43.20417" lon="2.02228">
        <ele>215.8</ele>
        <time>2014-02-05T10:53:23.000Z</time>
      </trkpt>
      <trkpt lat="43.20423" lon="2.02218">
        <ele>217.1</ele>
        <time>2014-02-05T10:53:34.000Z</time>
      </trkpt>
      <trkpt lat="43.20431" lon="2.02212">
        <ele>218.6</ele>
        <time>2014-02-05T10:53:43.000Z</time>
      </trkpt>
      <trkpt lat="43.20436" lon="2.02201">
        <ele>220.6</ele>
        <time>2014-02-05T10:53:54.000Z</time>
      </trkpt>
      <trkpt lat="43.20439" lon="2.02189">
        <ele>222.5</ele>
        <time>2014-02-05T10:54:8.000Z</time>
      </trkpt>
      <trkpt lat="43.20444" lon="2.02165">
        <ele>226.8</ele>
        <time>2014-02-05T10:54:32.000Z</time>
      </trkpt>
      <trkpt lat="43.20446" lon="2.02153">
        <ele>227.7</ele>
        <time>2014-02-05T10:54:40.000Z</time>
      </trkpt>
      <trkpt lat="43.2045" lon="2.02141">
        <ele>230.8</ele>
        <time>2014-02-05T10:55:27.000Z</time>
      </trkpt>
      <trkpt lat="43.20464" lon="2.0213">
        <ele>235.9</ele>
        <time>2014-02-05T10:56:11.000Z</time>
      </trkpt>
      <trkpt lat="43.20466" lon="2.02118">
        <ele>238.2</ele>
        <time>2014-02-05T10:56:26.000Z</time>
      </trkpt>
      <trkpt lat="43.2047" lon="2.02106">
        <ele>241.9</ele>
        <time>2014-02-05T10:56:45.000Z</time>
      </trkpt>
      <trkpt lat="43.20479" lon="2.02084">
        <ele>248.3</ele>
        <time>2014-02-05T10:57:18.000Z</time>
      </trkpt>
      <trkpt lat="43.20483" lon="2.02073">
        <ele>251.7</ele>
        <time>2014-02-05T10:57:31.000Z</time>
      </trkpt>
      <trkpt lat="43.20485" lon="2.02061">
        <ele>254</ele>
        <time>2014-02-05T10:57:41.000Z</time>
      </trkpt>
      <trkpt lat="43.20483" lon="2.02048">
        <ele>256.1</ele>
        <time>2014-02-05T10:57:53.000Z</time>
      </trkpt>
      <trkpt lat="43.20482" lon="2.02023">
        <ele>259.5</ele>
        <time>2014-02-05T10:58:13.000Z</time>
      </trkpt>
      <trkpt lat="43.20482" lon="2.0201">
        <ele>261.3</ele>
        <time>2014-02-05T10:58:22.000Z</time>
      </trkpt>
      <trkpt lat="43.20483" lon="2.01998">
        <ele>263.1</ele>
        <time>2014-02-05T10:58:31.000Z</time>
      </trkpt>
      <trkpt lat="43.20483" lon="2.01984">
        <ele>264.6</ele>
        <time>2014-02-05T10:58:40.000Z</time>
      </trkpt>
      <trkpt lat="43.20484" lon="2.0197">
        <ele>266</ele>
        <time>2014-02-05T10:58:48.000Z</time>
      </trkpt>
      <trkpt lat="43.20484" lon="2.01957">
        <ele>267.7</ele>
        <time>2014-02-05T10:58:57.000Z</time>
      </trkpt>
      <trkpt lat="43.2049" lon="2.01932">
        <ele>270.2</ele>
        <time>2014-02-05T10:59:12.000Z</time>
      </trkpt>
      <trkpt lat="43.20494" lon="2.0192">
        <ele>272.3</ele>
        <time>2014-02-05T10:59:20.000Z</time>
      </trkpt>
      <trkpt lat="43.20494" lon="2.01906">
        <ele>273.6</ele>
        <time>2014-02-05T10:59:28.000Z</time>
      </trkpt>
      <trkpt lat="43.20492" lon="2.01894">
        <ele>275.4</ele>
        <time>2014-02-05T10:59:35.000Z</time>
      </trkpt>
      <trkpt lat="43.20493" lon="2.01881">
        <ele>278.1</ele>
        <time>2014-02-05T10:59:42.000Z</time>
      </trkpt>
      <trkpt lat="43.20495" lon="2.01869">
        <ele>279.7</ele>
        <time>2014-02-05T10:59:51.000Z</time>
      </trkpt>
      <trkpt lat="43.20496" lon="2.01856">
        <ele>281.5</ele>
        <time>2014-02-05T11:00:9.000Z</time>
      </trkpt>
      <trkpt lat="43.20506" lon="2.01822">
        <ele>283.2</ele>
        <time>2014-02-05T11:02:23.000Z</time>
      </trkpt>
      <trkpt lat="43.2051" lon="2.01811">
        <ele>284</ele>
        <time>2014-02-05T11:02:32.000Z</time>
      </trkpt>
      <trkpt lat="43.20513" lon="2.01799">
        <ele>284.6</ele>
        <time>2014-02-05T11:02:42.000Z</time>
      </trkpt>
      <trkpt lat="43.20518" lon="2.01788">
        <ele>284.8</ele>
        <time>2014-02-05T11:02:52.000Z</time>
      </trkpt>
      <trkpt lat="43.20522" lon="2.01776">
        <ele>284.1</ele>
        <time>2014-02-05T11:03:5.000Z</time>
      </trkpt>
      <trkpt lat="43.20518" lon="2.01763">
        <ele>284.1</ele>
        <time>2014-02-05T11:03:18.000Z</time>
      </trkpt>
      <trkpt lat="43.20516" lon="2.01737">
        <ele>284.8</ele>
        <time>2014-02-05T11:03:40.000Z</time>
      </trkpt>
      <trkpt lat="43.20525" lon="2.01736">
        <ele>284.4</ele>
        <time>2014-02-05T11:03:51.000Z</time>
      </trkpt>
      <trkpt lat="43.20519" lon="2.01746">
        <ele>285.3</ele>
        <time>2014-02-05T11:04:53.000Z</time>
      </trkpt>
      <trkpt lat="43.20518" lon="2.01758">
        <ele>284.9</ele>
        <time>2014-02-05T11:05:20.000Z</time>
      </trkpt>
      <trkpt lat="43.20572" lon="2.01721">
        <ele>279.4</ele>
        <time>2014-02-05T11:13:1.000Z</time>
      </trkpt>
      <trkpt lat="43.20581" lon="2.01716">
        <ele>276.5</ele>
        <time>2014-02-05T11:13:16.000Z</time>
      </trkpt>
      <trkpt lat="43.20597" lon="2.01709">
        <ele>272.8</ele>
        <time>2014-02-05T11:13:45.000Z</time>
      </trkpt>
      <trkpt lat="43.20607" lon="2.01706">
        <ele>270.9</ele>
        <time>2014-02-05T11:13:57.000Z</time>
      </trkpt>
      <trkpt lat="43.2063" lon="2.01707">
        <ele>263</ele>
        <time>2014-02-05T11:16:1.000Z</time>
      </trkpt>
      <trkpt lat="43.20649" lon="2.01714">
        <ele>258.1</ele>
        <time>2014-02-05T11:16:23.000Z</time>
      </trkpt>
      <trkpt lat="43.20658" lon="2.01712">
        <ele>255.4</ele>
        <time>2014-02-05T11:16:34.000Z</time>
      </trkpt>
      <trkpt lat="43.20668" lon="2.01715">
        <ele>252.3</ele>
        <time>2014-02-05T11:16:48.000Z</time>
      </trkpt>
      <trkpt lat="43.20685" lon="2.01715">
        <ele>244</ele>
        <time>2014-02-05T11:17:47.000Z</time>
      </trkpt>
      <trkpt lat="43.20662" lon="2.01723">
        <ele>243.8</ele>
        <time>2014-02-05T11:17:55.000Z</time>
      </trkpt>
      <trkpt lat="43.20651" lon="2.01728">
        <ele>243.6</ele>
        <time>2014-02-05T11:18:2.000Z</time>
      </trkpt>
      <trkpt lat="43.20642" lon="2.01729">
        <ele>243.4</ele>
        <time>2014-02-05T11:18:7.000Z</time>
      </trkpt>
      <trkpt lat="43.20651" lon="2.01731">
        <ele>243.4</ele>
        <time>2014-02-05T11:18:15.000Z</time>
      </trkpt>
      <trkpt lat="43.20692" lon="2.01736">
        <ele>243</ele>
        <time>2014-02-05T11:18:20.000Z</time>
      </trkpt>
      <trkpt lat="43.20704" lon="2.01737">
        <ele>243.7</ele>
        <time>2014-02-05T11:18:25.000Z</time>
      </trkpt>
      <trkpt lat="43.20712" lon="2.01729">
        <ele>247.6</ele>
        <time>2014-02-05T11:26:0.000Z</time>
      </trkpt>
      <trkpt lat="43.2072" lon="2.01706">
        <ele>248.8</ele>
        <time>2014-02-05T11:26:14.000Z</time>
      </trkpt>
      <trkpt lat="43.20721" lon="2.01694">
        <ele>249.3</ele>
        <time>2014-02-05T11:26:22.000Z</time>
      </trkpt>
      <trkpt lat="43.20721" lon="2.01681">
        <ele>249.8</ele>
        <time>2014-02-05T11:26:31.000Z</time>
      </trkpt>
      <trkpt lat="43.2072" lon="2.01668">
        <ele>250.7</ele>
        <time>2014-02-05T11:26:43.000Z</time>
      </trkpt>
      <trkpt lat="43.20721" lon="2.01656">
        <ele>251.6</ele>
        <time>2014-02-05T11:26:52.000Z</time>
      </trkpt>
      <trkpt lat="43.20721" lon="2.01643">
        <ele>252.8</ele>
        <time>2014-02-05T11:27:5.000Z</time>
      </trkpt>
      <trkpt lat="43.2072" lon="2.01617">
        <ele>257</ele>
        <time>2014-02-05T11:27:33.000Z</time>
      </trkpt>
      <trkpt lat="43.20721" lon="2.01604">
        <ele>258.9</ele>
        <time>2014-02-05T11:27:48.000Z</time>
      </trkpt>
      <trkpt lat="43.20721" lon="2.01591">
        <ele>261.2</ele>
        <time>2014-02-05T11:28:1.000Z</time>
      </trkpt>
      <trkpt lat="43.20722" lon="2.01579">
        <ele>262.9</ele>
        <time>2014-02-05T11:28:14.000Z</time>
      </trkpt>
      <trkpt lat="43.20727" lon="2.01554">
        <ele>264.7</ele>
        <time>2014-02-05T11:28:34.000Z</time>
      </trkpt>
      <trkpt lat="43.20732" lon="2.01543">
        <ele>266</ele>
        <time>2014-02-05T11:28:45.000Z</time>
      </trkpt>
      <trkpt lat="43.20736" lon="2.01532">
        <ele>266.8</ele>
        <time>2014-02-05T11:28:57.000Z</time>
      </trkpt>
      <trkpt lat="43.20738" lon="2.01518">
        <ele>268.3</ele>
        <time>2014-02-05T11:29:8.000Z</time>
      </trkpt>
      <trkpt lat="43.20743" lon="2.01506">
        <ele>269.6</ele>
        <time>2014-02-05T11:29:20.000Z</time>
      </trkpt>
      <trkpt lat="43.20752" lon="2.01484">
        <ele>273.3</ele>
        <time>2014-02-05T11:29:40.000Z</time>
      </trkpt>
      <trkpt lat="43.20756" lon="2.01473">
        <ele>275.4</ele>
        <time>2014-02-05T11:29:55.000Z</time>
      </trkpt>
      <trkpt lat="43.20761" lon="2.01461">
        <ele>276.8</ele>
        <time>2014-02-05T11:30:7.000Z</time>
      </trkpt>
      <trkpt lat="43.20769" lon="2.01453">
        <ele>278.4</ele>
        <time>2014-02-05T11:30:28.000Z</time>
      </trkpt>
      <trkpt lat="43.20782" lon="2.01472">
        <ele>280.9</ele>
        <time>2014-02-05T11:30:51.000Z</time>
      </trkpt>
      <trkpt lat="43.20789" lon="2.01481">
        <ele>280.9</ele>
        <time>2014-02-05T11:31:0.000Z</time>
      </trkpt>
      <trkpt lat="43.20795" lon="2.0149">
        <ele>281.1</ele>
        <time>2014-02-05T11:31:11.000Z</time>
      </trkpt>
      <trkpt lat="43.20798" lon="2.01502">
        <ele>281.9</ele>
        <time>2014-02-05T11:31:22.000Z</time>
      </trkpt>
      <trkpt lat="43.20796" lon="2.01514">
        <ele>283.1</ele>
        <time>2014-02-05T11:31:31.000Z</time>
      </trkpt>
      <trkpt lat="43.20786" lon="2.01537">
        <ele>282.8</ele>
        <time>2014-02-05T11:31:48.000Z</time>
      </trkpt>
      <trkpt lat="43.20781" lon="2.01548">
        <ele>282.9</ele>
        <time>2014-02-05T11:31:56.000Z</time>
      </trkpt>
      <trkpt lat="43.20778" lon="2.01561">
        <ele>282.8</ele>
        <time>2014-02-05T11:32:5.000Z</time>
      </trkpt>
      <trkpt lat="43.20773" lon="2.01572">
        <ele>282.2</ele>
        <time>2014-02-05T11:32:13.000Z</time>
      </trkpt>
      <trkpt lat="43.20769" lon="2.01584">
        <ele>282.5</ele>
        <time>2014-02-05T11:32:21.000Z</time>
      </trkpt>
      <trkpt lat="43.20765" lon="2.01595">
        <ele>282.6</ele>
        <time>2014-02-05T11:32:29.000Z</time>
      </trkpt>
      <trkpt lat="43.20762" lon="2.01608">
        <ele>281.9</ele>
        <time>2014-02-05T11:32:38.000Z</time>
      </trkpt>
      <trkpt lat="43.20755" lon="2.01631">
        <ele>281.2</ele>
        <time>2014-02-05T11:32:56.000Z</time>
      </trkpt>
      <trkpt lat="43.20754" lon="2.01645">
        <ele>280.6</ele>
        <time>2014-02-05T11:33:5.000Z</time>
      </trkpt>
      <trkpt lat="43.20753" lon="2.01658">
        <ele>279.5</ele>
        <time>2014-02-05T11:33:14.000Z</time>
      </trkpt>
      <trkpt lat="43.20756" lon="2.01671">
        <ele>279</ele>
        <time>2014-02-05T11:33:23.000Z</time>
      </trkpt>
      <trkpt lat="43.20756" lon="2.01683">
        <ele>279</ele>
        <time>2014-02-05T11:33:31.000Z</time>
      </trkpt>
      <trkpt lat="43.20757" lon="2.01696">
        <ele>279.1</ele>
        <time>2014-02-05T11:33:40.000Z</time>
      </trkpt>
      <trkpt lat="43.20758" lon="2.01722">
        <ele>278.7</ele>
        <time>2014-02-05T11:33:58.000Z</time>
      </trkpt>
      <trkpt lat="43.20758" lon="2.01735">
        <ele>278.8</ele>
        <time>2014-02-05T11:34:6.000Z</time>
      </trkpt>
      <trkpt lat="43.20759" lon="2.01748">
        <ele>279.3</ele>
        <time>2014-02-05T11:34:15.000Z</time>
      </trkpt>
      <trkpt lat="43.20761" lon="2.01761">
        <ele>279.6</ele>
        <time>2014-02-05T11:34:24.000Z</time>
      </trkpt>
      <trkpt lat="43.20762" lon="2.01774">
        <ele>279.6</ele>
        <time>2014-02-05T11:34:34.000Z</time>
      </trkpt>
      <trkpt lat="43.20765" lon="2.01787">
        <ele>278.9</ele>
        <time>2014-02-05T11:34:44.000Z</time>
      </trkpt>
      <trkpt lat="43.20768" lon="2.01812">
        <ele>279.7</ele>
        <time>2014-02-05T11:35:3.000Z</time>
      </trkpt>
      <trkpt lat="43.20769" lon="2.01825">
        <ele>279.5</ele>
        <time>2014-02-05T11:35:13.000Z</time>
      </trkpt>
      <trkpt lat="43.20768" lon="2.01839">
        <ele>279.5</ele>
        <time>2014-02-05T11:35:22.000Z</time>
      </trkpt>
      <trkpt lat="43.20769" lon="2.01852">
        <ele>279.9</ele>
        <time>2014-02-05T11:35:31.000Z</time>
      </trkpt>
      <trkpt lat="43.20772" lon="2.01864">
        <ele>279.8</ele>
        <time>2014-02-05T11:35:40.000Z</time>
      </trkpt>
      <trkpt lat="43.20774" lon="2.01876">
        <ele>280.6</ele>
        <time>2014-02-05T11:35:49.000Z</time>
      </trkpt>
      <trkpt lat="43.20783" lon="2.01899">
        <ele>281.6</ele>
        <time>2014-02-05T11:36:11.000Z</time>
      </trkpt>
      <trkpt lat="43.20788" lon="2.01909">
        <ele>282.1</ele>
        <time>2014-02-05T11:36:22.000Z</time>
      </trkpt>
      <trkpt lat="43.20792" lon="2.01921">
        <ele>282.6</ele>
        <time>2014-02-05T11:36:31.000Z</time>
      </trkpt>
      <trkpt lat="43.20796" lon="2.01933">
        <ele>282.4</ele>
        <time>2014-02-05T11:36:39.000Z</time>
      </trkpt>
      <trkpt lat="43.20798" lon="2.01945">
        <ele>282</ele>
        <time>2014-02-05T11:36:48.000Z</time>
      </trkpt>
      <trkpt lat="43.20798" lon="2.01958">
        <ele>282.4</ele>
        <time>2014-02-05T11:36:56.000Z</time>
      </trkpt>
      <trkpt lat="43.208" lon="2.01984">
        <ele>280.4</ele>
        <time>2014-02-05T11:37:12.000Z</time>
      </trkpt>
      <trkpt lat="43.20801" lon="2.01997">
        <ele>279.8</ele>
        <time>2014-02-05T11:37:20.000Z</time>
      </trkpt>
      <trkpt lat="43.208" lon="2.0201">
        <ele>279.5</ele>
        <time>2014-02-05T11:37:29.000Z</time>
      </trkpt>
      <trkpt lat="43.20802" lon="2.02022">
        <ele>279.5</ele>
        <time>2014-02-05T11:37:37.000Z</time>
      </trkpt>
      <trkpt lat="43.20803" lon="2.02035">
        <ele>278.7</ele>
        <time>2014-02-05T11:37:46.000Z</time>
      </trkpt>
      <trkpt lat="43.20804" lon="2.02048">
        <ele>279.1</ele>
        <time>2014-02-05T11:37:55.000Z</time>
      </trkpt>
      <trkpt lat="43.20805" lon="2.02061">
        <ele>279</ele>
        <time>2014-02-05T11:38:3.000Z</time>
      </trkpt>
      <trkpt lat="43.20819" lon="2.02094">
        <ele>279.1</ele>
        <time>2014-02-05T11:39:32.000Z</time>
      </trkpt>
      <trkpt lat="43.20826" lon="2.02104">
        <ele>279.4</ele>
        <time>2014-02-05T11:39:40.000Z</time>
      </trkpt>
      <trkpt lat="43.20831" lon="2.02114">
        <ele>279.6</ele>
        <time>2014-02-05T11:39:48.000Z</time>
      </trkpt>
      <trkpt lat="43.20837" lon="2.02125">
        <ele>280.3</ele>
        <time>2014-02-05T11:39:57.000Z</time>
      </trkpt>
      <trkpt lat="43.20844" lon="2.02134">
        <ele>282.7</ele>
        <time>2014-02-05T11:40:10.000Z</time>
      </trkpt>
      <trkpt lat="43.2085" lon="2.02143">
        <ele>283.9</ele>
        <time>2014-02-05T11:40:20.000Z</time>
      </trkpt>
      <trkpt lat="43.2086" lon="2.02165">
        <ele>286.3</ele>
        <time>2014-02-05T11:40:38.000Z</time>
      </trkpt>
      <trkpt lat="43.20865" lon="2.02176">
        <ele>286.5</ele>
        <time>2014-02-05T11:40:46.000Z</time>
      </trkpt>
      <trkpt lat="43.20869" lon="2.02188">
        <ele>286.9</ele>
        <time>2014-02-05T11:40:54.000Z</time>
      </trkpt>
      <trkpt lat="43.20873" lon="2.02199">
        <ele>288</ele>
        <time>2014-02-05T11:41:5.000Z</time>
      </trkpt>
      <trkpt lat="43.20877" lon="2.0221">
        <ele>288.7</ele>
        <time>2014-02-05T11:41:16.000Z</time>
      </trkpt>
      <trkpt lat="43.20879" lon="2.02222">
        <ele>290.7</ele>
        <time>2014-02-05T11:41:27.000Z</time>
      </trkpt>
      <trkpt lat="43.20875" lon="2.02248">
        <ele>291.7</ele>
        <time>2014-02-05T11:41:45.000Z</time>
      </trkpt>
      <trkpt lat="43.20873" lon="2.02261">
        <ele>291.8</ele>
        <time>2014-02-05T11:41:54.000Z</time>
      </trkpt>
      <trkpt lat="43.20872" lon="2.02274">
        <ele>292.5</ele>
        <time>2014-02-05T11:42:4.000Z</time>
      </trkpt>
      <trkpt lat="43.20868" lon="2.02286">
        <ele>293</ele>
        <time>2014-02-05T11:42:14.000Z</time>
      </trkpt>
      <trkpt lat="43.20864" lon="2.02298">
        <ele>293.5</ele>
        <time>2014-02-05T11:42:22.000Z</time>
      </trkpt>
      <trkpt lat="43.20858" lon="2.02309">
        <ele>293.5</ele>
        <time>2014-02-05T11:42:30.000Z</time>
      </trkpt>
      <trkpt lat="43.2085" lon="2.02331">
        <ele>294</ele>
        <time>2014-02-05T11:42:49.000Z</time>
      </trkpt>
      <trkpt lat="43.20844" lon="2.02342">
        <ele>294.2</ele>
        <time>2014-02-05T11:42:57.000Z</time>
      </trkpt>
      <trkpt lat="43.20841" lon="2.02355">
        <ele>294.2</ele>
        <time>2014-02-05T11:43:6.000Z</time>
      </trkpt>
      <trkpt lat="43.20837" lon="2.02366">
        <ele>294.8</ele>
        <time>2014-02-05T11:43:14.000Z</time>
      </trkpt>
      <trkpt lat="43.20833" lon="2.02378">
        <ele>295.5</ele>
        <time>2014-02-05T11:43:23.000Z</time>
      </trkpt>
      <trkpt lat="43.20829" lon="2.02389">
        <ele>295.5</ele>
        <time>2014-02-05T11:43:31.000Z</time>
      </trkpt>
      <trkpt lat="43.20819" lon="2.02413">
        <ele>296.3</ele>
        <time>2014-02-05T11:43:49.000Z</time>
      </trkpt>
      <trkpt lat="43.20815" lon="2.02425">
        <ele>296.1</ele>
        <time>2014-02-05T11:43:57.000Z</time>
      </trkpt>
      <trkpt lat="43.20812" lon="2.02436">
        <ele>296.8</ele>
        <time>2014-02-05T11:44:5.000Z</time>
      </trkpt>
      <trkpt lat="43.20806" lon="2.02447">
        <ele>297.3</ele>
        <time>2014-02-05T11:44:13.000Z</time>
      </trkpt>
      <trkpt lat="43.20801" lon="2.02457">
        <ele>297.6</ele>
        <time>2014-02-05T11:44:20.000Z</time>
      </trkpt>
      <trkpt lat="43.20795" lon="2.02467">
        <ele>298.3</ele>
        <time>2014-02-05T11:44:28.000Z</time>
      </trkpt>
      <trkpt lat="43.20792" lon="2.02479">
        <ele>298.5</ele>
        <time>2014-02-05T11:44:37.000Z</time>
      </trkpt>
      <trkpt lat="43.20783" lon="2.02501">
        <ele>299.7</ele>
        <time>2014-02-05T11:44:55.000Z</time>
      </trkpt>
      <trkpt lat="43.20778" lon="2.02511">
        <ele>300</ele>
        <time>2014-02-05T11:45:3.000Z</time>
      </trkpt>
      <trkpt lat="43.20772" lon="2.02521">
        <ele>300</ele>
        <time>2014-02-05T11:45:11.000Z</time>
      </trkpt>
      <trkpt lat="43.20763" lon="2.02526">
        <ele>300.2</ele>
        <time>2014-02-05T11:45:20.000Z</time>
      </trkpt>
      <trkpt lat="43.20753" lon="2.02527">
        <ele>300.5</ele>
        <time>2014-02-05T11:45:30.000Z</time>
      </trkpt>
      <trkpt lat="43.20744" lon="2.02526">
        <ele>300.8</ele>
        <time>2014-02-05T11:45:39.000Z</time>
      </trkpt>
      <trkpt lat="43.2074" lon="2.02565">
        <ele>301.8</ele>
        <time>2014-02-05T11:48:51.000Z</time>
      </trkpt>
      <trkpt lat="43.2074" lon="2.0258">
        <ele>301.9</ele>
        <time>2014-02-05T11:49:3.000Z</time>
      </trkpt>
      <trkpt lat="43.2074" lon="2.02594">
        <ele>302.7</ele>
        <time>2014-02-05T11:49:7.000Z</time>
      </trkpt>
      <trkpt lat="43.20742" lon="2.02608">
        <ele>303</ele>
        <time>2014-02-05T11:49:13.000Z</time>
      </trkpt>
      <trkpt lat="43.20743" lon="2.02622">
        <ele>302.1</ele>
        <time>2014-02-05T11:49:19.000Z</time>
      </trkpt>
      <trkpt lat="43.20744" lon="2.02606">
        <ele>311.4</ele>
        <time>2014-02-05T11:54:50.000Z</time>
      </trkpt>
      <trkpt lat="43.20733" lon="2.02548">
        <ele>308</ele>
        <time>2014-02-05T11:56:35.000Z</time>
      </trkpt>
      <trkpt lat="43.2072" lon="2.02535">
        <ele>326.6</ele>
        <time>2014-02-05T12:18:59.000Z</time>
      </trkpt>
      <trkpt lat="43.20739" lon="2.02535">
        <ele>326.5</ele>
        <time>2014-02-05T12:19:17.000Z</time>
      </trkpt>
      <trkpt lat="43.20749" lon="2.02535">
        <ele>326.3</ele>
        <time>2014-02-05T12:19:23.000Z</time>
      </trkpt>
      <trkpt lat="43.20758" lon="2.02532">
        <ele>326.5</ele>
        <time>2014-02-05T12:19:29.000Z</time>
      </trkpt>
      <trkpt lat="43.20767" lon="2.02529">
        <ele>326.7</ele>
        <time>2014-02-05T12:19:38.000Z</time>
      </trkpt>
      <trkpt lat="43.20758" lon="2.02527">
        <ele>326.9</ele>
        <time>2014-02-05T12:20:10.000Z</time>
      </trkpt>
      <trkpt lat="43.20758" lon="2.02528">
        <ele>326.9</ele>
        <time>2014-02-05T12:20:39.000Z</time>
      </trkpt>
      <trkpt lat="43.20768" lon="2.02529">
        <ele>326.7</ele>
        <time>2014-02-05T12:20:48.000Z</time>
      </trkpt>
      <trkpt lat="43.20775" lon="2.02522">
        <ele>326.6</ele>
        <time>2014-02-05T12:20:56.000Z</time>
      </trkpt>
      <trkpt lat="43.2078" lon="2.02511">
        <ele>326.3</ele>
        <time>2014-02-05T12:21:3.000Z</time>
      </trkpt>
      <trkpt lat="43.20784" lon="2.02499">
        <ele>325.9</ele>
        <time>2014-02-05T12:21:11.000Z</time>
      </trkpt>
      <trkpt lat="43.20793" lon="2.02477">
        <ele>325.7</ele>
        <time>2014-02-05T12:21:28.000Z</time>
      </trkpt>
      <trkpt lat="43.20797" lon="2.02464">
        <ele>327.1</ele>
        <time>2014-02-05T12:21:36.000Z</time>
      </trkpt>
      <trkpt lat="43.20803" lon="2.02454">
        <ele>327.5</ele>
        <time>2014-02-05T12:21:43.000Z</time>
      </trkpt>
      <trkpt lat="43.20808" lon="2.02444">
        <ele>325.5</ele>
        <time>2014-02-05T12:21:50.000Z</time>
      </trkpt>
      <trkpt lat="43.20814" lon="2.02433">
        <ele>324.5</ele>
        <time>2014-02-05T12:21:57.000Z</time>
      </trkpt>
      <trkpt lat="43.20818" lon="2.02422">
        <ele>324.1</ele>
        <time>2014-02-05T12:22:4.000Z</time>
      </trkpt>
      <trkpt lat="43.20823" lon="2.0241">
        <ele>323.5</ele>
        <time>2014-02-05T12:22:12.000Z</time>
      </trkpt>
      <trkpt lat="43.20832" lon="2.02386">
        <ele>322.7</ele>
        <time>2014-02-05T12:22:28.000Z</time>
      </trkpt>
      <trkpt lat="43.20837" lon="2.02375">
        <ele>321.9</ele>
        <time>2014-02-05T12:22:35.000Z</time>
      </trkpt>
      <trkpt lat="43.20841" lon="2.02363">
        <ele>321.4</ele>
        <time>2014-02-05T12:22:43.000Z</time>
      </trkpt>
      <trkpt lat="43.20845" lon="2.02351">
        <ele>321.2</ele>
        <time>2014-02-05T12:22:50.000Z</time>
      </trkpt>
      <trkpt lat="43.20849" lon="2.0234">
        <ele>320.9</ele>
        <time>2014-02-05T12:22:57.000Z</time>
      </trkpt>
      <trkpt lat="43.20853" lon="2.02328">
        <ele>320.9</ele>
        <time>2014-02-05T12:23:4.000Z</time>
      </trkpt>
      <trkpt lat="43.20857" lon="2.02316">
        <ele>320.6</ele>
        <time>2014-02-05T12:23:12.000Z</time>
      </trkpt>
      <trkpt lat="43.20861" lon="2.02304">
        <ele>320.3</ele>
        <time>2014-02-05T12:23:20.000Z</time>
      </trkpt>
      <trkpt lat="43.20871" lon="2.02282">
        <ele>319</ele>
        <time>2014-02-05T12:24:14.000Z</time>
      </trkpt>
      <trkpt lat="43.20871" lon="2.0227">
        <ele>318.8</ele>
        <time>2014-02-05T12:24:22.000Z</time>
      </trkpt>
      <trkpt lat="43.20878" lon="2.02245">
        <ele>318.7</ele>
        <time>2014-02-05T12:24:38.000Z</time>
      </trkpt>
      <trkpt lat="43.20879" lon="2.02232">
        <ele>317.6</ele>
        <time>2014-02-05T12:24:46.000Z</time>
      </trkpt>
      <trkpt lat="43.20879" lon="2.02219">
        <ele>316.6</ele>
        <time>2014-02-05T12:24:56.000Z</time>
      </trkpt>
      <trkpt lat="43.20876" lon="2.02206">
        <ele>315.4</ele>
        <time>2014-02-05T12:25:4.000Z</time>
      </trkpt>
      <trkpt lat="43.20871" lon="2.02196">
        <ele>314.6</ele>
        <time>2014-02-05T12:25:11.000Z</time>
      </trkpt>
      <trkpt lat="43.20864" lon="2.02188">
        <ele>313.2</ele>
        <time>2014-02-05T12:25:18.000Z</time>
      </trkpt>
      <trkpt lat="43.20859" lon="2.02176">
        <ele>311.7</ele>
        <time>2014-02-05T12:25:26.000Z</time>
      </trkpt>
      <trkpt lat="43.20851" lon="2.02154">
        <ele>310.4</ele>
        <time>2014-02-05T12:25:40.000Z</time>
      </trkpt>
      <trkpt lat="43.20844" lon="2.02145">
        <ele>309.5</ele>
        <time>2014-02-05T12:25:47.000Z</time>
      </trkpt>
      <trkpt lat="43.20838" lon="2.02133">
        <ele>308.3</ele>
        <time>2014-02-05T12:25:55.000Z</time>
      </trkpt>
      <trkpt lat="43.20832" lon="2.02123">
        <ele>306.4</ele>
        <time>2014-02-05T12:26:3.000Z</time>
      </trkpt>
      <trkpt lat="43.20828" lon="2.02112">
        <ele>305</ele>
        <time>2014-02-05T12:26:10.000Z</time>
      </trkpt>
      <trkpt lat="43.20822" lon="2.02101">
        <ele>303.6</ele>
        <time>2014-02-05T12:26:17.000Z</time>
      </trkpt>
      <trkpt lat="43.20816" lon="2.0209">
        <ele>302.9</ele>
        <time>2014-02-05T12:26:24.000Z</time>
      </trkpt>
      <trkpt lat="43.20812" lon="2.02079">
        <ele>302.3</ele>
        <time>2014-02-05T12:26:31.000Z</time>
      </trkpt>
      <trkpt lat="43.20819" lon="2.02065">
        <ele>301</ele>
        <time>2014-02-05T12:26:46.000Z</time>
      </trkpt>
      <trkpt lat="43.20829" lon="2.02067">
        <ele>300.3</ele>
        <time>2014-02-05T12:26:52.000Z</time>
      </trkpt>
      <trkpt lat="43.20838" lon="2.02067">
        <ele>299.3</ele>
        <time>2014-02-05T12:26:58.000Z</time>
      </trkpt>
      <trkpt lat="43.20847" lon="2.0207">
        <ele>298.6</ele>
        <time>2014-02-05T12:27:6.000Z</time>
      </trkpt>
      <trkpt lat="43.20857" lon="2.02074">
        <ele>298.7</ele>
        <time>2014-02-05T12:27:14.000Z</time>
      </trkpt>
      <trkpt lat="43.20865" lon="2.02079">
        <ele>299.1</ele>
        <time>2014-02-05T12:27:21.000Z</time>
      </trkpt>
      <trkpt lat="43.20875" lon="2.02084">
        <ele>299.6</ele>
        <time>2014-02-05T12:27:27.000Z</time>
      </trkpt>
      <trkpt lat="43.20881" lon="2.02093">
        <ele>299.8</ele>
        <time>2014-02-05T12:27:33.000Z</time>
      </trkpt>
      <trkpt lat="43.20891" lon="2.02116">
        <ele>299.4</ele>
        <time>2014-02-05T12:27:48.000Z</time>
      </trkpt>
      <trkpt lat="43.20895" lon="2.02129">
        <ele>299.7</ele>
        <time>2014-02-05T12:27:55.000Z</time>
      </trkpt>
      <trkpt lat="43.20901" lon="2.0214">
        <ele>300</ele>
        <time>2014-02-05T12:28:3.000Z</time>
      </trkpt>
      <trkpt lat="43.20909" lon="2.02147">
        <ele>300.3</ele>
        <time>2014-02-05T12:28:11.000Z</time>
      </trkpt>
      <trkpt lat="43.20918" lon="2.02147">
        <ele>300.3</ele>
        <time>2014-02-05T12:28:19.000Z</time>
      </trkpt>
      <trkpt lat="43.20927" lon="2.02142">
        <ele>300.4</ele>
        <time>2014-02-05T12:28:27.000Z</time>
      </trkpt>
      <trkpt lat="43.20936" lon="2.02137">
        <ele>300.1</ele>
        <time>2014-02-05T12:28:35.000Z</time>
      </trkpt>
      <trkpt lat="43.20954" lon="2.02125">
        <ele>299.2</ele>
        <time>2014-02-05T12:28:51.000Z</time>
      </trkpt>
      <trkpt lat="43.20963" lon="2.0212">
        <ele>298.7</ele>
        <time>2014-02-05T12:28:59.000Z</time>
      </trkpt>
      <trkpt lat="43.20972" lon="2.02113">
        <ele>298.4</ele>
        <time>2014-02-05T12:29:7.000Z</time>
      </trkpt>
      <trkpt lat="43.20981" lon="2.02107">
        <ele>298</ele>
        <time>2014-02-05T12:29:15.000Z</time>
      </trkpt>
      <trkpt lat="43.2099" lon="2.02101">
        <ele>297.7</ele>
        <time>2014-02-05T12:29:23.000Z</time>
      </trkpt>
      <trkpt lat="43.20997" lon="2.02091">
        <ele>297.8</ele>
        <time>2014-02-05T12:29:31.000Z</time>
      </trkpt>
      <trkpt lat="43.21003" lon="2.02081">
        <ele>296.4</ele>
        <time>2014-02-05T12:29:40.000Z</time>
      </trkpt>
      <trkpt lat="43.21017" lon="2.02062">
        <ele>292.7</ele>
        <time>2014-02-05T12:29:58.000Z</time>
      </trkpt>
      <trkpt lat="43.21024" lon="2.02052">
        <ele>290</ele>
        <time>2014-02-05T12:30:10.000Z</time>
      </trkpt>
      <trkpt lat="43.2103" lon="2.02043">
        <ele>287.8</ele>
        <time>2014-02-05T12:30:23.000Z</time>
      </trkpt>
      <trkpt lat="43.21036" lon="2.02033">
        <ele>285.7</ele>
        <time>2014-02-05T12:30:34.000Z</time>
      </trkpt>
      <trkpt lat="43.2104" lon="2.02022">
        <ele>284.1</ele>
        <time>2014-02-05T12:30:45.000Z</time>
      </trkpt>
      <trkpt lat="43.2105" lon="2.02">
        <ele>281.4</ele>
        <time>2014-02-05T12:31:5.000Z</time>
      </trkpt>
      <trkpt lat="43.21056" lon="2.0199">
        <ele>279.7</ele>
        <time>2014-02-05T12:31:15.000Z</time>
      </trkpt>
      <trkpt lat="43.21064" lon="2.01981">
        <ele>278.3</ele>
        <time>2014-02-05T12:31:25.000Z</time>
      </trkpt>
      <trkpt lat="43.21073" lon="2.01977">
        <ele>276.7</ele>
        <time>2014-02-05T12:31:35.000Z</time>
      </trkpt>
      <trkpt lat="43.21082" lon="2.01972">
        <ele>274.4</ele>
        <time>2014-02-05T12:31:46.000Z</time>
      </trkpt>
      <trkpt lat="43.211" lon="2.01967">
        <ele>270.7</ele>
        <time>2014-02-05T12:32:9.000Z</time>
      </trkpt>
      <trkpt lat="43.21109" lon="2.01962">
        <ele>268.3</ele>
        <time>2014-02-05T12:32:31.000Z</time>
      </trkpt>
      <trkpt lat="43.21118" lon="2.01957">
        <ele>266.5</ele>
        <time>2014-02-05T12:32:44.000Z</time>
      </trkpt>
      <trkpt lat="43.21126" lon="2.01952">
        <ele>265</ele>
        <time>2014-02-05T12:32:55.000Z</time>
      </trkpt>
      <trkpt lat="43.2114" lon="2.01965">
        <ele>262.4</ele>
        <time>2014-02-05T12:33:17.000Z</time>
      </trkpt>
      <trkpt lat="43.21143" lon="2.01977">
        <ele>261.4</ele>
        <time>2014-02-05T12:33:25.000Z</time>
      </trkpt>
      <trkpt lat="43.21146" lon="2.01988">
        <ele>260.5</ele>
        <time>2014-02-05T12:33:32.000Z</time>
      </trkpt>
      <trkpt lat="43.21147" lon="2.02001">
        <ele>259.6</ele>
        <time>2014-02-05T12:33:40.000Z</time>
      </trkpt>
      <trkpt lat="43.21147" lon="2.02014">
        <ele>258.6</ele>
        <time>2014-02-05T12:33:49.000Z</time>
      </trkpt>
      <trkpt lat="43.21149" lon="2.02027">
        <ele>257.4</ele>
        <time>2014-02-05T12:34:1.000Z</time>
      </trkpt>
      <trkpt lat="43.21149" lon="2.02052">
        <ele>255.1</ele>
        <time>2014-02-05T12:34:20.000Z</time>
      </trkpt>
      <trkpt lat="43.21149" lon="2.02066">
        <ele>254.6</ele>
        <time>2014-02-05T12:34:29.000Z</time>
      </trkpt>
      <trkpt lat="43.21151" lon="2.02079">
        <ele>253.1</ele>
        <time>2014-02-05T12:35:17.000Z</time>
      </trkpt>
      <trkpt lat="43.21159" lon="2.02057">
        <ele>250.2</ele>
        <time>2014-02-05T12:35:58.000Z</time>
      </trkpt>
      <trkpt lat="43.21164" lon="2.02046">
        <ele>249.4</ele>
        <time>2014-02-05T12:36:8.000Z</time>
      </trkpt>
      <trkpt lat="43.2117" lon="2.02036">
        <ele>248.6</ele>
        <time>2014-02-05T12:36:18.000Z</time>
      </trkpt>
      <trkpt lat="43.21184" lon="2.02017">
        <ele>246.8</ele>
        <time>2014-02-05T12:36:37.000Z</time>
      </trkpt>
      <trkpt lat="43.2119" lon="2.02008">
        <ele>246.3</ele>
        <time>2014-02-05T12:36:45.000Z</time>
      </trkpt>
      <trkpt lat="43.21195" lon="2.01998">
        <ele>245.3</ele>
        <time>2014-02-05T12:36:56.000Z</time>
      </trkpt>
      <trkpt lat="43.212" lon="2.01986">
        <ele>244.7</ele>
        <time>2014-02-05T12:37:8.000Z</time>
      </trkpt>
      <trkpt lat="43.21205" lon="2.01975">
        <ele>243.5</ele>
        <time>2014-02-05T12:37:20.000Z</time>
      </trkpt>
      <trkpt lat="43.2121" lon="2.0195">
        <ele>240.9</ele>
        <time>2014-02-05T12:37:42.000Z</time>
      </trkpt>
      <trkpt lat="43.21213" lon="2.01937">
        <ele>239.9</ele>
        <time>2014-02-05T12:37:52.000Z</time>
      </trkpt>
      <trkpt lat="43.21214" lon="2.01924">
        <ele>238.5</ele>
        <time>2014-02-05T12:38:3.000Z</time>
      </trkpt>
      <trkpt lat="43.21217" lon="2.01912">
        <ele>238.1</ele>
        <time>2014-02-05T12:38:12.000Z</time>
      </trkpt>
      <trkpt lat="43.2122" lon="2.01899">
        <ele>237.1</ele>
        <time>2014-02-05T12:38:21.000Z</time>
      </trkpt>
      <trkpt lat="43.21229" lon="2.01875">
        <ele>236</ele>
        <time>2014-02-05T12:38:38.000Z</time>
      </trkpt>
      <trkpt lat="43.21235" lon="2.01866">
        <ele>234.6</ele>
        <time>2014-02-05T12:38:46.000Z</time>
      </trkpt>
      <trkpt lat="43.21241" lon="2.01856">
        <ele>233.9</ele>
        <time>2014-02-05T12:38:54.000Z</time>
      </trkpt>
      <trkpt lat="43.21246" lon="2.01845">
        <ele>233.3</ele>
        <time>2014-02-05T12:39:3.000Z</time>
      </trkpt>
      <trkpt lat="43.21252" lon="2.01836">
        <ele>232.7</ele>
        <time>2014-02-05T12:39:11.000Z</time>
      </trkpt>
      <trkpt lat="43.21257" lon="2.01826">
        <ele>232.3</ele>
        <time>2014-02-05T12:39:19.000Z</time>
      </trkpt>
      <trkpt lat="43.21265" lon="2.01817">
        <ele>231.8</ele>
        <time>2014-02-05T12:39:27.000Z</time>
      </trkpt>
      <trkpt lat="43.21283" lon="2.01814">
        <ele>230.9</ele>
        <time>2014-02-05T12:39:43.000Z</time>
      </trkpt>
      <trkpt lat="43.21293" lon="2.01817">
        <ele>230.3</ele>
        <time>2014-02-05T12:39:51.000Z</time>
      </trkpt>
      <trkpt lat="43.21302" lon="2.0182">
        <ele>229.3</ele>
        <time>2014-02-05T12:40:0.000Z</time>
      </trkpt>
      <trkpt lat="43.21312" lon="2.01818">
        <ele>228</ele>
        <time>2014-02-05T12:40:10.000Z</time>
      </trkpt>
      <trkpt lat="43.21322" lon="2.0182">
        <ele>227.2</ele>
        <time>2014-02-05T12:40:18.000Z</time>
      </trkpt>
      <trkpt lat="43.2133" lon="2.01824">
        <ele>226.6</ele>
        <time>2014-02-05T12:40:26.000Z</time>
      </trkpt>
      <trkpt lat="43.21339" lon="2.01831">
        <ele>226.2</ele>
        <time>2014-02-05T12:40:34.000Z</time>
      </trkpt>
      <trkpt lat="43.21355" lon="2.01844">
        <ele>226</ele>
        <time>2014-02-05T12:40:48.000Z</time>
      </trkpt>
      <trkpt lat="43.21363" lon="2.01851">
        <ele>225.5</ele>
        <time>2014-02-05T12:40:55.000Z</time>
      </trkpt>
      <trkpt lat="43.21371" lon="2.01856">
        <ele>225.5</ele>
        <time>2014-02-05T12:41:2.000Z</time>
      </trkpt>
      <trkpt lat="43.21381" lon="2.01856">
        <ele>225</ele>
        <time>2014-02-05T12:41:13.000Z</time>
      </trkpt>
      <trkpt lat="43.21391" lon="2.01854">
        <ele>224.1</ele>
        <time>2014-02-05T12:41:20.000Z</time>
      </trkpt>
      <trkpt lat="43.21401" lon="2.01857">
        <ele>223.6</ele>
        <time>2014-02-05T12:41:29.000Z</time>
      </trkpt>
      <trkpt lat="43.2141" lon="2.0186">
        <ele>222.8</ele>
        <time>2014-02-05T12:41:38.000Z</time>
      </trkpt>
      <trkpt lat="43.21428" lon="2.0187">
        <ele>221</ele>
        <time>2014-02-05T12:41:56.000Z</time>
      </trkpt>
      <trkpt lat="43.21438" lon="2.01874">
        <ele>220.3</ele>
        <time>2014-02-05T12:42:6.000Z</time>
      </trkpt>
      <trkpt lat="43.21447" lon="2.0188">
        <ele>219.8</ele>
        <time>2014-02-05T12:42:13.000Z</time>
      </trkpt>
      <trkpt lat="43.21456" lon="2.01874">
        <ele>219.1</ele>
        <time>2014-02-05T12:42:22.000Z</time>
      </trkpt>
      <trkpt lat="43.21463" lon="2.01866">
        <ele>219.1</ele>
        <time>2014-02-05T12:42:33.000Z</time>
      </trkpt>
      <trkpt lat="43.21472" lon="2.01865">
        <ele>218.5</ele>
        <time>2014-02-05T12:42:44.000Z</time>
      </trkpt>
      <trkpt lat="43.21487" lon="2.01848">
        <ele>217</ele>
        <time>2014-02-05T12:43:5.000Z</time>
      </trkpt>
      <trkpt lat="43.21494" lon="2.01839">
        <ele>216</ele>
        <time>2014-02-05T12:43:15.000Z</time>
      </trkpt>
      <trkpt lat="43.21501" lon="2.0183">
        <ele>215.7</ele>
        <time>2014-02-05T12:43:24.000Z</time>
      </trkpt>
      <trkpt lat="43.21509" lon="2.01823">
        <ele>215</ele>
        <time>2014-02-05T12:43:32.000Z</time>
      </trkpt>
      <trkpt lat="43.21518" lon="2.01816">
        <ele>214.3</ele>
        <time>2014-02-05T12:43:41.000Z</time>
      </trkpt>
      <trkpt lat="43.21527" lon="2.01811">
        <ele>213.6</ele>
        <time>2014-02-05T12:43:50.000Z</time>
      </trkpt>
      <trkpt lat="43.21545" lon="2.01801">
        <ele>213.3</ele>
        <time>2014-02-05T12:44:7.000Z</time>
      </trkpt>
      <trkpt lat="43.21554" lon="2.01797">
        <ele>212.7</ele>
        <time>2014-02-05T12:44:15.000Z</time>
      </trkpt>
      <trkpt lat="43.21562" lon="2.01792">
        <ele>212.2</ele>
        <time>2014-02-05T12:44:24.000Z</time>
      </trkpt>
      <trkpt lat="43.21571" lon="2.01786">
        <ele>212.1</ele>
        <time>2014-02-05T12:44:34.000Z</time>
      </trkpt>
      <trkpt lat="43.21579" lon="2.0178">
        <ele>212.2</ele>
        <time>2014-02-05T12:44:43.000Z</time>
      </trkpt>
      <trkpt lat="43.21588" lon="2.01774">
        <ele>210.7</ele>
        <time>2014-02-05T12:45:7.000Z</time>
      </trkpt>
      <trkpt lat="43.21606" lon="2.01781">
        <ele>208.5</ele>
        <time>2014-02-05T12:45:30.000Z</time>
      </trkpt>
      <trkpt lat="43.21611" lon="2.01792">
        <ele>208.1</ele>
        <time>2014-02-05T12:45:45.000Z</time>
      </trkpt>
      <trkpt lat="43.2162" lon="2.01795">
        <ele>208.4</ele>
        <time>2014-02-05T12:47:24.000Z</time>
      </trkpt>
      <trkpt lat="43.21637" lon="2.01782">
        <ele>208.4</ele>
        <time>2014-02-05T12:47:37.000Z</time>
      </trkpt>
      <trkpt lat="43.21645" lon="2.01775">
        <ele>208.5</ele>
        <time>2014-02-05T12:47:48.000Z</time>
      </trkpt>
      <trkpt lat="43.21655" lon="2.01771">
        <ele>208.7</ele>
        <time>2014-02-05T12:47:57.000Z</time>
      </trkpt>
      <trkpt lat="43.21664" lon="2.01768">
        <ele>208.7</ele>
        <time>2014-02-05T12:48:5.000Z</time>
      </trkpt>
      <trkpt lat="43.21673" lon="2.01767">
        <ele>208.2</ele>
        <time>2014-02-05T12:48:14.000Z</time>
      </trkpt>
      <trkpt lat="43.21683" lon="2.01766">
        <ele>207.6</ele>
        <time>2014-02-05T12:48:24.000Z</time>
      </trkpt>
      <trkpt lat="43.21693" lon="2.01765">
        <ele>206.8</ele>
        <time>2014-02-05T12:48:34.000Z</time>
      </trkpt>
      <trkpt lat="43.21711" lon="2.01762">
        <ele>206</ele>
        <time>2014-02-05T12:48:52.000Z</time>
      </trkpt>
      <trkpt lat="43.21721" lon="2.0176">
        <ele>205.2</ele>
        <time>2014-02-05T12:49:0.000Z</time>
      </trkpt>
      <trkpt lat="43.2173" lon="2.01759">
        <ele>204.1</ele>
        <time>2014-02-05T12:49:10.000Z</time>
      </trkpt>
      <trkpt lat="43.2174" lon="2.01757">
        <ele>203</ele>
        <time>2014-02-05T12:49:23.000Z</time>
      </trkpt>
      <trkpt lat="43.21748" lon="2.01752">
        <ele>202.7</ele>
        <time>2014-02-05T12:49:34.000Z</time>
      </trkpt>
      <trkpt lat="43.21757" lon="2.01748">
        <ele>202.4</ele>
        <time>2014-02-05T12:49:43.000Z</time>
      </trkpt>
      <trkpt lat="43.21775" lon="2.01756">
        <ele>202</ele>
        <time>2014-02-05T12:50:1.000Z</time>
      </trkpt>
      <trkpt lat="43.21784" lon="2.01763">
        <ele>202</ele>
        <time>2014-02-05T12:50:9.000Z</time>
      </trkpt>
      <trkpt lat="43.21793" lon="2.01767">
        <ele>202.1</ele>
        <time>2014-02-05T12:50:18.000Z</time>
      </trkpt>
      <trkpt lat="43.21802" lon="2.01769">
        <ele>202.2</ele>
        <time>2014-02-05T12:50:27.000Z</time>
      </trkpt>
      <trkpt lat="43.2181" lon="2.01775">
        <ele>202.7</ele>
        <time>2014-02-05T12:50:37.000Z</time>
      </trkpt>
      <trkpt lat="43.21815" lon="2.01785">
        <ele>203.2</ele>
        <time>2014-02-05T12:50:45.000Z</time>
      </trkpt>
      <trkpt lat="43.21814" lon="2.01812">
        <ele>203.5</ele>
        <time>2014-02-05T12:51:1.000Z</time>
      </trkpt>
      <trkpt lat="43.2182" lon="2.01822">
        <ele>202.8</ele>
        <time>2014-02-05T12:51:9.000Z</time>
      </trkpt>
      <trkpt lat="43.21827" lon="2.01831">
        <ele>202.3</ele>
        <time>2014-02-05T12:51:17.000Z</time>
      </trkpt>
      <trkpt lat="43.21832" lon="2.01842">
        <ele>202.1</ele>
        <time>2014-02-05T12:51:27.000Z</time>
      </trkpt>
      <trkpt lat="43.21836" lon="2.01854">
        <ele>201.7</ele>
        <time>2014-02-05T12:51:37.000Z</time>
      </trkpt>
      <trkpt lat="43.21845" lon="2.01862">
        <ele>201.5</ele>
        <time>2014-02-05T12:51:44.000Z</time>
      </trkpt>
      <trkpt lat="43.21851" lon="2.01872">
        <ele>201.2</ele>
        <time>2014-02-05T12:51:54.000Z</time>
      </trkpt>
      <trkpt lat="43.21862" lon="2.01892">
        <ele>199.4</ele>
        <time>2014-02-05T12:52:12.000Z</time>
      </trkpt>
      <trkpt lat="43.21869" lon="2.01901">
        <ele>198.7</ele>
        <time>2014-02-05T12:52:19.000Z</time>
      </trkpt>
      <trkpt lat="43.21874" lon="2.01912">
        <ele>198.3</ele>
        <time>2014-02-05T12:52:27.000Z</time>
      </trkpt>
      <trkpt lat="43.21878" lon="2.01924">
        <ele>197.6</ele>
        <time>2014-02-05T12:52:37.000Z</time>
      </trkpt>
      <trkpt lat="43.2188" lon="2.01937">
        <ele>197.2</ele>
        <time>2014-02-05T12:52:46.000Z</time>
      </trkpt>
      <trkpt lat="43.21884" lon="2.01948">
        <ele>197.5</ele>
        <time>2014-02-05T12:52:54.000Z</time>
      </trkpt>
      <trkpt lat="43.21891" lon="2.01957">
        <ele>197.4</ele>
        <time>2014-02-05T12:53:2.000Z</time>
      </trkpt>
      <trkpt lat="43.21903" lon="2.01977">
        <ele>198.1</ele>
        <time>2014-02-05T12:53:20.000Z</time>
      </trkpt>
      <trkpt lat="43.21908" lon="2.01989">
        <ele>198.4</ele>
        <time>2014-02-05T12:53:28.000Z</time>
      </trkpt>
      <trkpt lat="43.21913" lon="2.02">
        <ele>198.3</ele>
        <time>2014-02-05T12:53:36.000Z</time>
      </trkpt>
      <trkpt lat="43.21919" lon="2.02011">
        <ele>198.5</ele>
        <time>2014-02-05T12:53:44.000Z</time>
      </trkpt>
      <trkpt lat="43.21924" lon="2.02022">
        <ele>198.9</ele>
        <time>2014-02-05T12:53:54.000Z</time>
      </trkpt>
      <trkpt lat="43.21928" lon="2.02034">
        <ele>199.5</ele>
        <time>2014-02-05T12:54:3.000Z</time>
      </trkpt>
      <trkpt lat="43.21936" lon="2.02057">
        <ele>200.8</ele>
        <time>2014-02-05T12:54:21.000Z</time>
      </trkpt>
      <trkpt lat="43.2194" lon="2.0207">
        <ele>201.9</ele>
        <time>2014-02-05T12:54:30.000Z</time>
      </trkpt>
      <trkpt lat="43.21943" lon="2.02082">
        <ele>201.6</ele>
        <time>2014-02-05T12:54:38.000Z</time>
      </trkpt>
      <trkpt lat="43.21945" lon="2.02094">
        <ele>201.3</ele>
        <time>2014-02-05T12:54:46.000Z</time>
      </trkpt>
      <trkpt lat="43.21946" lon="2.02107">
        <ele>201.8</ele>
        <time>2014-02-05T12:54:55.000Z</time>
      </trkpt>
      <trkpt lat="43.21949" lon="2.0212">
        <ele>201.8</ele>
        <time>2014-02-05T12:55:4.000Z</time>
      </trkpt>
      <trkpt lat="43.21951" lon="2.02146">
        <ele>202.3</ele>
        <time>2014-02-05T12:55:21.000Z</time>
      </trkpt>
      <trkpt lat="43.21953" lon="2.02159">
        <ele>202.7</ele>
        <time>2014-02-05T12:55:30.000Z</time>
      </trkpt>
      <trkpt lat="43.21956" lon="2.0217">
        <ele>202.7</ele>
        <time>2014-02-05T12:55:38.000Z</time>
      </trkpt>
      <trkpt lat="43.21961" lon="2.02182">
        <ele>203.1</ele>
        <time>2014-02-05T12:55:48.000Z</time>
      </trkpt>
      <trkpt lat="43.21965" lon="2.02194">
        <ele>203.3</ele>
        <time>2014-02-05T12:55:58.000Z</time>
      </trkpt>
      <trkpt lat="43.21969" lon="2.02205">
        <ele>203.8</ele>
        <time>2014-02-05T12:56:7.000Z</time>
      </trkpt>
      <trkpt lat="43.21976" lon="2.02229">
        <ele>204.5</ele>
        <time>2014-02-05T12:56:25.000Z</time>
      </trkpt>
      <trkpt lat="43.21978" lon="2.02242">
        <ele>204.6</ele>
        <time>2014-02-05T12:56:34.000Z</time>
      </trkpt>
      <trkpt lat="43.2198" lon="2.02254">
        <ele>205.3</ele>
        <time>2014-02-05T12:56:43.000Z</time>
      </trkpt>
      <trkpt lat="43.21984" lon="2.02266">
        <ele>205.2</ele>
        <time>2014-02-05T12:56:52.000Z</time>
      </trkpt>
      <trkpt lat="43.21991" lon="2.02274">
        <ele>205.1</ele>
        <time>2014-02-05T12:57:1.000Z</time>
      </trkpt>
      <trkpt lat="43.21999" lon="2.02283">
        <ele>205.6</ele>
        <time>2014-02-05T12:57:11.000Z</time>
      </trkpt>
      <trkpt lat="43.22016" lon="2.02295">
        <ele>206</ele>
        <time>2014-02-05T12:57:29.000Z</time>
      </trkpt>
      <trkpt lat="43.22024" lon="2.02302">
        <ele>206.2</ele>
        <time>2014-02-05T12:57:38.000Z</time>
      </trkpt>
      <trkpt lat="43.22032" lon="2.02309">
        <ele>206.7</ele>
        <time>2014-02-05T12:57:47.000Z</time>
      </trkpt>
      <trkpt lat="43.22039" lon="2.02316">
        <ele>206.4</ele>
        <time>2014-02-05T12:57:56.000Z</time>
      </trkpt>
      <trkpt lat="43.22046" lon="2.02326">
        <ele>206.5</ele>
        <time>2014-02-05T12:58:5.000Z</time>
      </trkpt>
      <trkpt lat="43.22053" lon="2.02334">
        <ele>206.5</ele>
        <time>2014-02-05T12:58:14.000Z</time>
      </trkpt>
      <trkpt lat="43.22059" lon="2.02359">
        <ele>205.8</ele>
        <time>2014-02-05T12:58:31.000Z</time>
      </trkpt>
      <trkpt lat="43.22062" lon="2.02372">
        <ele>205.3</ele>
        <time>2014-02-05T12:58:40.000Z</time>
      </trkpt>
      <trkpt lat="43.22065" lon="2.02385">
        <ele>205.2</ele>
        <time>2014-02-05T12:58:49.000Z</time>
      </trkpt>
      <trkpt lat="43.22067" lon="2.02398">
        <ele>204.8</ele>
        <time>2014-02-05T12:58:58.000Z</time>
      </trkpt>
      <trkpt lat="43.22068" lon="2.02412">
        <ele>204.3</ele>
        <time>2014-02-05T12:59:7.000Z</time>
      </trkpt>
      <trkpt lat="43.2207" lon="2.02425">
        <ele>203.8</ele>
        <time>2014-02-05T12:59:16.000Z</time>
      </trkpt>
      <trkpt lat="43.22073" lon="2.02451">
        <ele>203.4</ele>
        <time>2014-02-05T12:59:33.000Z</time>
      </trkpt>
      <trkpt lat="43.22075" lon="2.02464">
        <ele>202.8</ele>
        <time>2014-02-05T12:59:42.000Z</time>
      </trkpt>
      <trkpt lat="43.22077" lon="2.02477">
        <ele>202.1</ele>
        <time>2014-02-05T12:59:52.000Z</time>
      </trkpt>
      <trkpt lat="43.22078" lon="2.0249">
        <ele>201.5</ele>
        <time>2014-02-05T13:00:1.000Z</time>
      </trkpt>
      <trkpt lat="43.2208" lon="2.02502">
        <ele>200.8</ele>
        <time>2014-02-05T13:00:9.000Z</time>
      </trkpt>
      <trkpt lat="43.22081" lon="2.02515">
        <ele>200.5</ele>
        <time>2014-02-05T13:00:17.000Z</time>
      </trkpt>
      <trkpt lat="43.22083" lon="2.0254">
        <ele>199.8</ele>
        <time>2014-02-05T13:00:33.000Z</time>
      </trkpt>
      <trkpt lat="43.22083" lon="2.02554">
        <ele>199.5</ele>
        <time>2014-02-05T13:00:42.000Z</time>
      </trkpt>
      <trkpt lat="43.22082" lon="2.02566">
        <ele>199.3</ele>
        <time>2014-02-05T13:00:50.000Z</time>
      </trkpt>
      <trkpt lat="43.22081" lon="2.02579">
        <ele>198.9</ele>
        <time>2014-02-05T13:00:58.000Z</time>
      </trkpt>
      <trkpt lat="43.2208" lon="2.02591">
        <ele>198.5</ele>
        <time>2014-02-05T13:01:6.000Z</time>
      </trkpt>
      <trkpt lat="43.22077" lon="2.02605">
        <ele>198</ele>
        <time>2014-02-05T13:01:15.000Z</time>
      </trkpt>
      <trkpt lat="43.22076" lon="2.02617">
        <ele>197.1</ele>
        <time>2014-02-05T13:01:24.000Z</time>
      </trkpt>
      <trkpt lat="43.22081" lon="2.02642">
        <ele>195.9</ele>
        <time>2014-02-05T13:01:42.000Z</time>
      </trkpt>
      <trkpt lat="43.22085" lon="2.02655">
        <ele>194.9</ele>
        <time>2014-02-05T13:01:51.000Z</time>
      </trkpt>
      <trkpt lat="43.22088" lon="2.02668">
        <ele>194.3</ele>
        <time>2014-02-05T13:02:0.000Z</time>
      </trkpt>
      <trkpt lat="43.22091" lon="2.0268">
        <ele>193.9</ele>
        <time>2014-02-05T13:02:9.000Z</time>
      </trkpt>
      <trkpt lat="43.22094" lon="2.02692">
        <ele>193.7</ele>
        <time>2014-02-05T13:02:17.000Z</time>
      </trkpt>
      <trkpt lat="43.22098" lon="2.02704">
        <ele>193.4</ele>
        <time>2014-02-05T13:02:25.000Z</time>
      </trkpt>
      <trkpt lat="43.22103" lon="2.02728">
        <ele>192.2</ele>
        <time>2014-02-05T13:02:41.000Z</time>
      </trkpt>
      <trkpt lat="43.22105" lon="2.02741">
        <ele>191.7</ele>
        <time>2014-02-05T13:02:49.000Z</time>
      </trkpt>
      <trkpt lat="43.22107" lon="2.02753">
        <ele>191.3</ele>
        <time>2014-02-05T13:02:57.000Z</time>
      </trkpt>
      <trkpt lat="43.22109" lon="2.02765">
        <ele>190.9</ele>
        <time>2014-02-05T13:03:5.000Z</time>
      </trkpt>
      <trkpt lat="43.22111" lon="2.02779">
        <ele>190.6</ele>
        <time>2014-02-05T13:03:14.000Z</time>
      </trkpt>
      <trkpt lat="43.22114" lon="2.02792">
        <ele>190.5</ele>
        <time>2014-02-05T13:03:23.000Z</time>
      </trkpt>
      <trkpt lat="43.22117" lon="2.02805">
        <ele>190.2</ele>
        <time>2014-02-05T13:03:32.000Z</time>
      </trkpt>
      <trkpt lat="43.22123" lon="2.02829">
        <ele>189.1</ele>
        <time>2014-02-05T13:03:49.000Z</time>
      </trkpt>
      <trkpt lat="43.22126" lon="2.02841">
        <ele>188.7</ele>
        <time>2014-02-05T13:03:57.000Z</time>
      </trkpt>
      <trkpt lat="43.2213" lon="2.02853">
        <ele>188.6</ele>
        <time>2014-02-05T13:04:6.000Z</time>
      </trkpt>
      <trkpt lat="43.22134" lon="2.02864">
        <ele>188.3</ele>
        <time>2014-02-05T13:04:14.000Z</time>
      </trkpt>
      <trkpt lat="43.22138" lon="2.02876">
        <ele>188.1</ele>
        <time>2014-02-05T13:04:22.000Z</time>
      </trkpt>
      <trkpt lat="43.22141" lon="2.02889">
        <ele>188</ele>
        <time>2014-02-05T13:04:31.000Z</time>
      </trkpt>
      <trkpt lat="43.22143" lon="2.02902">
        <ele>187.6</ele>
        <time>2014-02-05T13:04:39.000Z</time>
      </trkpt>
      <trkpt lat="43.22144" lon="2.02928">
        <ele>187.4</ele>
        <time>2014-02-05T13:04:56.000Z</time>
      </trkpt>
      <trkpt lat="43.22146" lon="2.02941">
        <ele>186.6</ele>
        <time>2014-02-05T13:05:7.000Z</time>
      </trkpt>
      <trkpt lat="43.22142" lon="2.02953">
        <ele>186.5</ele>
        <time>2014-02-05T13:05:20.000Z</time>
      </trkpt>
      <trkpt lat="43.22142" lon="2.02966">
        <ele>186.5</ele>
        <time>2014-02-05T13:05:28.000Z</time>
      </trkpt>
      <trkpt lat="43.22142" lon="2.02979">
        <ele>186.1</ele>
        <time>2014-02-05T13:05:37.000Z</time>
      </trkpt>
      <trkpt lat="43.22141" lon="2.02992">
        <ele>186.1</ele>
        <time>2014-02-05T13:05:45.000Z</time>
      </trkpt>
      <trkpt lat="43.2214" lon="2.03018">
        <ele>185.8</ele>
        <time>2014-02-05T13:06:2.000Z</time>
      </trkpt>
      <trkpt lat="43.22139" lon="2.0303">
        <ele>185.6</ele>
        <time>2014-02-05T13:06:10.000Z</time>
      </trkpt>
      <trkpt lat="43.2214" lon="2.03043">
        <ele>185.3</ele>
        <time>2014-02-05T13:06:19.000Z</time>
      </trkpt>
      <trkpt lat="43.22141" lon="2.03057">
        <ele>184.7</ele>
        <time>2014-02-05T13:06:27.000Z</time>
      </trkpt>
      <trkpt lat="43.22142" lon="2.0307">
        <ele>184.4</ele>
        <time>2014-02-05T13:06:35.000Z</time>
      </trkpt>
      <trkpt lat="43.22144" lon="2.03084">
        <ele>184.2</ele>
        <time>2014-02-05T13:06:43.000Z</time>
      </trkpt>
      <trkpt lat="43.22149" lon="2.03094">
        <ele>183.5</ele>
        <time>2014-02-05T13:06:55.000Z</time>
      </trkpt>
      <trkpt lat="43.22132" lon="2.03125">
        <ele>181.4</ele>
        <time>2014-02-05T13:08:22.000Z</time>
      </trkpt>
      <trkpt lat="43.22127" lon="2.03135">
        <ele>180.9</ele>
        <time>2014-02-05T13:08:30.000Z</time>
      </trkpt>
      <trkpt lat="43.22121" lon="2.03145">
        <ele>180.6</ele>
        <time>2014-02-05T13:08:38.000Z</time>
      </trkpt>
      <trkpt lat="43.22115" lon="2.03156">
        <ele>180.2</ele>
        <time>2014-02-05T13:08:46.000Z</time>
      </trkpt>
      <trkpt lat="43.22108" lon="2.03165">
        <ele>179.9</ele>
        <time>2014-02-05T13:08:54.000Z</time>
      </trkpt>
      <trkpt lat="43.22102" lon="2.03175">
        <ele>179.5</ele>
        <time>2014-02-05T13:09:2.000Z</time>
      </trkpt>
      <trkpt lat="43.22095" lon="2.03186">
        <ele>179.2</ele>
        <time>2014-02-05T13:09:10.000Z</time>
      </trkpt>
      <trkpt lat="43.22081" lon="2.03204">
        <ele>178.2</ele>
        <time>2014-02-05T13:09:26.000Z</time>
      </trkpt>
      <trkpt lat="43.22074" lon="2.03212">
        <ele>177.2</ele>
        <time>2014-02-05T13:09:34.000Z</time>
      </trkpt>
      <trkpt lat="43.22067" lon="2.03221">
        <ele>176</ele>
        <time>2014-02-05T13:09:43.000Z</time>
      </trkpt>
      <trkpt lat="43.22059" lon="2.03231">
        <ele>174.9</ele>
        <time>2014-02-05T13:09:52.000Z</time>
      </trkpt>
      <trkpt lat="43.22052" lon="2.0324">
        <ele>173.3</ele>
        <time>2014-02-05T13:10:1.000Z</time>
      </trkpt>
      <trkpt lat="43.22044" lon="2.03248">
        <ele>172.3</ele>
        <time>2014-02-05T13:10:9.000Z</time>
      </trkpt>
      <trkpt lat="43.22035" lon="2.03254">
        <ele>171.6</ele>
        <time>2014-02-05T13:10:17.000Z</time>
      </trkpt>
      <trkpt lat="43.22018" lon="2.03265">
        <ele>169.9</ele>
        <time>2014-02-05T13:10:33.000Z</time>
      </trkpt>
      <trkpt lat="43.22009" lon="2.03271">
        <ele>169.4</ele>
        <time>2014-02-05T13:10:41.000Z</time>
      </trkpt>
      <trkpt lat="43.22" lon="2.03276">
        <ele>168.5</ele>
        <time>2014-02-05T13:10:49.000Z</time>
      </trkpt>
      <trkpt lat="43.21991" lon="2.03281">
        <ele>167.9</ele>
        <time>2014-02-05T13:10:57.000Z</time>
      </trkpt>
      <trkpt lat="43.21982" lon="2.03286">
        <ele>167.4</ele>
        <time>2014-02-05T13:11:5.000Z</time>
      </trkpt>
      <trkpt lat="43.21973" lon="2.03292">
        <ele>166.6</ele>
        <time>2014-02-05T13:11:13.000Z</time>
      </trkpt>
      <trkpt lat="43.21964" lon="2.03298">
        <ele>166.1</ele>
        <time>2014-02-05T13:11:21.000Z</time>
      </trkpt>
      <trkpt lat="43.21948" lon="2.03313">
        <ele>165.7</ele>
        <time>2014-02-05T13:11:37.000Z</time>
      </trkpt>
      <trkpt lat="43.2194" lon="2.03322">
        <ele>165.1</ele>
        <time>2014-02-05T13:11:45.000Z</time>
      </trkpt>
      <trkpt lat="43.21932" lon="2.0333">
        <ele>165.2</ele>
        <time>2014-02-05T13:11:53.000Z</time>
      </trkpt>
      <trkpt lat="43.21925" lon="2.03338">
        <ele>164.9</ele>
        <time>2014-02-05T13:12:1.000Z</time>
      </trkpt>
      <trkpt lat="43.21918" lon="2.03345">
        <ele>165.2</ele>
        <time>2014-02-05T13:12:9.000Z</time>
      </trkpt>
      <trkpt lat="43.2191" lon="2.03355">
        <ele>165.5</ele>
        <time>2014-02-05T13:12:17.000Z</time>
      </trkpt>
      <trkpt lat="43.21903" lon="2.03362">
        <ele>165.9</ele>
        <time>2014-02-05T13:12:25.000Z</time>
      </trkpt>
      <trkpt lat="43.21887" lon="2.03378">
        <ele>166</ele>
        <time>2014-02-05T13:12:41.000Z</time>
      </trkpt>
      <trkpt lat="43.2188" lon="2.03385">
        <ele>166.2</ele>
        <time>2014-02-05T13:12:49.000Z</time>
      </trkpt>
      <trkpt lat="43.21871" lon="2.03391">
        <ele>166.5</ele>
        <time>2014-02-05T13:12:57.000Z</time>
      </trkpt>
      <trkpt lat="43.21862" lon="2.03391">
        <ele>166.7</ele>
        <time>2014-02-05T13:13:4.000Z</time>
      </trkpt>
      <trkpt lat="43.21862" lon="2.03378">
        <ele>167.3</ele>
        <time>2014-02-05T13:13:38.000Z</time>
      </trkpt>
      <trkpt lat="43.2186" lon="2.03353">
        <ele>168</ele>
        <time>2014-02-05T13:13:57.000Z</time>
      </trkpt>
      <trkpt lat="43.2186" lon="2.03341">
        <ele>167.9</ele>
        <time>2014-02-05T13:14:5.000Z</time>
      </trkpt>
      <trkpt lat="43.21858" lon="2.03327">
        <ele>167.7</ele>
        <time>2014-02-05T13:14:14.000Z</time>
      </trkpt>
      <trkpt lat="43.21857" lon="2.03315">
        <ele>168.2</ele>
        <time>2014-02-05T13:14:22.000Z</time>
      </trkpt>
      <trkpt lat="43.21856" lon="2.03302">
        <ele>168.5</ele>
        <time>2014-02-05T13:14:31.000Z</time>
      </trkpt>
      <trkpt lat="43.21855" lon="2.03289">
        <ele>168.8</ele>
        <time>2014-02-05T13:14:39.000Z</time>
      </trkpt>
      <trkpt lat="43.21847" lon="2.03266">
        <ele>170</ele>
        <time>2014-02-05T13:14:56.000Z</time>
      </trkpt>
      <trkpt lat="43.21841" lon="2.03255">
        <ele>171</ele>
        <time>2014-02-05T13:15:5.000Z</time>
      </trkpt>
      <trkpt lat="43.21835" lon="2.03246">
        <ele>171.7</ele>
        <time>2014-02-05T13:15:13.000Z</time>
      </trkpt>
      <trkpt lat="43.21828" lon="2.03236">
        <ele>172.3</ele>
        <time>2014-02-05T13:15:35.000Z</time>
      </trkpt>
      <trkpt lat="43.2182" lon="2.03229">
        <ele>172.7</ele>
        <time>2014-02-05T13:15:44.000Z</time>
      </trkpt>
      <trkpt lat="43.21805" lon="2.03213">
        <ele>173.6</ele>
        <time>2014-02-05T13:16:3.000Z</time>
      </trkpt>
      <trkpt lat="43.21798" lon="2.03205">
        <ele>173.9</ele>
        <time>2014-02-05T13:16:11.000Z</time>
      </trkpt>
      <trkpt lat="43.2179" lon="2.03198">
        <ele>174.6</ele>
        <time>2014-02-05T13:16:19.000Z</time>
      </trkpt>
      <trkpt lat="43.21783" lon="2.03191">
        <ele>175</ele>
        <time>2014-02-05T13:16:27.000Z</time>
      </trkpt>
      <trkpt lat="43.21775" lon="2.03185">
        <ele>175.5</ele>
        <time>2014-02-05T13:16:35.000Z</time>
      </trkpt>
      <trkpt lat="43.21767" lon="2.03179">
        <ele>175.8</ele>
        <time>2014-02-05T13:16:43.000Z</time>
      </trkpt>
      <trkpt lat="43.21757" lon="2.03175">
        <ele>175.9</ele>
        <time>2014-02-05T13:16:52.000Z</time>
      </trkpt>
      <trkpt lat="43.21739" lon="2.0317">
        <ele>176.1</ele>
        <time>2014-02-05T13:17:8.000Z</time>
      </trkpt>
      <trkpt lat="43.2173" lon="2.03171">
        <ele>176.3</ele>
        <time>2014-02-05T13:17:16.000Z</time>
      </trkpt>
      <trkpt lat="43.21721" lon="2.03173">
        <ele>177.2</ele>
        <time>2014-02-05T13:17:24.000Z</time>
      </trkpt>
      <trkpt lat="43.21712" lon="2.03178">
        <ele>177.5</ele>
        <time>2014-02-05T13:17:32.000Z</time>
      </trkpt>
      <trkpt lat="43.21703" lon="2.03183">
        <ele>178.1</ele>
        <time>2014-02-05T13:17:40.000Z</time>
      </trkpt>
      <trkpt lat="43.21695" lon="2.03188">
        <ele>178.5</ele>
        <time>2014-02-05T13:17:48.000Z</time>
      </trkpt>
      <trkpt lat="43.21686" lon="2.03192">
        <ele>179.3</ele>
        <time>2014-02-05T13:17:56.000Z</time>
      </trkpt>
      <trkpt lat="43.21668" lon="2.032">
        <ele>179.8</ele>
        <time>2014-02-05T13:18:13.000Z</time>
      </trkpt>
      <trkpt lat="43.21659" lon="2.03203">
        <ele>180.5</ele>
        <time>2014-02-05T13:18:21.000Z</time>
      </trkpt>
      <trkpt lat="43.2165" lon="2.03205">
        <ele>180.6</ele>
        <time>2014-02-05T13:18:29.000Z</time>
      </trkpt>
      <trkpt lat="43.2164" lon="2.03206">
        <ele>180.9</ele>
        <time>2014-02-05T13:18:37.000Z</time>
      </trkpt>
      <trkpt lat="43.2163" lon="2.03208">
        <ele>180.9</ele>
        <time>2014-02-05T13:18:45.000Z</time>
      </trkpt>
      <trkpt lat="43.2162" lon="2.03208">
        <ele>181.2</ele>
        <time>2014-02-05T13:18:53.000Z</time>
      </trkpt>
      <trkpt lat="43.2161" lon="2.03209">
        <ele>181.2</ele>
        <time>2014-02-05T13:19:1.000Z</time>
      </trkpt>
      <trkpt lat="43.21591" lon="2.0321">
        <ele>181.5</ele>
        <time>2014-02-05T13:19:17.000Z</time>
      </trkpt>
      <trkpt lat="43.21581" lon="2.03211">
        <ele>181.8</ele>
        <time>2014-02-05T13:19:25.000Z</time>
      </trkpt>
      <trkpt lat="43.2157" lon="2.03212">
        <ele>182.1</ele>
        <time>2014-02-05T13:19:33.000Z</time>
      </trkpt>
      <trkpt lat="43.21561" lon="2.03214">
        <ele>182.3</ele>
        <time>2014-02-05T13:19:41.000Z</time>
      </trkpt>
      <trkpt lat="43.21551" lon="2.03216">
        <ele>182.8</ele>
        <time>2014-02-05T13:19:49.000Z</time>
      </trkpt>
      <trkpt lat="43.21541" lon="2.03218">
        <ele>182.8</ele>
        <time>2014-02-05T13:19:57.000Z</time>
      </trkpt>
      <trkpt lat="43.21531" lon="2.03219">
        <ele>183.6</ele>
        <time>2014-02-05T13:20:5.000Z</time>
      </trkpt>
      <trkpt lat="43.21512" lon="2.03222">
        <ele>184.5</ele>
        <time>2014-02-05T13:20:21.000Z</time>
      </trkpt>
      <trkpt lat="43.21502" lon="2.03221">
        <ele>185.3</ele>
        <time>2014-02-05T13:20:30.000Z</time>
      </trkpt>
      <trkpt lat="43.21493" lon="2.03218">
        <ele>185.6</ele>
        <time>2014-02-05T13:20:38.000Z</time>
      </trkpt>
      <trkpt lat="43.21484" lon="2.03215">
        <ele>186</ele>
        <time>2014-02-05T13:20:46.000Z</time>
      </trkpt>
      <trkpt lat="43.21474" lon="2.03211">
        <ele>186.9</ele>
        <time>2014-02-05T13:20:55.000Z</time>
      </trkpt>
      <trkpt lat="43.21465" lon="2.03207">
        <ele>187.5</ele>
        <time>2014-02-05T13:21:4.000Z</time>
      </trkpt>
      <trkpt lat="43.21456" lon="2.03203">
        <ele>188.2</ele>
        <time>2014-02-05T13:21:13.000Z</time>
      </trkpt>
      <trkpt lat="43.21438" lon="2.03193">
        <ele>189.5</ele>
        <time>2014-02-05T13:21:29.000Z</time>
      </trkpt>
      <trkpt lat="43.21429" lon="2.03188">
        <ele>190.4</ele>
        <time>2014-02-05T13:21:38.000Z</time>
      </trkpt>
      <trkpt lat="43.2142" lon="2.03183">
        <ele>191.6</ele>
        <time>2014-02-05T13:21:47.000Z</time>
      </trkpt>
      <trkpt lat="43.21411" lon="2.03178">
        <ele>192.5</ele>
        <time>2014-02-05T13:21:56.000Z</time>
      </trkpt>
      <trkpt lat="43.21403" lon="2.03174">
        <ele>193.5</ele>
        <time>2014-02-05T13:22:5.000Z</time>
      </trkpt>
      <trkpt lat="43.21394" lon="2.03169">
        <ele>194.9</ele>
        <time>2014-02-05T13:22:14.000Z</time>
      </trkpt>
      <trkpt lat="43.21385" lon="2.03164">
        <ele>196.2</ele>
        <time>2014-02-05T13:22:23.000Z</time>
      </trkpt>
      <trkpt lat="43.21367" lon="2.03157">
        <ele>198.7</ele>
        <time>2014-02-05T13:22:42.000Z</time>
      </trkpt>
      <trkpt lat="43.21357" lon="2.03154">
        <ele>200</ele>
        <time>2014-02-05T13:22:52.000Z</time>
      </trkpt>
      <trkpt lat="43.21348" lon="2.03151">
        <ele>201.1</ele>
        <time>2014-02-05T13:23:0.000Z</time>
      </trkpt>
      <trkpt lat="43.21339" lon="2.03148">
        <ele>202.5</ele>
        <time>2014-02-05T13:23:9.000Z</time>
      </trkpt>
      <trkpt lat="43.2133" lon="2.03145">
        <ele>203.3</ele>
        <time>2014-02-05T13:23:18.000Z</time>
      </trkpt>
      <trkpt lat="43.2132" lon="2.03145">
        <ele>204.6</ele>
        <time>2014-02-05T13:23:27.000Z</time>
      </trkpt>
      <trkpt lat="43.21301" lon="2.03151">
        <ele>206.2</ele>
        <time>2014-02-05T13:23:44.000Z</time>
      </trkpt>
      <trkpt lat="43.21294" lon="2.03158">
        <ele>206.8</ele>
        <time>2014-02-05T13:23:52.000Z</time>
      </trkpt>
      <trkpt lat="43.21287" lon="2.03167">
        <ele>207.8</ele>
        <time>2014-02-05T13:24:1.000Z</time>
      </trkpt>
      <trkpt lat="43.2128" lon="2.03177">
        <ele>208.2</ele>
        <time>2014-02-05T13:24:10.000Z</time>
      </trkpt>
      <trkpt lat="43.21273" lon="2.03188">
        <ele>208.7</ele>
        <time>2014-02-05T13:24:19.000Z</time>
      </trkpt>
      <trkpt lat="43.21266" lon="2.03197">
        <ele>208.3</ele>
        <time>2014-02-05T13:24:28.000Z</time>
      </trkpt>
      <trkpt lat="43.2125" lon="2.03209">
        <ele>207.8</ele>
        <time>2014-02-05T13:24:45.000Z</time>
      </trkpt>
      <trkpt lat="43.2124" lon="2.03208">
        <ele>207</ele>
        <time>2014-02-05T13:24:55.000Z</time>
      </trkpt>
      <trkpt lat="43.21232" lon="2.03201">
        <ele>206.3</ele>
        <time>2014-02-05T13:25:5.000Z</time>
      </trkpt>
      <trkpt lat="43.21224" lon="2.03195">
        <ele>206.2</ele>
        <time>2014-02-05T13:25:15.000Z</time>
      </trkpt>
      <trkpt lat="43.21214" lon="2.03197">
        <ele>206</ele>
        <time>2014-02-05T13:25:26.000Z</time>
      </trkpt>
      <trkpt lat="43.21204" lon="2.032">
        <ele>205.4</ele>
        <time>2014-02-05T13:25:36.000Z</time>
      </trkpt>
      <trkpt lat="43.21186" lon="2.03207">
        <ele>204.7</ele>
        <time>2014-02-05T13:25:54.000Z</time>
      </trkpt>
      <trkpt lat="43.21177" lon="2.03211">
        <ele>204.9</ele>
        <time>2014-02-05T13:26:2.000Z</time>
      </trkpt>
      <trkpt lat="43.21167" lon="2.03215">
        <ele>205.4</ele>
        <time>2014-02-05T13:26:11.000Z</time>
      </trkpt>
      <trkpt lat="43.21159" lon="2.03218">
        <ele>204.8</ele>
        <time>2014-02-05T13:26:19.000Z</time>
      </trkpt>
      <trkpt lat="43.21149" lon="2.03221">
        <ele>204.5</ele>
        <time>2014-02-05T13:26:27.000Z</time>
      </trkpt>
      <trkpt lat="43.2114" lon="2.03223">
        <ele>203.9</ele>
        <time>2014-02-05T13:26:36.000Z</time>
      </trkpt>
      <trkpt lat="43.2113" lon="2.03225">
        <ele>204</ele>
        <time>2014-02-05T13:26:44.000Z</time>
      </trkpt>
      <trkpt lat="43.21112" lon="2.0323">
        <ele>203.9</ele>
        <time>2014-02-05T13:27:0.000Z</time>
      </trkpt>
      <trkpt lat="43.21103" lon="2.03232">
        <ele>204.4</ele>
        <time>2014-02-05T13:27:9.000Z</time>
      </trkpt>
      <trkpt lat="43.21094" lon="2.03233">
        <ele>204.7</ele>
        <time>2014-02-05T13:27:18.000Z</time>
      </trkpt>
      <trkpt lat="43.21084" lon="2.03234">
        <ele>205.4</ele>
        <time>2014-02-05T13:27:28.000Z</time>
      </trkpt>
      <trkpt lat="43.21074" lon="2.03235">
        <ele>206.1</ele>
        <time>2014-02-05T13:27:37.000Z</time>
      </trkpt>
      <trkpt lat="43.21065" lon="2.03238">
        <ele>206.5</ele>
        <time>2014-02-05T13:27:45.000Z</time>
      </trkpt>
      <trkpt lat="43.21055" lon="2.03241">
        <ele>206.9</ele>
        <time>2014-02-05T13:27:54.000Z</time>
      </trkpt>
      <trkpt lat="43.21037" lon="2.03249">
        <ele>207.7</ele>
        <time>2014-02-05T13:28:12.000Z</time>
      </trkpt>
      <trkpt lat="43.21027" lon="2.0325">
        <ele>207.9</ele>
        <time>2014-02-05T13:28:21.000Z</time>
      </trkpt>
      <trkpt lat="43.21018" lon="2.03251">
        <ele>208.8</ele>
        <time>2014-02-05T13:28:29.000Z</time>
      </trkpt>
      <trkpt lat="43.21009" lon="2.0325">
        <ele>209.1</ele>
        <time>2014-02-05T13:28:37.000Z</time>
      </trkpt>
      <trkpt lat="43.20999" lon="2.0325">
        <ele>209.6</ele>
        <time>2014-02-05T13:28:46.000Z</time>
      </trkpt>
      <trkpt lat="43.20989" lon="2.03251">
        <ele>210</ele>
        <time>2014-02-05T13:28:55.000Z</time>
      </trkpt>
      <trkpt lat="43.2098" lon="2.03255">
        <ele>210.5</ele>
        <time>2014-02-05T13:29:4.000Z</time>
      </trkpt>
      <trkpt lat="43.20962" lon="2.03265">
        <ele>211</ele>
        <time>2014-02-05T13:29:21.000Z</time>
      </trkpt>
      <trkpt lat="43.20954" lon="2.0327">
        <ele>211.4</ele>
        <time>2014-02-05T13:29:29.000Z</time>
      </trkpt>
      <trkpt lat="43.20945" lon="2.03276">
        <ele>211.8</ele>
        <time>2014-02-05T13:29:38.000Z</time>
      </trkpt>
      <trkpt lat="43.20936" lon="2.0328">
        <ele>212</ele>
        <time>2014-02-05T13:29:47.000Z</time>
      </trkpt>
      <trkpt lat="43.20928" lon="2.03284">
        <ele>213.2</ele>
        <time>2014-02-05T13:29:57.000Z</time>
      </trkpt>
      <trkpt lat="43.20919" lon="2.03288">
        <ele>214</ele>
        <time>2014-02-05T13:30:6.000Z</time>
      </trkpt>
      <trkpt lat="43.209" lon="2.03289">
        <ele>216.3</ele>
        <time>2014-02-05T13:30:25.000Z</time>
      </trkpt>
      <trkpt lat="43.20891" lon="2.03287">
        <ele>217.1</ele>
        <time>2014-02-05T13:30:34.000Z</time>
      </trkpt>
      <trkpt lat="43.20882" lon="2.03284">
        <ele>218</ele>
        <time>2014-02-05T13:30:43.000Z</time>
      </trkpt>
      <trkpt lat="43.20874" lon="2.03278">
        <ele>219.5</ele>
        <time>2014-02-05T13:30:54.000Z</time>
      </trkpt>
      <trkpt lat="43.20865" lon="2.03275">
        <ele>220.6</ele>
        <time>2014-02-05T13:31:5.000Z</time>
      </trkpt>
      <trkpt lat="43.20856" lon="2.03273">
        <ele>222.4</ele>
        <time>2014-02-05T13:31:17.000Z</time>
      </trkpt>
      <trkpt lat="43.20838" lon="2.03267">
        <ele>225.3</ele>
        <time>2014-02-05T13:31:36.000Z</time>
      </trkpt>
      <trkpt lat="43.2083" lon="2.03262">
        <ele>226.1</ele>
        <time>2014-02-05T13:31:47.000Z</time>
      </trkpt>
      <trkpt lat="43.2082" lon="2.03266">
        <ele>227</ele>
        <time>2014-02-05T13:31:57.000Z</time>
      </trkpt>
      <trkpt lat="43.20811" lon="2.03267">
        <ele>226.7</ele>
        <time>2014-02-05T13:32:5.000Z</time>
      </trkpt>
      <trkpt lat="43.20802" lon="2.0327">
        <ele>226.3</ele>
        <time>2014-02-05T13:32:13.000Z</time>
      </trkpt>
      <trkpt lat="43.20793" lon="2.03277">
        <ele>226.1</ele>
        <time>2014-02-05T13:32:21.000Z</time>
      </trkpt>
      <trkpt lat="43.20778" lon="2.03293">
        <ele>225.3</ele>
        <time>2014-02-05T13:32:39.000Z</time>
      </trkpt>
      <trkpt lat="43.20771" lon="2.03302">
        <ele>224.7</ele>
        <time>2014-02-05T13:32:47.000Z</time>
      </trkpt>
      <trkpt lat="43.20763" lon="2.03311">
        <ele>224.6</ele>
        <time>2014-02-05T13:32:56.000Z</time>
      </trkpt>
      <trkpt lat="43.20755" lon="2.03317">
        <ele>224.1</ele>
        <time>2014-02-05T13:33:5.000Z</time>
      </trkpt>
      <trkpt lat="43.20746" lon="2.03319">
        <ele>224.2</ele>
        <time>2014-02-05T13:33:13.000Z</time>
      </trkpt>
      <trkpt lat="43.20737" lon="2.0332">
        <ele>224.6</ele>
        <time>2014-02-05T13:33:21.000Z</time>
      </trkpt>
      <trkpt lat="43.20727" lon="2.03321">
        <ele>224.8</ele>
        <time>2014-02-05T13:33:30.000Z</time>
      </trkpt>
      <trkpt lat="43.20709" lon="2.03317">
        <ele>225.5</ele>
        <time>2014-02-05T13:33:48.000Z</time>
      </trkpt>
      <trkpt lat="43.207" lon="2.03313">
        <ele>225.6</ele>
        <time>2014-02-05T13:33:57.000Z</time>
      </trkpt>
      <trkpt lat="43.20691" lon="2.03306">
        <ele>223.8</ele>
        <time>2014-02-05T13:34:21.000Z</time>
      </trkpt>
      <trkpt lat="43.20682" lon="2.03301">
        <ele>223.5</ele>
        <time>2014-02-05T13:34:32.000Z</time>
      </trkpt>
      <trkpt lat="43.20664" lon="2.03299">
        <ele>221.8</ele>
        <time>2014-02-05T13:34:48.000Z</time>
      </trkpt>
      <trkpt lat="43.20654" lon="2.03297">
        <ele>220.9</ele>
        <time>2014-02-05T13:34:57.000Z</time>
      </trkpt>
      <trkpt lat="43.20645" lon="2.03295">
        <ele>220.2</ele>
        <time>2014-02-05T13:35:5.000Z</time>
      </trkpt>
      <trkpt lat="43.20636" lon="2.03293">
        <ele>219</ele>
        <time>2014-02-05T13:35:13.000Z</time>
      </trkpt>
      <trkpt lat="43.20627" lon="2.0329">
        <ele>218</ele>
        <time>2014-02-05T13:35:20.000Z</time>
      </trkpt>
      <trkpt lat="43.20617" lon="2.03288">
        <ele>217.2</ele>
        <time>2014-02-05T13:35:28.000Z</time>
      </trkpt>
      <trkpt lat="43.20607" lon="2.03292">
        <ele>216.1</ele>
        <time>2014-02-05T13:35:36.000Z</time>
      </trkpt>
      <trkpt lat="43.2059" lon="2.03305">
        <ele>214.2</ele>
        <time>2014-02-05T13:35:53.000Z</time>
      </trkpt>
      <trkpt lat="43.20582" lon="2.03312">
        <ele>213</ele>
        <time>2014-02-05T13:36:1.000Z</time>
      </trkpt>
      <trkpt lat="43.20574" lon="2.03318">
        <ele>212.1</ele>
        <time>2014-02-05T13:36:9.000Z</time>
      </trkpt>
      <trkpt lat="43.20567" lon="2.03326">
        <ele>211.3</ele>
        <time>2014-02-05T13:36:16.000Z</time>
      </trkpt>
      <trkpt lat="43.20558" lon="2.03332">
        <ele>211</ele>
        <time>2014-02-05T13:36:23.000Z</time>
      </trkpt>
      <trkpt lat="43.20549" lon="2.03337">
        <ele>210.7</ele>
        <time>2014-02-05T13:36:30.000Z</time>
      </trkpt>
      <trkpt lat="43.20541" lon="2.03346">
        <ele>210.2</ele>
        <time>2014-02-05T13:36:38.000Z</time>
      </trkpt>
      <trkpt lat="43.20525" lon="2.0336">
        <ele>208.9</ele>
        <time>2014-02-05T13:36:53.000Z</time>
      </trkpt>
      <trkpt lat="43.20517" lon="2.03366">
        <ele>208.6</ele>
        <time>2014-02-05T13:37:1.000Z</time>
      </trkpt>
      <trkpt lat="43.20508" lon="2.03372">
        <ele>208.4</ele>
        <time>2014-02-05T13:37:9.000Z</time>
      </trkpt>
      <trkpt lat="43.20501" lon="2.03379">
        <ele>208</ele>
        <time>2014-02-05T13:37:17.000Z</time>
      </trkpt>
      <trkpt lat="43.20492" lon="2.03384">
        <ele>207.5</ele>
        <time>2014-02-05T13:37:25.000Z</time>
      </trkpt>
      <trkpt lat="43.20483" lon="2.03387">
        <ele>206.6</ele>
        <time>2014-02-05T13:37:34.000Z</time>
      </trkpt>
      <trkpt lat="43.20474" lon="2.03392">
        <ele>206</ele>
        <time>2014-02-05T13:37:42.000Z</time>
      </trkpt>
      <trkpt lat="43.20455" lon="2.03401">
        <ele>204.1</ele>
        <time>2014-02-05T13:37:58.000Z</time>
      </trkpt>
      <trkpt lat="43.20446" lon="2.03407">
        <ele>203.5</ele>
        <time>2014-02-05T13:38:6.000Z</time>
      </trkpt>
      <trkpt lat="43.20438" lon="2.03413">
        <ele>202.5</ele>
        <time>2014-02-05T13:38:14.000Z</time>
      </trkpt>
      <trkpt lat="43.20429" lon="2.03416">
        <ele>201.5</ele>
        <time>2014-02-05T13:38:22.000Z</time>
      </trkpt>
      <trkpt lat="43.2042" lon="2.03418">
        <ele>200.7</ele>
        <time>2014-02-05T13:38:30.000Z</time>
      </trkpt>
      <trkpt lat="43.20411" lon="2.03417">
        <ele>199.9</ele>
        <time>2014-02-05T13:38:38.000Z</time>
      </trkpt>
      <trkpt lat="43.20404" lon="2.03408">
        <ele>198.9</ele>
        <time>2014-02-05T13:38:47.000Z</time>
      </trkpt>
      <trkpt lat="43.2039" lon="2.03392">
        <ele>197.4</ele>
        <time>2014-02-05T13:39:2.000Z</time>
      </trkpt>
      <trkpt lat="43.20382" lon="2.03385">
        <ele>196.9</ele>
        <time>2014-02-05T13:39:10.000Z</time>
      </trkpt>
      <trkpt lat="43.20374" lon="2.03378">
        <ele>196.1</ele>
        <time>2014-02-05T13:39:19.000Z</time>
      </trkpt>
      <trkpt lat="43.20367" lon="2.03371">
        <ele>195.4</ele>
        <time>2014-02-05T13:39:27.000Z</time>
      </trkpt>
      <trkpt lat="43.20359" lon="2.03364">
        <ele>194.5</ele>
        <time>2014-02-05T13:39:35.000Z</time>
      </trkpt>
      <trkpt lat="43.20351" lon="2.03358">
        <ele>194</ele>
        <time>2014-02-05T13:39:44.000Z</time>
      </trkpt>
      <trkpt lat="43.20342" lon="2.03355">
        <ele>193.1</ele>
        <time>2014-02-05T13:39:53.000Z</time>
      </trkpt>
      <trkpt lat="43.20323" lon="2.03349">
        <ele>190.5</ele>
        <time>2014-02-05T13:40:10.000Z</time>
      </trkpt>
      <trkpt lat="43.20315" lon="2.03345">
        <ele>190</ele>
        <time>2014-02-05T13:40:18.000Z</time>
      </trkpt>
      <trkpt lat="43.20305" lon="2.03342">
        <ele>188.7</ele>
        <time>2014-02-05T13:40:27.000Z</time>
      </trkpt>
      <trkpt lat="43.20296" lon="2.03341">
        <ele>188.1</ele>
        <time>2014-02-05T13:40:35.000Z</time>
      </trkpt>
      <trkpt lat="43.20287" lon="2.03339">
        <ele>187.3</ele>
        <time>2014-02-05T13:40:43.000Z</time>
      </trkpt>
      <trkpt lat="43.20276" lon="2.0334">
        <ele>186</ele>
        <time>2014-02-05T13:40:51.000Z</time>
      </trkpt>
      <trkpt lat="43.20267" lon="2.03344">
        <ele>184.7</ele>
        <time>2014-02-05T13:41:0.000Z</time>
      </trkpt>
      <trkpt lat="43.20249" lon="2.03353">
        <ele>183</ele>
        <time>2014-02-05T13:41:15.000Z</time>
      </trkpt>
      <trkpt lat="43.2024" lon="2.03357">
        <ele>182.2</ele>
        <time>2014-02-05T13:41:23.000Z</time>
      </trkpt>
      <trkpt lat="43.20232" lon="2.03362">
        <ele>181.7</ele>
        <time>2014-02-05T13:41:32.000Z</time>
      </trkpt>
      <trkpt lat="43.20223" lon="2.03368">
        <ele>181.2</ele>
        <time>2014-02-05T13:41:39.000Z</time>
      </trkpt>
      <trkpt lat="43.20216" lon="2.03375">
        <ele>180.6</ele>
        <time>2014-02-05T13:41:49.000Z</time>
      </trkpt>
      <trkpt lat="43.20206" lon="2.03376">
        <ele>180.8</ele>
        <time>2014-02-05T13:42:0.000Z</time>
      </trkpt>
      <trkpt lat="43.20197" lon="2.03375">
        <ele>179.4</ele>
        <time>2014-02-05T13:43:21.000Z</time>
      </trkpt>
      <trkpt lat="43.20179" lon="2.03378">
        <ele>178.5</ele>
        <time>2014-02-05T13:43:44.000Z</time>
      </trkpt>
      <trkpt lat="43.20169" lon="2.0338">
        <ele>178.4</ele>
        <time>2014-02-05T13:43:52.000Z</time>
      </trkpt>
      <trkpt lat="43.2016" lon="2.03383">
        <ele>178.2</ele>
        <time>2014-02-05T13:44:0.000Z</time>
      </trkpt>
      <trkpt lat="43.20151" lon="2.03385">
        <ele>178.1</ele>
        <time>2014-02-05T13:44:9.000Z</time>
      </trkpt>
      <trkpt lat="43.20142" lon="2.03386">
        <ele>177.7</ele>
        <time>2014-02-05T13:44:20.000Z</time>
      </trkpt>
      <trkpt lat="43.20133" lon="2.03387">
        <ele>177.5</ele>
        <time>2014-02-05T13:44:54.000Z</time>
      </trkpt>
      <trkpt lat="43.20105" lon="2.03395">
        <ele>177.3</ele>
        <time>2014-02-05T13:47:20.000Z</time>
      </trkpt>
      <trkpt lat="43.20096" lon="2.03397">
        <ele>177.1</ele>
        <time>2014-02-05T13:47:28.000Z</time>
      </trkpt>
      <trkpt lat="43.20086" lon="2.03398">
        <ele>177.1</ele>
        <time>2014-02-05T13:47:38.000Z</time>
      </trkpt>
      <trkpt lat="43.20077" lon="2.03397">
        <ele>177.2</ele>
        <time>2014-02-05T13:47:48.000Z</time>
      </trkpt>
      <trkpt lat="43.20069" lon="2.03389">
        <ele>178.2</ele>
        <time>2014-02-05T13:47:58.000Z</time>
      </trkpt>
      <trkpt lat="43.2006" lon="2.03386">
        <ele>178.4</ele>
        <time>2014-02-05T13:48:9.000Z</time>
      </trkpt>
      <trkpt lat="43.20043" lon="2.03377">
        <ele>179.4</ele>
        <time>2014-02-05T13:48:29.000Z</time>
      </trkpt>
      <trkpt lat="43.20034" lon="2.03374">
        <ele>180</ele>
        <time>2014-02-05T13:48:40.000Z</time>
      </trkpt>
      <trkpt lat="43.20025" lon="2.03374">
        <ele>180.9</ele>
        <time>2014-02-05T13:48:51.000Z</time>
      </trkpt>
      <trkpt lat="43.20015" lon="2.03372">
        <ele>181.7</ele>
        <time>2014-02-05T13:49:1.000Z</time>
      </trkpt>
      <trkpt lat="43.20006" lon="2.03372">
        <ele>183.1</ele>
        <time>2014-02-05T13:49:12.000Z</time>
      </trkpt>
      <trkpt lat="43.19987" lon="2.0337">
        <ele>185.7</ele>
        <time>2014-02-05T13:49:48.000Z</time>
      </trkpt>
      <trkpt lat="43.19978" lon="2.03374">
        <ele>187.1</ele>
        <time>2014-02-05T13:50:1.000Z</time>
      </trkpt>
      <trkpt lat="43.19968" lon="2.03377">
        <ele>188.6</ele>
        <time>2014-02-05T13:50:16.000Z</time>
      </trkpt>
      <trkpt lat="43.1995" lon="2.0338">
        <ele>190.4</ele>
        <time>2014-02-05T13:50:36.000Z</time>
      </trkpt>
      <trkpt lat="43.1994" lon="2.03381">
        <ele>191.3</ele>
        <time>2014-02-05T13:50:47.000Z</time>
      </trkpt>
      <trkpt lat="43.19931" lon="2.03386">
        <ele>192.4</ele>
        <time>2014-02-05T13:50:58.000Z</time>
      </trkpt>
      <trkpt lat="43.19923" lon="2.0339">
        <ele>193.2</ele>
        <time>2014-02-05T13:51:8.000Z</time>
      </trkpt>
      <trkpt lat="43.19914" lon="2.03395">
        <ele>194</ele>
        <time>2014-02-05T13:51:17.000Z</time>
      </trkpt>
      <trkpt lat="43.19896" lon="2.03405">
        <ele>195.7</ele>
        <time>2014-02-05T13:51:36.000Z</time>
      </trkpt>
      <trkpt lat="43.19888" lon="2.0341">
        <ele>196</ele>
        <time>2014-02-05T13:51:45.000Z</time>
      </trkpt>
      <trkpt lat="43.19879" lon="2.03415">
        <ele>196.6</ele>
        <time>2014-02-05T13:51:55.000Z</time>
      </trkpt>
      <trkpt lat="43.1987" lon="2.03421">
        <ele>197</ele>
        <time>2014-02-05T13:52:4.000Z</time>
      </trkpt>
      <trkpt lat="43.19861" lon="2.03425">
        <ele>197.7</ele>
        <time>2014-02-05T13:52:15.000Z</time>
      </trkpt>
      <trkpt lat="43.19852" lon="2.03429">
        <ele>198.8</ele>
        <time>2014-02-05T13:52:25.000Z</time>
      </trkpt>
      <trkpt lat="43.19834" lon="2.03435">
        <ele>200.6</ele>
        <time>2014-02-05T13:52:44.000Z</time>
      </trkpt>
      <trkpt lat="43.19825" lon="2.03437">
        <ele>201.2</ele>
        <time>2014-02-05T13:52:53.000Z</time>
      </trkpt>
      <trkpt lat="43.19815" lon="2.03439">
        <ele>202</ele>
        <time>2014-02-05T13:53:1.000Z</time>
      </trkpt>
      <trkpt lat="43.19805" lon="2.03442">
        <ele>202.8</ele>
        <time>2014-02-05T13:53:10.000Z</time>
      </trkpt>
      <trkpt lat="43.19796" lon="2.03445">
        <ele>203.7</ele>
        <time>2014-02-05T13:53:19.000Z</time>
      </trkpt>
      <trkpt lat="43.19787" lon="2.03449">
        <ele>205.1</ele>
        <time>2014-02-05T13:53:28.000Z</time>
      </trkpt>
      <trkpt lat="43.19771" lon="2.03463">
        <ele>206.1</ele>
        <time>2014-02-05T13:53:46.000Z</time>
      </trkpt>
      <trkpt lat="43.19764" lon="2.0347">
        <ele>206.9</ele>
        <time>2014-02-05T13:53:55.000Z</time>
      </trkpt>
      <trkpt lat="43.19756" lon="2.03479">
        <ele>207.6</ele>
        <time>2014-02-05T13:54:4.000Z</time>
      </trkpt>
      <trkpt lat="43.19748" lon="2.03486">
        <ele>209.1</ele>
        <time>2014-02-05T13:54:15.000Z</time>
      </trkpt>
      <trkpt lat="43.19742" lon="2.03496">
        <ele>210.8</ele>
        <time>2014-02-05T13:54:26.000Z</time>
      </trkpt>
      <trkpt lat="43.19736" lon="2.03506">
        <ele>212.1</ele>
        <time>2014-02-05T13:54:37.000Z</time>
      </trkpt>
      <trkpt lat="43.19721" lon="2.0352">
        <ele>215</ele>
        <time>2014-02-05T13:54:57.000Z</time>
      </trkpt>
      <trkpt lat="43.19712" lon="2.03523">
        <ele>216.7</ele>
        <time>2014-02-05T13:55:8.000Z</time>
      </trkpt>
      <trkpt lat="43.19703" lon="2.03529">
        <ele>217.5</ele>
        <time>2014-02-05T13:55:19.000Z</time>
      </trkpt>
      <trkpt lat="43.19694" lon="2.03533">
        <ele>218.4</ele>
        <time>2014-02-05T13:55:27.000Z</time>
      </trkpt>
      <trkpt lat="43.19684" lon="2.03536">
        <ele>219.3</ele>
        <time>2014-02-05T13:55:36.000Z</time>
      </trkpt>
      <trkpt lat="43.19674" lon="2.0354">
        <ele>220.1</ele>
        <time>2014-02-05T13:55:44.000Z</time>
      </trkpt>
      <trkpt lat="43.19656" lon="2.03549">
        <ele>222.6</ele>
        <time>2014-02-05T13:56:1.000Z</time>
      </trkpt>
      <trkpt lat="43.19647" lon="2.03554">
        <ele>224.3</ele>
        <time>2014-02-05T13:56:10.000Z</time>
      </trkpt>
      <trkpt lat="43.19639" lon="2.03561">
        <ele>226.2</ele>
        <time>2014-02-05T13:56:18.000Z</time>
      </trkpt>
      <trkpt lat="43.19635" lon="2.03573">
        <ele>227.7</ele>
        <time>2014-02-05T13:56:25.000Z</time>
      </trkpt>
      <trkpt lat="43.19629" lon="2.03583">
        <ele>229</ele>
        <time>2014-02-05T13:56:33.000Z</time>
      </trkpt>
      <trkpt lat="43.19621" lon="2.03588">
        <ele>230.6</ele>
        <time>2014-02-05T13:56:41.000Z</time>
      </trkpt>
      <trkpt lat="43.19611" lon="2.03589">
        <ele>232.1</ele>
        <time>2014-02-05T13:56:48.000Z</time>
      </trkpt>
      <trkpt lat="43.19593" lon="2.03596">
        <ele>232.9</ele>
        <time>2014-02-05T13:57:2.000Z</time>
      </trkpt>
      <trkpt lat="43.19585" lon="2.03603">
        <ele>232.8</ele>
        <time>2014-02-05T13:57:10.000Z</time>
      </trkpt>
      <trkpt lat="43.19577" lon="2.0361">
        <ele>232.5</ele>
        <time>2014-02-05T13:57:17.000Z</time>
      </trkpt>
      <trkpt lat="43.19569" lon="2.03617">
        <ele>232.5</ele>
        <time>2014-02-05T13:57:24.000Z</time>
      </trkpt>
      <trkpt lat="43.19562" lon="2.03624">
        <ele>232.1</ele>
        <time>2014-02-05T13:57:31.000Z</time>
      </trkpt>
      <trkpt lat="43.19553" lon="2.03627">
        <ele>232.1</ele>
        <time>2014-02-05T13:57:38.000Z</time>
      </trkpt>
      <trkpt lat="43.19543" lon="2.03628">
        <ele>232.5</ele>
        <time>2014-02-05T13:57:45.000Z</time>
      </trkpt>
      <trkpt lat="43.19533" lon="2.03627">
        <ele>233.2</ele>
        <time>2014-02-05T13:57:52.000Z</time>
      </trkpt>
      <trkpt lat="43.19513" lon="2.03623">
        <ele>233.3</ele>
        <time>2014-02-05T13:58:6.000Z</time>
      </trkpt>
      <trkpt lat="43.19504" lon="2.03621">
        <ele>233.4</ele>
        <time>2014-02-05T13:58:12.000Z</time>
      </trkpt>
      <trkpt lat="43.19494" lon="2.03619">
        <ele>233.8</ele>
        <time>2014-02-05T13:58:19.000Z</time>
      </trkpt>
      <trkpt lat="43.19484" lon="2.03617">
        <ele>234.8</ele>
        <time>2014-02-05T13:58:26.000Z</time>
      </trkpt>
      <trkpt lat="43.19475" lon="2.03614">
        <ele>235.1</ele>
        <time>2014-02-05T13:58:32.000Z</time>
      </trkpt>
      <trkpt lat="43.19465" lon="2.03611">
        <ele>234.9</ele>
        <time>2014-02-05T13:58:39.000Z</time>
      </trkpt>
      <trkpt lat="43.19455" lon="2.03608">
        <ele>234.6</ele>
        <time>2014-02-05T13:58:46.000Z</time>
      </trkpt>
      <trkpt lat="43.19446" lon="2.03605">
        <ele>234</ele>
        <time>2014-02-05T13:58:53.000Z</time>
      </trkpt>
      <trkpt lat="43.19426" lon="2.03607">
        <ele>233.5</ele>
        <time>2014-02-05T13:59:7.000Z</time>
      </trkpt>
      <trkpt lat="43.19417" lon="2.03611">
        <ele>233.1</ele>
        <time>2014-02-05T13:59:14.000Z</time>
      </trkpt>
      <trkpt lat="43.19408" lon="2.03616">
        <ele>233.1</ele>
        <time>2014-02-05T13:59:21.000Z</time>
      </trkpt>
      <trkpt lat="43.19398" lon="2.03621">
        <ele>233</ele>
        <time>2014-02-05T13:59:28.000Z</time>
      </trkpt>
      <trkpt lat="43.19389" lon="2.03626">
        <ele>233.1</ele>
        <time>2014-02-05T13:59:35.000Z</time>
      </trkpt>
      <trkpt lat="43.19379" lon="2.0363">
        <ele>233.8</ele>
        <time>2014-02-05T13:59:43.000Z</time>
      </trkpt>
      <trkpt lat="43.1937" lon="2.03634">
        <ele>233.6</ele>
        <time>2014-02-05T13:59:50.000Z</time>
      </trkpt>
      <trkpt lat="43.19361" lon="2.03639">
        <ele>233.9</ele>
        <time>2014-02-05T13:59:57.000Z</time>
      </trkpt>
      <trkpt lat="43.19344" lon="2.03651">
        <ele>234.7</ele>
        <time>2014-02-05T14:00:11.000Z</time>
      </trkpt>
      <trkpt lat="43.19335" lon="2.03658">
        <ele>235.6</ele>
        <time>2014-02-05T14:00:19.000Z</time>
      </trkpt>
      <trkpt lat="43.19327" lon="2.03665">
        <ele>236.5</ele>
        <time>2014-02-05T14:00:26.000Z</time>
      </trkpt>
      <trkpt lat="43.19319" lon="2.03672">
        <ele>237.3</ele>
        <time>2014-02-05T14:00:33.000Z</time>
      </trkpt>
      <trkpt lat="43.19312" lon="2.03679">
        <ele>238.6</ele>
        <time>2014-02-05T14:00:40.000Z</time>
      </trkpt>
      <trkpt lat="43.19304" lon="2.03687">
        <ele>239.4</ele>
        <time>2014-02-05T14:00:48.000Z</time>
      </trkpt>
      <trkpt lat="43.19296" lon="2.03694">
        <ele>239.7</ele>
        <time>2014-02-05T14:00:57.000Z</time>
      </trkpt>
      <trkpt lat="43.19286" lon="2.03692">
        <ele>240.6</ele>
        <time>2014-02-05T14:01:5.000Z</time>
      </trkpt>
      <trkpt lat="43.19267" lon="2.03689">
        <ele>242.9</ele>
        <time>2014-02-05T14:01:20.000Z</time>
      </trkpt>
      <trkpt lat="43.19257" lon="2.03689">
        <ele>244.3</ele>
        <time>2014-02-05T14:01:27.000Z</time>
      </trkpt>
      <trkpt lat="43.19247" lon="2.03687">
        <ele>245.7</ele>
        <time>2014-02-05T14:01:35.000Z</time>
      </trkpt>
      <trkpt lat="43.19238" lon="2.03684">
        <ele>247.3</ele>
        <time>2014-02-05T14:01:42.000Z</time>
      </trkpt>
      <trkpt lat="43.19233" lon="2.03672">
        <ele>249.3</ele>
        <time>2014-02-05T14:01:51.000Z</time>
      </trkpt>
      <trkpt lat="43.19235" lon="2.0366">
        <ele>250</ele>
        <time>2014-02-05T14:01:57.000Z</time>
      </trkpt>
      <trkpt lat="43.19236" lon="2.03647">
        <ele>250.9</ele>
        <time>2014-02-05T14:02:3.000Z</time>
      </trkpt>
      <trkpt lat="43.19236" lon="2.03634">
        <ele>251.9</ele>
        <time>2014-02-05T14:02:10.000Z</time>
      </trkpt>
      <trkpt lat="43.19235" lon="2.03606">
        <ele>254.4</ele>
        <time>2014-02-05T14:02:24.000Z</time>
      </trkpt>
      <trkpt lat="43.19232" lon="2.03593">
        <ele>255.4</ele>
        <time>2014-02-05T14:02:31.000Z</time>
      </trkpt>
      <trkpt lat="43.19227" lon="2.03581">
        <ele>256.8</ele>
        <time>2014-02-05T14:02:38.000Z</time>
      </trkpt>
      <trkpt lat="43.19222" lon="2.03569">
        <ele>258.3</ele>
        <time>2014-02-05T14:02:45.000Z</time>
      </trkpt>
      <trkpt lat="43.19216" lon="2.03558">
        <ele>259.4</ele>
        <time>2014-02-05T14:02:52.000Z</time>
      </trkpt>
      <trkpt lat="43.19209" lon="2.03548">
        <ele>260</ele>
        <time>2014-02-05T14:02:59.000Z</time>
      </trkpt>
      <trkpt lat="43.19202" lon="2.03539">
        <ele>260.5</ele>
        <time>2014-02-05T14:03:6.000Z</time>
      </trkpt>
      <trkpt lat="43.19195" lon="2.03531">
        <ele>260.8</ele>
        <time>2014-02-05T14:03:12.000Z</time>
      </trkpt>
      <trkpt lat="43.19177" lon="2.03518">
        <ele>261.5</ele>
        <time>2014-02-05T14:03:26.000Z</time>
      </trkpt>
      <trkpt lat="43.19168" lon="2.03514">
        <ele>261.5</ele>
        <time>2014-02-05T14:03:33.000Z</time>
      </trkpt>
      <trkpt lat="43.19158" lon="2.03514">
        <ele>261.6</ele>
        <time>2014-02-05T14:03:40.000Z</time>
      </trkpt>
      <trkpt lat="43.19148" lon="2.03514">
        <ele>262</ele>
        <time>2014-02-05T14:03:49.000Z</time>
      </trkpt>
      <trkpt lat="43.19139" lon="2.03513">
        <ele>262.5</ele>
        <time>2014-02-05T14:03:57.000Z</time>
      </trkpt>
      <trkpt lat="43.1913" lon="2.03509">
        <ele>263.2</ele>
        <time>2014-02-05T14:04:5.000Z</time>
      </trkpt>
      <trkpt lat="43.19121" lon="2.03505">
        <ele>263.4</ele>
        <time>2014-02-05T14:04:13.000Z</time>
      </trkpt>
      <trkpt lat="43.1911" lon="2.03484">
        <ele>261.7</ele>
        <time>2014-02-05T14:07:4.000Z</time>
      </trkpt>
      <trkpt lat="43.19095" lon="2.0347">
        <ele>262.7</ele>
        <time>2014-02-05T14:07:21.000Z</time>
      </trkpt>
      <trkpt lat="43.19088" lon="2.03459">
        <ele>262.8</ele>
        <time>2014-02-05T14:07:30.000Z</time>
      </trkpt>
      <trkpt lat="43.19084" lon="2.03448">
        <ele>263.4</ele>
        <time>2014-02-05T14:07:40.000Z</time>
      </trkpt>
      <trkpt lat="43.19083" lon="2.03434">
        <ele>263.7</ele>
        <time>2014-02-05T14:07:50.000Z</time>
      </trkpt>
      <trkpt lat="43.19081" lon="2.03421">
        <ele>263.5</ele>
        <time>2014-02-05T14:07:58.000Z</time>
      </trkpt>
      <trkpt lat="43.19082" lon="2.03408">
        <ele>264</ele>
        <time>2014-02-05T14:08:6.000Z</time>
      </trkpt>
      <trkpt lat="43.19086" lon="2.03382">
        <ele>265</ele>
        <time>2014-02-05T14:08:24.000Z</time>
      </trkpt>
      <trkpt lat="43.1909" lon="2.0337">
        <ele>265.4</ele>
        <time>2014-02-05T14:08:32.000Z</time>
      </trkpt>
      <trkpt lat="43.19095" lon="2.03359">
        <ele>265.7</ele>
        <time>2014-02-05T14:08:40.000Z</time>
      </trkpt>
      <trkpt lat="43.19102" lon="2.0335">
        <ele>266.1</ele>
        <time>2014-02-05T14:08:48.000Z</time>
      </trkpt>
      <trkpt lat="43.19109" lon="2.03342">
        <ele>266.3</ele>
        <time>2014-02-05T14:08:55.000Z</time>
      </trkpt>
      <trkpt lat="43.19115" lon="2.03332">
        <ele>266.9</ele>
        <time>2014-02-05T14:09:2.000Z</time>
      </trkpt>
      <trkpt lat="43.19121" lon="2.03323">
        <ele>267.3</ele>
        <time>2014-02-05T14:09:9.000Z</time>
      </trkpt>
      <trkpt lat="43.19135" lon="2.03303">
        <ele>268.4</ele>
        <time>2014-02-05T14:09:25.000Z</time>
      </trkpt>
      <trkpt lat="43.1914" lon="2.03292">
        <ele>268.4</ele>
        <time>2014-02-05T14:09:33.000Z</time>
      </trkpt>
      <trkpt lat="43.19144" lon="2.0328">
        <ele>269.1</ele>
        <time>2014-02-05T14:09:40.000Z</time>
      </trkpt>
      <trkpt lat="43.19148" lon="2.03267">
        <ele>269.1</ele>
        <time>2014-02-05T14:09:49.000Z</time>
      </trkpt>
      <trkpt lat="43.19152" lon="2.03256">
        <ele>269.4</ele>
        <time>2014-02-05T14:09:56.000Z</time>
      </trkpt>
      <trkpt lat="43.19156" lon="2.03244">
        <ele>269.9</ele>
        <time>2014-02-05T14:10:3.000Z</time>
      </trkpt>
      <trkpt lat="43.19161" lon="2.03233">
        <ele>270</ele>
        <time>2014-02-05T14:10:10.000Z</time>
      </trkpt>
      <trkpt lat="43.1917" lon="2.0321">
        <ele>270.5</ele>
        <time>2014-02-05T14:10:25.000Z</time>
      </trkpt>
      <trkpt lat="43.19174" lon="2.03199">
        <ele>270.9</ele>
        <time>2014-02-05T14:10:32.000Z</time>
      </trkpt>
      <trkpt lat="43.19179" lon="2.03188">
        <ele>271.6</ele>
        <time>2014-02-05T14:10:39.000Z</time>
      </trkpt>
      <trkpt lat="43.19183" lon="2.03177">
        <ele>272.1</ele>
        <time>2014-02-05T14:10:46.000Z</time>
      </trkpt>
      <trkpt lat="43.19187" lon="2.03166">
        <ele>272.2</ele>
        <time>2014-02-05T14:10:53.000Z</time>
      </trkpt>
      <trkpt lat="43.19192" lon="2.03154">
        <ele>273</ele>
        <time>2014-02-05T14:11:1.000Z</time>
      </trkpt>
      <trkpt lat="43.19196" lon="2.03141">
        <ele>273.9</ele>
        <time>2014-02-05T14:11:9.000Z</time>
      </trkpt>
      <trkpt lat="43.19201" lon="2.03129">
        <ele>274.1</ele>
        <time>2014-02-05T14:11:17.000Z</time>
      </trkpt>
      <trkpt lat="43.19209" lon="2.03105">
        <ele>274.5</ele>
        <time>2014-02-05T14:11:33.000Z</time>
      </trkpt>
      <trkpt lat="43.19214" lon="2.03092">
        <ele>274.7</ele>
        <time>2014-02-05T14:11:41.000Z</time>
      </trkpt>
      <trkpt lat="43.19218" lon="2.0308">
        <ele>275.7</ele>
        <time>2014-02-05T14:11:49.000Z</time>
      </trkpt>
      <trkpt lat="43.19221" lon="2.03067">
        <ele>275.8</ele>
        <time>2014-02-05T14:11:57.000Z</time>
      </trkpt>
      <trkpt lat="43.19221" lon="2.03053">
        <ele>276.2</ele>
        <time>2014-02-05T14:12:7.000Z</time>
      </trkpt>
      <trkpt lat="43.19221" lon="2.03039">
        <ele>276.6</ele>
        <time>2014-02-05T14:12:15.000Z</time>
      </trkpt>
      <trkpt lat="43.19219" lon="2.03025">
        <ele>276.9</ele>
        <time>2014-02-05T14:12:23.000Z</time>
      </trkpt>
      <trkpt lat="43.19213" lon="2.03">
        <ele>277.5</ele>
        <time>2014-02-05T14:12:39.000Z</time>
      </trkpt>
      <trkpt lat="43.19207" lon="2.0299">
        <ele>278</ele>
        <time>2014-02-05T14:12:47.000Z</time>
      </trkpt>
      <trkpt lat="43.192" lon="2.02981">
        <ele>278.5</ele>
        <time>2014-02-05T14:12:55.000Z</time>
      </trkpt>
      <trkpt lat="43.19193" lon="2.02973">
        <ele>278.8</ele>
        <time>2014-02-05T14:13:2.000Z</time>
      </trkpt>
      <trkpt lat="43.19183" lon="2.02967">
        <ele>279.1</ele>
        <time>2014-02-05T14:13:10.000Z</time>
      </trkpt>
      <trkpt lat="43.19175" lon="2.02963">
        <ele>279.4</ele>
        <time>2014-02-05T14:13:17.000Z</time>
      </trkpt>
      <trkpt lat="43.19166" lon="2.02963">
        <ele>280.3</ele>
        <time>2014-02-05T14:13:25.000Z</time>
      </trkpt>
      <trkpt lat="43.19155" lon="2.02986">
        <ele>282.2</ele>
        <time>2014-02-05T14:13:40.000Z</time>
      </trkpt>
      <trkpt lat="43.19151" lon="2.02997">
        <ele>283.1</ele>
        <time>2014-02-05T14:13:47.000Z</time>
      </trkpt>
      <trkpt lat="43.19146" lon="2.03008">
        <ele>284.2</ele>
        <time>2014-02-05T14:13:54.000Z</time>
      </trkpt>
      <trkpt lat="43.19141" lon="2.03019">
        <ele>285.2</ele>
        <time>2014-02-05T14:14:1.000Z</time>
      </trkpt>
      <trkpt lat="43.19136" lon="2.0303">
        <ele>285.9</ele>
        <time>2014-02-05T14:14:8.000Z</time>
      </trkpt>
      <trkpt lat="43.1913" lon="2.03041">
        <ele>287.1</ele>
        <time>2014-02-05T14:14:16.000Z</time>
      </trkpt>
      <trkpt lat="43.19124" lon="2.03052">
        <ele>288.3</ele>
        <time>2014-02-05T14:14:23.000Z</time>
      </trkpt>
      <trkpt lat="43.19119" lon="2.03062">
        <ele>288.9</ele>
        <time>2014-02-05T14:14:30.000Z</time>
      </trkpt>
      <trkpt lat="43.19106" lon="2.03084">
        <ele>290.6</ele>
        <time>2014-02-05T14:14:46.000Z</time>
      </trkpt>
      <trkpt lat="43.191" lon="2.03096">
        <ele>291.8</ele>
        <time>2014-02-05T14:14:54.000Z</time>
      </trkpt>
      <trkpt lat="43.19097" lon="2.03107">
        <ele>291.7</ele>
        <time>2014-02-05T14:15:1.000Z</time>
      </trkpt>
      <trkpt lat="43.19094" lon="2.03119">
        <ele>292.8</ele>
        <time>2014-02-05T14:15:8.000Z</time>
      </trkpt>
      <trkpt lat="43.1909" lon="2.03132">
        <ele>293.8</ele>
        <time>2014-02-05T14:15:15.000Z</time>
      </trkpt>
      <trkpt lat="43.19087" lon="2.03143">
        <ele>294.8</ele>
        <time>2014-02-05T14:15:22.000Z</time>
      </trkpt>
      <trkpt lat="43.19081" lon="2.03155">
        <ele>295.7</ele>
        <time>2014-02-05T14:15:29.000Z</time>
      </trkpt>
      <trkpt lat="43.19076" lon="2.03166">
        <ele>296.3</ele>
        <time>2014-02-05T14:15:36.000Z</time>
      </trkpt>
      <trkpt lat="43.19066" lon="2.03188">
        <ele>297.8</ele>
        <time>2014-02-05T14:15:51.000Z</time>
      </trkpt>
      <trkpt lat="43.19062" lon="2.032">
        <ele>299.2</ele>
        <time>2014-02-05T14:15:58.000Z</time>
      </trkpt>
      <trkpt lat="43.19058" lon="2.03212">
        <ele>299.6</ele>
        <time>2014-02-05T14:16:6.000Z</time>
      </trkpt>
      <trkpt lat="43.19051" lon="2.03222">
        <ele>299.9</ele>
        <time>2014-02-05T14:16:13.000Z</time>
      </trkpt>
      <trkpt lat="43.19045" lon="2.03231">
        <ele>300.6</ele>
        <time>2014-02-05T14:16:20.000Z</time>
      </trkpt>
      <trkpt lat="43.19038" lon="2.0324">
        <ele>301.4</ele>
        <time>2014-02-05T14:16:27.000Z</time>
      </trkpt>
      <trkpt lat="43.1903" lon="2.03249">
        <ele>302</ele>
        <time>2014-02-05T14:16:34.000Z</time>
      </trkpt>
      <trkpt lat="43.19022" lon="2.03257">
        <ele>302.9</ele>
        <time>2014-02-05T14:16:41.000Z</time>
      </trkpt>
      <trkpt lat="43.19007" lon="2.03273">
        <ele>304.9</ele>
        <time>2014-02-05T14:16:56.000Z</time>
      </trkpt>
      <trkpt lat="43.19" lon="2.03281">
        <ele>305.8</ele>
        <time>2014-02-05T14:17:3.000Z</time>
      </trkpt>
      <trkpt lat="43.18994" lon="2.03292">
        <ele>307.4</ele>
        <time>2014-02-05T14:17:11.000Z</time>
      </trkpt>
      <trkpt lat="43.18988" lon="2.03302">
        <ele>309.2</ele>
        <time>2014-02-05T14:17:18.000Z</time>
      </trkpt>
      <trkpt lat="43.18984" lon="2.03314">
        <ele>311.3</ele>
        <time>2014-02-05T14:17:25.000Z</time>
      </trkpt>
      <trkpt lat="43.18978" lon="2.03326">
        <ele>313.5</ele>
        <time>2014-02-05T14:17:33.000Z</time>
      </trkpt>
      <trkpt lat="43.18973" lon="2.03336">
        <ele>315.1</ele>
        <time>2014-02-05T14:17:40.000Z</time>
      </trkpt>
      <trkpt lat="43.18965" lon="2.03346">
        <ele>316.2</ele>
        <time>2014-02-05T14:17:47.000Z</time>
      </trkpt>
      <trkpt lat="43.18952" lon="2.03363">
        <ele>318.6</ele>
        <time>2014-02-05T14:18:11.000Z</time>
      </trkpt>
      <trkpt lat="43.18943" lon="2.03367">
        <ele>319.1</ele>
        <time>2014-02-05T14:19:0.000Z</time>
      </trkpt>
      <trkpt lat="43.18929" lon="2.03385">
        <ele>319.4</ele>
        <time>2014-02-05T14:19:15.000Z</time>
      </trkpt>
      <trkpt lat="43.18922" lon="2.03394">
        <ele>320.2</ele>
        <time>2014-02-05T14:19:22.000Z</time>
      </trkpt>
      <trkpt lat="43.18914" lon="2.03403">
        <ele>321</ele>
        <time>2014-02-05T14:19:29.000Z</time>
      </trkpt>
      <trkpt lat="43.18907" lon="2.03413">
        <ele>322.4</ele>
        <time>2014-02-05T14:19:38.000Z</time>
      </trkpt>
      <trkpt lat="43.18898" lon="2.03421">
        <ele>324.2</ele>
        <time>2014-02-05T14:19:47.000Z</time>
      </trkpt>
      <trkpt lat="43.18891" lon="2.03428">
        <ele>326.2</ele>
        <time>2014-02-05T14:19:56.000Z</time>
      </trkpt>
      <trkpt lat="43.18883" lon="2.03438">
        <ele>328.6</ele>
        <time>2014-02-05T14:20:8.000Z</time>
      </trkpt>
      <trkpt lat="43.18864" lon="2.03446">
        <ele>326.9</ele>
        <time>2014-02-05T14:20:22.000Z</time>
      </trkpt>
      <trkpt lat="43.18858" lon="2.03455">
        <ele>328.5</ele>
        <time>2014-02-05T14:20:38.000Z</time>
      </trkpt>
      <trkpt lat="43.18855" lon="2.03468">
        <ele>326.4</ele>
        <time>2014-02-05T14:21:29.000Z</time>
      </trkpt>
      <trkpt lat="43.18849" lon="2.03493">
        <ele>325.6</ele>
        <time>2014-02-05T14:21:40.000Z</time>
      </trkpt>
      <trkpt lat="43.18844" lon="2.03503">
        <ele>325.9</ele>
        <time>2014-02-05T14:21:47.000Z</time>
      </trkpt>
      <trkpt lat="43.1884" lon="2.03515">
        <ele>326.4</ele>
        <time>2014-02-05T14:22:1.000Z</time>
      </trkpt>
      <trkpt lat="43.18834" lon="2.03525">
        <ele>325.5</ele>
        <time>2014-02-05T14:22:9.000Z</time>
      </trkpt>
      <trkpt lat="43.18825" lon="2.03528">
        <ele>326.3</ele>
        <time>2014-02-05T14:22:20.000Z</time>
      </trkpt>
      <trkpt lat="43.18818" lon="2.03538">
        <ele>330.2</ele>
        <time>2014-02-05T14:22:31.000Z</time>
      </trkpt>
      <trkpt lat="43.18799" lon="2.03536">
        <ele>331.6</ele>
        <time>2014-02-05T14:22:44.000Z</time>
      </trkpt>
      <trkpt lat="43.18798" lon="2.03523">
        <ele>334.1</ele>
        <time>2014-02-05T14:22:48.000Z</time>
      </trkpt>
      <trkpt lat="43.188" lon="2.03509">
        <ele>336.5</ele>
        <time>2014-02-05T14:22:54.000Z</time>
      </trkpt>
      <trkpt lat="43.18791" lon="2.03515">
        <ele>337.8</ele>
        <time>2014-02-05T14:22:59.000Z</time>
      </trkpt>
      <trkpt lat="43.18782" lon="2.03523">
        <ele>337.9</ele>
        <time>2014-02-05T14:23:4.000Z</time>
      </trkpt>
      <trkpt lat="43.18786" lon="2.03511">
        <ele>335.6</ele>
        <time>2014-02-05T14:23:26.000Z</time>
      </trkpt>
      <trkpt lat="43.18794" lon="2.03502">
        <ele>336.1</ele>
        <time>2014-02-05T14:23:31.000Z</time>
      </trkpt>
      <trkpt lat="43.188" lon="2.03492">
        <ele>336.1</ele>
        <time>2014-02-05T14:23:37.000Z</time>
      </trkpt>
      <trkpt lat="43.18782" lon="2.03484">
        <ele>336.2</ele>
        <time>2014-02-05T14:23:41.000Z</time>
      </trkpt>
      <trkpt lat="43.18771" lon="2.03485">
        <ele>336.9</ele>
        <time>2014-02-05T14:23:44.000Z</time>
      </trkpt>
      <trkpt lat="43.18765" lon="2.0347">
        <ele>336.7</ele>
        <time>2014-02-05T14:23:49.000Z</time>
      </trkpt>
      <trkpt lat="43.1876" lon="2.03458">
        <ele>337</ele>
        <time>2014-02-05T14:23:52.000Z</time>
      </trkpt>
      <trkpt lat="43.18759" lon="2.03445">
        <ele>337.9</ele>
        <time>2014-02-05T14:23:57.000Z</time>
      </trkpt>
      <trkpt lat="43.18755" lon="2.03456">
        <ele>337.9</ele>
        <time>2014-02-05T14:24:8.000Z</time>
      </trkpt>
      <trkpt lat="43.18746" lon="2.0347">
        <ele>338.6</ele>
        <time>2014-02-05T14:24:11.000Z</time>
      </trkpt>
      <trkpt lat="43.18737" lon="2.03476">
        <ele>336.6</ele>
        <time>2014-02-05T14:24:15.000Z</time>
      </trkpt>
      <trkpt lat="43.18728" lon="2.03479">
        <ele>337.1</ele>
        <time>2014-02-05T14:24:19.000Z</time>
      </trkpt>
      <trkpt lat="43.18732" lon="2.03467">
        <ele>335.9</ele>
        <time>2014-02-05T14:24:59.000Z</time>
      </trkpt>
      <trkpt lat="43.18738" lon="2.03443">
        <ele>333.3</ele>
        <time>2014-02-05T14:25:13.000Z</time>
      </trkpt>
      <trkpt lat="43.18742" lon="2.0343">
        <ele>332.7</ele>
        <time>2014-02-05T14:25:21.000Z</time>
      </trkpt>
      <trkpt lat="43.18743" lon="2.03417">
        <ele>331</ele>
        <time>2014-02-05T14:25:29.000Z</time>
      </trkpt>
      <trkpt lat="43.18747" lon="2.03404">
        <ele>331.1</ele>
        <time>2014-02-05T14:25:33.000Z</time>
      </trkpt>
      <trkpt lat="43.18749" lon="2.0339">
        <ele>330.9</ele>
        <time>2014-02-05T14:25:39.000Z</time>
      </trkpt>
      <trkpt lat="43.18751" lon="2.03377">
        <ele>330.5</ele>
        <time>2014-02-05T14:25:45.000Z</time>
      </trkpt>
      <trkpt lat="43.18749" lon="2.03364">
        <ele>329.9</ele>
        <time>2014-02-05T14:25:52.000Z</time>
      </trkpt>
      <trkpt lat="43.18742" lon="2.03355">
        <ele>329.3</ele>
        <time>2014-02-05T14:25:58.000Z</time>
      </trkpt>
      <trkpt lat="43.18734" lon="2.03348">
        <ele>328.1</ele>
        <time>2014-02-05T14:26:4.000Z</time>
      </trkpt>
      <trkpt lat="43.18718" lon="2.03334">
        <ele>327.3</ele>
        <time>2014-02-05T14:26:12.000Z</time>
      </trkpt>
      <trkpt lat="43.1871" lon="2.03326">
        <ele>326.8</ele>
        <time>2014-02-05T14:26:17.000Z</time>
      </trkpt>
      <trkpt lat="43.18701" lon="2.03318">
        <ele>326.4</ele>
        <time>2014-02-05T14:26:23.000Z</time>
      </trkpt>
      <trkpt lat="43.18693" lon="2.03314">
        <ele>326.2</ele>
        <time>2014-02-05T14:26:30.000Z</time>
      </trkpt>
      <trkpt lat="43.18683" lon="2.03312">
        <ele>325.3</ele>
        <time>2014-02-05T14:26:36.000Z</time>
      </trkpt>
      <trkpt lat="43.18675" lon="2.03306">
        <ele>324.8</ele>
        <time>2014-02-05T14:26:46.000Z</time>
      </trkpt>
      <trkpt lat="43.18665" lon="2.03305">
        <ele>323.1</ele>
        <time>2014-02-05T14:26:52.000Z</time>
      </trkpt>
      <trkpt lat="43.18655" lon="2.03304">
        <ele>321.7</ele>
        <time>2014-02-05T14:26:58.000Z</time>
      </trkpt>
      <trkpt lat="43.18647" lon="2.03299">
        <ele>321.5</ele>
        <time>2014-02-05T14:27:4.000Z</time>
      </trkpt>
      <trkpt lat="43.18641" lon="2.03288">
        <ele>320.8</ele>
        <time>2014-02-05T14:27:12.000Z</time>
      </trkpt>
      <trkpt lat="43.18625" lon="2.03273">
        <ele>318.7</ele>
        <time>2014-02-05T14:27:30.000Z</time>
      </trkpt>
      <trkpt lat="43.18617" lon="2.03266">
        <ele>318.3</ele>
        <time>2014-02-05T14:27:36.000Z</time>
      </trkpt>
      <trkpt lat="43.18606" lon="2.03264">
        <ele>314.2</ele>
        <time>2014-02-05T14:28:6.000Z</time>
      </trkpt>
      <trkpt lat="43.18597" lon="2.03264">
        <ele>312</ele>
        <time>2014-02-05T14:28:12.000Z</time>
      </trkpt>
      <trkpt lat="43.18588" lon="2.0326">
        <ele>308</ele>
        <time>2014-02-05T14:28:27.000Z</time>
      </trkpt>
      <trkpt lat="43.18573" lon="2.03274">
        <ele>304.9</ele>
        <time>2014-02-05T14:28:40.000Z</time>
      </trkpt>
      <trkpt lat="43.18568" lon="2.03284">
        <ele>304</ele>
        <time>2014-02-05T14:28:46.000Z</time>
      </trkpt>
      <trkpt lat="43.18565" lon="2.03297">
        <ele>304.2</ele>
        <time>2014-02-05T14:28:54.000Z</time>
      </trkpt>
      <trkpt lat="43.1856" lon="2.03308">
        <ele>304.1</ele>
        <time>2014-02-05T14:29:0.000Z</time>
      </trkpt>
      <trkpt lat="43.18558" lon="2.03321">
        <ele>304.6</ele>
        <time>2014-02-05T14:29:6.000Z</time>
      </trkpt>
      <trkpt lat="43.18555" lon="2.03334">
        <ele>304.9</ele>
        <time>2014-02-05T14:29:14.000Z</time>
      </trkpt>
      <trkpt lat="43.18554" lon="2.03341">
        <ele>302.3</ele>
        <time>2014-02-05T14:29:48.000Z</time>
      </trkpt>
    </trkseg>
  </trk>
</gpx>